Provisional Data: Quittapahilla Creek near Syner, PA


Please select a monitoring station.
Please select start date.
Please select start date.

Toggle Unit: C/F Toggle Unit: C/F
Sample Time Temperature (C) Temperature (F) Specific Conductivity (mS/cm) pH   Turbidity (NTU+) DO (mg/L)
12/23/2022 12:00:00 AM -99999.99 -179968 -99999.99 -99999.99 -99999.99 -99999.99
12/23/2022 12:15:00 AM -99999.99 -179968 -99999.99 -99999.99 -99999.99 -99999.99
12/23/2022 12:30:00 AM -99999.99 -179968 -99999.99 -99999.99 -99999.99 -99999.99
12/23/2022 12:45:00 AM -99999.99 -179968 -99999.99 -99999.99 -99999.99 -99999.99
12/23/2022 1:00:00 AM -99999.99 -179968 -99999.99 -99999.99 -99999.99 -99999.99
12/23/2022 1:15:00 AM -99999.99 -179968 -99999.99 -99999.99 -99999.99 -99999.99
12/23/2022 1:30:00 AM -99999.99 -179968 -99999.99 -99999.99 -99999.99 -99999.99
12/23/2022 1:45:00 AM -99999.99 -179968 -99999.99 -99999.99 -99999.99 -99999.99
12/23/2022 2:00:00 AM -99999.99 -179968 -99999.99 -99999.99 -99999.99 -99999.99
12/23/2022 2:15:00 AM -99999.99 -179968 -99999.99 -99999.99 -99999.99 -99999.99
12/23/2022 2:30:00 AM -99999.99 -179968 -99999.99 -99999.99 -99999.99 -99999.99
12/23/2022 2:45:00 AM -99999.99 -179968 -99999.99 -99999.99 -99999.99 -99999.99
12/23/2022 3:00:00 AM -99999.99 -179968 -99999.99 -99999.99 -99999.99 -99999.99
12/23/2022 3:15:00 AM -99999.99 -179968 -99999.99 -99999.99 -99999.99 -99999.99
12/23/2022 3:30:00 AM -99999.99 -179968 -99999.99 -99999.99 -99999.99 -99999.99
12/23/2022 3:45:00 AM -99999.99 -179968 -99999.99 -99999.99 -99999.99 -99999.99
12/23/2022 4:00:00 AM -99999.99 -179968 -99999.99 -99999.99 -99999.99 -99999.99
12/23/2022 4:15:00 AM -99999.99 -179968 -99999.99 -99999.99 -99999.99 -99999.99
12/23/2022 4:30:00 AM -99999.99 -179968 -99999.99 -99999.99 -99999.99 -99999.99
12/23/2022 4:45:00 AM -99999.99 -179968 -99999.99 -99999.99 -99999.99 -99999.99
12/23/2022 5:00:00 AM -99999.99 -179968 -99999.99 -99999.99 -99999.99 -99999.99
12/23/2022 5:15:00 AM -99999.99 -179968 -99999.99 -99999.99 -99999.99 -99999.99
12/23/2022 5:30:00 AM -99999.99 -179968 -99999.99 -99999.99 -99999.99 -99999.99
12/23/2022 5:45:00 AM -99999.99 -179968 -99999.99 -99999.99 -99999.99 -99999.99
12/23/2022 6:00:00 AM -99999.99 -179968 -99999.99 -99999.99 -99999.99 -99999.99
12/23/2022 6:15:00 AM -99999.99 -179968 -99999.99 -99999.99 -99999.99 -99999.99
12/23/2022 6:30:00 AM -99999.99 -179968 -99999.99 -99999.99 -99999.99 -99999.99
12/23/2022 6:45:00 AM -99999.99 -179968 -99999.99 -99999.99 -99999.99 -99999.99
12/23/2022 7:00:00 AM -99999.99 -179968 -99999.99 -99999.99 -99999.99 -99999.99
12/23/2022 7:15:00 AM -99999.99 -179968 -99999.99 -99999.99 -99999.99 -99999.99
12/23/2022 7:30:00 AM -99999.99 -179968 -99999.99 -99999.99 -99999.99 -99999.99
12/23/2022 7:45:00 AM -99999.99 -179968 -99999.99 -99999.99 -99999.99 -99999.99
12/23/2022 8:00:00 AM -99999.99 -179968 -99999.99 -99999.99 -99999.99 -99999.99
12/23/2022 8:15:00 AM -99999.99 -179968 -99999.99 -99999.99 -99999.99 -99999.99
12/23/2022 8:30:00 AM -99999.99 -179968 -99999.99 -99999.99 -99999.99 -99999.99
12/23/2022 8:45:00 AM -99999.99 -179968 -99999.99 -99999.99 -99999.99 -99999.99
12/23/2022 9:00:00 AM -99999.99 -179968 -99999.99 -99999.99 -99999.99 -99999.99
12/23/2022 9:15:00 AM -99999.99 -179968 -99999.99 -99999.99 -99999.99 -99999.99
12/23/2022 9:30:00 AM -99999.99 -179968 -99999.99 -99999.99 -99999.99 -99999.99
12/23/2022 9:45:00 AM -99999.99 -179968 -99999.99 -99999.99 -99999.99 -99999.99
12/23/2022 10:00:00 AM -99999.99 -179968 -99999.99 -99999.99 -99999.99 -99999.99
12/23/2022 10:15:00 AM -99999.99 -179968 -99999.99 -99999.99 -99999.99 -99999.99
12/23/2022 10:30:00 AM -99999.99 -179968 -99999.99 -99999.99 -99999.99 -99999.99
12/23/2022 10:45:00 AM -99999.99 -179968 -99999.99 -99999.99 -99999.99 -99999.99
12/23/2022 11:00:00 AM -99999.99 -179968 -99999.99 -99999.99 -99999.99 -99999.99
12/23/2022 11:15:00 AM -99999.99 -179968 -99999.99 -99999.99 -99999.99 -99999.99
12/23/2022 11:30:00 AM -99999.99 -179968 -99999.99 -99999.99 -99999.99 -99999.99
12/23/2022 11:45:00 AM 7.01 44.618 0.443 6.78 0 10.18
12/23/2022 12:00:00 PM 7.01 44.618 0.446 7.42 5723 10.21
12/23/2022 12:15:00 PM 6.97 44.546 0.449 7.44 5723 10.22
12/23/2022 12:30:00 PM 6.98 44.564 0.452 7.44 5723 10.22
12/23/2022 12:45:00 PM 6.98 44.564 0.455 7.44 5723 10.23
12/23/2022 1:00:00 PM 6.97 44.546 0.459 7.44 5723 10.23
12/23/2022 1:15:00 PM 6.98 44.564 0.463 7.44 5723 10.25
12/23/2022 1:30:00 PM 6.93 44.474 0.467 7.44 5723 10.27
12/23/2022 1:45:00 PM 6.88 44.384 0.47 7.44 5723 10.28
12/23/2022 2:00:00 PM 6.84 44.312 0.475 7.44 5723 10.3
12/23/2022 2:15:00 PM 6.8 44.24 0.486 7.45 5723 10.29
12/23/2022 2:30:00 PM 6.76 44.168 0.493 7.45 5723 10.31
12/23/2022 2:45:00 PM 6.72 44.096 0.499 7.45 5723 10.32
12/23/2022 3:00:00 PM 6.67 44.006 0.501 7.46 5723 10.31
12/23/2022 3:15:00 PM 6.61 43.898 0.501 7.46 5723 10.31
12/23/2022 3:30:00 PM 6.55 43.79 0.499 7.46 5723 10.32
12/23/2022 3:45:00 PM 6.49 43.682 0.497 7.46 5723 10.31
12/23/2022 4:00:00 PM 6.41 43.538 0.496 7.46 5723 10.34
12/23/2022 4:15:00 PM 6.32 43.376 0.497 7.46 5723 10.4
12/23/2022 4:30:00 PM 6.26 43.268 0.499 7.47 5723 10.41
12/23/2022 4:45:00 PM 6.18 43.124 0.499 7.47 5704 10.43
12/23/2022 5:00:00 PM 6.08 42.944 0.5 7.48 5230 10.42
12/23/2022 5:15:00 PM 6.01 42.818 0.5 7.48 5244 10.44
12/23/2022 5:30:00 PM 5.93 42.674 0.497 7.48 5631 10.45
12/23/2022 5:45:00 PM 5.93 42.674 0.497 7.48 5631 10.45
12/23/2022 6:00:00 PM -99999.99 -179968 -99999.99 -99999.99 -99999.99 -99999.99
12/23/2022 6:15:00 PM -99999.99 -179968 -99999.99 -99999.99 -99999.99 -99999.99
12/23/2022 6:30:00 PM -99999.99 -179968 -99999.99 -99999.99 -99999.99 -99999.99
12/23/2022 6:45:00 PM -99999.99 -179968 -99999.99 -99999.99 -99999.99 -99999.99
12/23/2022 7:00:00 PM -99999.99 -179968 -99999.99 -99999.99 -99999.99 -99999.99
12/23/2022 7:15:00 PM -99999.99 -179968 -99999.99 -99999.99 -99999.99 -99999.99
12/23/2022 7:30:00 PM -99999.99 -179968 -99999.99 -99999.99 -99999.99 -99999.99
12/23/2022 7:45:00 PM -99999.99 -179968 -99999.99 -99999.99 -99999.99 -99999.99
12/23/2022 8:00:00 PM -99999.99 -179968 -99999.99 -99999.99 -99999.99 -99999.99
12/23/2022 8:15:00 PM -99999.99 -179968 -99999.99 -99999.99 -99999.99 -99999.99
12/23/2022 8:30:00 PM -99999.99 -179968 -99999.99 -99999.99 -99999.99 -99999.99
12/23/2022 8:45:00 PM -99999.99 -179968 -99999.99 -99999.99 -99999.99 -99999.99
12/23/2022 9:00:00 PM -99999.99 -179968 -99999.99 -99999.99 -99999.99 -99999.99
12/23/2022 9:15:00 PM -99999.99 -179968 -99999.99 -99999.99 -99999.99 -99999.99
12/23/2022 9:30:00 PM -99999.99 -179968 -99999.99 -99999.99 -99999.99 -99999.99
12/23/2022 9:45:00 PM -99999.99 -179968 -99999.99 -99999.99 -99999.99 -99999.99
12/23/2022 10:00:00 PM -99999.99 -179968 -99999.99 -99999.99 -99999.99 -99999.99
12/23/2022 10:15:00 PM -99999.99 -179968 -99999.99 -99999.99 -99999.99 -99999.99
12/23/2022 10:30:00 PM -99999.99 -179968 -99999.99 -99999.99 -99999.99 -99999.99
12/23/2022 10:45:00 PM -99999.99 -179968 -99999.99 -99999.99 -99999.99 -99999.99
12/23/2022 11:00:00 PM -99999.99 -179968 -99999.99 -99999.99 -99999.99 -99999.99
12/23/2022 11:15:00 PM -99999.99 -179968 -99999.99 -99999.99 -99999.99 -99999.99
12/23/2022 11:30:00 PM -99999.99 -179968 -99999.99 -99999.99 -99999.99 -99999.99
12/23/2022 11:45:00 PM -99999.99 -179968 -99999.99 -99999.99 -99999.99 -99999.99
12/24/2022 12:00:00 AM -99999.99 -179968 -99999.99 -99999.99 -99999.99 -99999.99
12/24/2022 12:15:00 AM -99999.99 -179968 -99999.99 -99999.99 -99999.99 -99999.99
12/24/2022 12:30:00 AM -99999.99 -179968 -99999.99 -99999.99 -99999.99 -99999.99
12/24/2022 12:45:00 AM -99999.99 -179968 -99999.99 -99999.99 -99999.99 -99999.99
12/24/2022 1:00:00 AM -99999.99 -179968 -99999.99 -99999.99 -99999.99 -99999.99
12/24/2022 1:15:00 AM -99999.99 -179968 -99999.99 -99999.99 -99999.99 -99999.99
12/24/2022 1:30:00 AM -99999.99 -179968 -99999.99 -99999.99 -99999.99 -99999.99
12/24/2022 1:45:00 AM -99999.99 -179968 -99999.99 -99999.99 -99999.99 -99999.99
12/24/2022 2:00:00 AM -99999.99 -179968 -99999.99 -99999.99 -99999.99 -99999.99
12/24/2022 2:15:00 AM -99999.99 -179968 -99999.99 -99999.99 -99999.99 -99999.99
12/24/2022 2:30:00 AM -99999.99 -179968 -99999.99 -99999.99 -99999.99 -99999.99
12/24/2022 2:45:00 AM -99999.99 -179968 -99999.99 -99999.99 -99999.99 -99999.99
12/24/2022 3:00:00 AM -99999.99 -179968 -99999.99 -99999.99 -99999.99 -99999.99
12/24/2022 3:15:00 AM -99999.99 -179968 -99999.99 -99999.99 -99999.99 -99999.99
12/24/2022 3:30:00 AM -99999.99 -179968 -99999.99 -99999.99 -99999.99 -99999.99
12/24/2022 3:45:00 AM -99999.99 -179968 -99999.99 -99999.99 -99999.99 -99999.99
12/24/2022 4:00:00 AM -99999.99 -179968 -99999.99 -99999.99 -99999.99 -99999.99
12/24/2022 4:15:00 AM -99999.99 -179968 -99999.99 -99999.99 -99999.99 -99999.99
12/24/2022 4:30:00 AM -99999.99 -179968 -99999.99 -99999.99 -99999.99 -99999.99
12/24/2022 4:45:00 AM -99999.99 -179968 -99999.99 -99999.99 -99999.99 -99999.99
12/24/2022 5:00:00 AM -99999.99 -179968 -99999.99 -99999.99 -99999.99 -99999.99
12/24/2022 5:15:00 AM -99999.99 -179968 -99999.99 -99999.99 -99999.99 -99999.99
12/24/2022 5:30:00 AM -99999.99 -179968 -99999.99 -99999.99 -99999.99 -99999.99
12/24/2022 5:45:00 AM -99999.99 -179968 -99999.99 -99999.99 -99999.99 -99999.99
12/24/2022 6:00:00 AM -99999.99 -179968 -99999.99 -99999.99 -99999.99 -99999.99
12/24/2022 6:15:00 AM -99999.99 -179968 -99999.99 -99999.99 -99999.99 -99999.99
12/24/2022 6:30:00 AM -99999.99 -179968 -99999.99 -99999.99 -99999.99 -99999.99
12/24/2022 6:45:00 AM -99999.99 -179968 -99999.99 -99999.99 -99999.99 -99999.99
12/24/2022 7:00:00 AM -99999.99 -179968 -99999.99 -99999.99 -99999.99 -99999.99
12/24/2022 7:15:00 AM -99999.99 -179968 -99999.99 -99999.99 -99999.99 -99999.99
12/24/2022 7:30:00 AM -99999.99 -179968 -99999.99 -99999.99 -99999.99 -99999.99
12/24/2022 7:45:00 AM -99999.99 -179968 -99999.99 -99999.99 -99999.99 -99999.99
12/24/2022 8:00:00 AM -99999.99 -179968 -99999.99 -99999.99 -99999.99 -99999.99
12/24/2022 8:15:00 AM -99999.99 -179968 -99999.99 -99999.99 -99999.99 -99999.99
12/24/2022 8:30:00 AM -99999.99 -179968 -99999.99 -99999.99 -99999.99 -99999.99
12/24/2022 8:45:00 AM -99999.99 -179968 -99999.99 -99999.99 -99999.99 -99999.99
12/24/2022 9:00:00 AM -99999.99 -179968 -99999.99 -99999.99 -99999.99 -99999.99
12/24/2022 9:15:00 AM -99999.99 -179968 -99999.99 -99999.99 -99999.99 -99999.99
12/24/2022 9:30:00 AM -99999.99 -179968 -99999.99 -99999.99 -99999.99 -99999.99
12/24/2022 9:45:00 AM -99999.99 -179968 -99999.99 -99999.99 -99999.99 -99999.99
12/24/2022 10:00:00 AM -99999.99 -179968 -99999.99 -99999.99 -99999.99 -99999.99
12/24/2022 10:15:00 AM 2.54 36.572 0.547 7.59 5718 12.37
12/24/2022 10:30:00 AM 2.57 36.626 0.548 7.61 5724 12.43
12/24/2022 10:45:00 AM 2.56 36.608 0.551 7.61 5724 12.51
12/24/2022 11:00:00 AM 2.56 36.608 0.552 7.61 5723 12.58
12/24/2022 11:15:00 AM 2.59 36.662 0.549 7.6 5723 12.58
12/24/2022 11:30:00 AM 2.62 36.716 0.549 7.61 5709 12.63
12/24/2022 11:45:00 AM 2.61 36.698 0.549 7.6 5707 12.66
12/24/2022 12:00:00 PM 2.61 36.698 0.551 7.6 5710 12.75
12/24/2022 12:15:00 PM 2.65 36.77 0.553 7.61 5722 12.79
12/24/2022 12:30:00 PM 2.71 36.878 0.553 7.61 5722 12.82
12/24/2022 12:45:00 PM 2.75 36.95 0.553 7.61 5723 12.87
12/24/2022 1:00:00 PM 2.81 37.058 0.551 7.62 5723 12.9
12/24/2022 1:15:00 PM 2.86 37.148 0.552 7.62 5724 12.93
12/24/2022 1:30:00 PM 2.92 37.256 0.553 7.63 5724 12.98
12/24/2022 1:45:00 PM 2.96 37.328 0.554 7.62 5724 13.02
12/24/2022 2:00:00 PM 2.99 37.382 0.554 7.63 5724 13.03
12/24/2022 2:15:00 PM 3.04 37.472 0.555 7.63 5724 13.03
12/24/2022 2:30:00 PM 3.03 37.454 0.539 7.62 5724 13.03
12/24/2022 2:45:00 PM 3.03 37.454 0.559 7.62 5724 13.04
12/24/2022 3:00:00 PM 3.02 37.436 0.558 7.62 5724 13.05
12/24/2022 3:15:00 PM 3.05 37.49 0.551 7.62 5724 13.03
12/24/2022 3:30:00 PM 3.09 37.562 0.555 7.63 5724 13.02
12/24/2022 3:45:00 PM 3.13 37.634 0.555 7.63 5724 13
12/24/2022 4:00:00 PM 3.15 37.67 0.556 7.63 5724 12.98
12/24/2022 4:15:00 PM 3.16 37.688 0.556 7.63 5724 12.93
12/24/2022 4:30:00 PM 3.17 37.706 0.557 7.62 5724 12.87
12/24/2022 4:45:00 PM 3.17 37.706 0.558 7.62 5724 12.82
12/24/2022 5:00:00 PM 3.16 37.688 0.559 7.61 5724 12.76
12/24/2022 5:15:00 PM 3.16 37.688 0.559 7.61 5724 12.71
12/24/2022 5:30:00 PM 3.16 37.688 0.56 7.61 5724 12.65
12/24/2022 5:45:00 PM 3.15 37.67 0.561 7.6 5724 12.6
12/24/2022 6:00:00 PM 3.14 37.652 0.562 7.6 5724 12.54
12/24/2022 6:15:00 PM 3.13 37.634 0.562 7.6 5724 12.53
12/24/2022 6:30:00 PM 3.12 37.616 0.562 7.6 5724 12.49
12/24/2022 6:45:00 PM 3.14 37.652 0.56 7.6 5724 12.43
12/24/2022 7:00:00 PM 3.16 37.688 0.56 7.6 5724 12.4
12/24/2022 7:15:00 PM 3.16 37.688 0.558 7.6 5724 12.35
12/24/2022 7:30:00 PM 3.17 37.706 0.56 7.59 5724 12.3
12/24/2022 7:45:00 PM 3.17 37.706 0.561 7.59 5724 12.27
12/24/2022 8:00:00 PM 3.16 37.688 0.56 7.59 5724 12.24
12/24/2022 8:15:00 PM 3.16 37.688 0.559 7.59 5724 12.22
12/24/2022 8:30:00 PM 3.18 37.724 0.526 7.58 5724 12.2
12/24/2022 8:45:00 PM 3.19 37.742 0.552 7.58 5724 12.16
12/24/2022 9:00:00 PM 3.19 37.742 0.552 7.58 5724 12.16
12/24/2022 9:15:00 PM 3.19 37.742 0.552 7.58 5724 12.16
12/24/2022 9:30:00 PM 3.19 37.742 0.552 7.58 5724 12.16
12/24/2022 9:45:00 PM -99999.99 -179968 -99999.99 -99999.99 -99999.99 -99999.99
12/24/2022 10:00:00 PM -99999.99 -179968 -99999.99 -99999.99 -99999.99 -99999.99
12/24/2022 10:15:00 PM -99999.99 -179968 -99999.99 -99999.99 -99999.99 -99999.99
12/24/2022 10:30:00 PM -99999.99 -179968 -99999.99 -99999.99 -99999.99 -99999.99
12/24/2022 10:45:00 PM -99999.99 -179968 -99999.99 -99999.99 -99999.99 -99999.99
12/24/2022 11:00:00 PM -99999.99 -179968 -99999.99 -99999.99 -99999.99 -99999.99
12/24/2022 11:15:00 PM -99999.99 -179968 -99999.99 -99999.99 -99999.99 -99999.99
12/24/2022 11:30:00 PM -99999.99 -179968 -99999.99 -99999.99 -99999.99 -99999.99
12/24/2022 11:45:00 PM -99999.99 -179968 -99999.99 -99999.99 -99999.99 -99999.99
12/25/2022 12:00:00 AM -99999.99 -179968 -99999.99 -99999.99 -99999.99 -99999.99
12/25/2022 12:15:00 AM -99999.99 -179968 -99999.99 -99999.99 -99999.99 -99999.99
12/25/2022 12:30:00 AM -99999.99 -179968 -99999.99 -99999.99 -99999.99 -99999.99
12/25/2022 12:45:00 AM -99999.99 -179968 -99999.99 -99999.99 -99999.99 -99999.99
12/25/2022 1:00:00 AM -99999.99 -179968 -99999.99 -99999.99 -99999.99 -99999.99
12/25/2022 1:15:00 AM -99999.99 -179968 -99999.99 -99999.99 -99999.99 -99999.99
12/25/2022 1:30:00 AM -99999.99 -179968 -99999.99 -99999.99 -99999.99 -99999.99
12/25/2022 1:45:00 AM -99999.99 -179968 -99999.99 -99999.99 -99999.99 -99999.99
12/25/2022 2:00:00 AM -99999.99 -179968 -99999.99 -99999.99 -99999.99 -99999.99
12/25/2022 2:15:00 AM -99999.99 -179968 -99999.99 -99999.99 -99999.99 -99999.99
12/25/2022 2:30:00 AM -99999.99 -179968 -99999.99 -99999.99 -99999.99 -99999.99
12/25/2022 2:45:00 AM -99999.99 -179968 -99999.99 -99999.99 -99999.99 -99999.99
12/25/2022 3:00:00 AM -99999.99 -179968 -99999.99 -99999.99 -99999.99 -99999.99
12/25/2022 3:15:00 AM -99999.99 -179968 -99999.99 -99999.99 -99999.99 -99999.99
12/25/2022 3:30:00 AM -99999.99 -179968 -99999.99 -99999.99 -99999.99 -99999.99
12/25/2022 3:45:00 AM -99999.99 -179968 -99999.99 -99999.99 -99999.99 -99999.99
12/25/2022 4:00:00 AM -99999.99 -179968 -99999.99 -99999.99 -99999.99 -99999.99
12/25/2022 4:15:00 AM -99999.99 -179968 -99999.99 -99999.99 -99999.99 -99999.99
12/25/2022 4:30:00 AM -99999.99 -179968 -99999.99 -99999.99 -99999.99 -99999.99
12/25/2022 4:45:00 AM -99999.99 -179968 -99999.99 -99999.99 -99999.99 -99999.99
12/25/2022 5:00:00 AM -99999.99 -179968 -99999.99 -99999.99 -99999.99 -99999.99
12/25/2022 5:15:00 AM -99999.99 -179968 -99999.99 -99999.99 -99999.99 -99999.99
12/25/2022 5:30:00 AM -99999.99 -179968 -99999.99 -99999.99 -99999.99 -99999.99
12/25/2022 5:45:00 AM -99999.99 -179968 -99999.99 -99999.99 -99999.99 -99999.99
12/25/2022 6:00:00 AM -99999.99 -179968 -99999.99 -99999.99 -99999.99 -99999.99
12/25/2022 6:15:00 AM -99999.99 -179968 -99999.99 -99999.99 -99999.99 -99999.99
12/25/2022 6:30:00 AM -99999.99 -179968 -99999.99 -99999.99 -99999.99 -99999.99
12/25/2022 6:45:00 AM -99999.99 -179968 -99999.99 -99999.99 -99999.99 -99999.99
12/25/2022 7:00:00 AM -99999.99 -179968 -99999.99 -99999.99 -99999.99 -99999.99
12/25/2022 7:15:00 AM -99999.99 -179968 -99999.99 -99999.99 -99999.99 -99999.99
12/25/2022 7:30:00 AM -99999.99 -179968 -99999.99 -99999.99 -99999.99 -99999.99
12/25/2022 7:45:00 AM -99999.99 -179968 -99999.99 -99999.99 -99999.99 -99999.99
12/25/2022 8:00:00 AM -99999.99 -179968 -99999.99 -99999.99 -99999.99 -99999.99
12/25/2022 8:15:00 AM -99999.99 -179968 -99999.99 -99999.99 -99999.99 -99999.99
12/25/2022 8:30:00 AM -99999.99 -179968 -99999.99 -99999.99 -99999.99 -99999.99
12/25/2022 8:45:00 AM -99999.99 -179968 -99999.99 -99999.99 -99999.99 -99999.99
12/25/2022 9:00:00 AM -99999.99 -179968 -99999.99 -99999.99 -99999.99 -99999.99
12/25/2022 9:15:00 AM -99999.99 -179968 -99999.99 -99999.99 -99999.99 -99999.99
12/25/2022 9:30:00 AM 3.95 39.11 0.584 7.66 5724 11.87
12/25/2022 9:45:00 AM 3.99 39.182 0.577 7.59 5724 12
12/25/2022 10:00:00 AM 4.05 39.29 0.585 7.62 5724 12.06
12/25/2022 10:15:00 AM 4.09 39.362 0.586 7.63 5724 12.15
12/25/2022 10:30:00 AM 4.07 39.326 0.588 7.62 5724 12.21
12/25/2022 10:45:00 AM 4.1 39.38 0.591 7.61 5724 12.29
12/25/2022 11:00:00 AM 4.17 39.506 0.591 7.62 5724 12.37
12/25/2022 11:15:00 AM 4.29 39.722 0.589 7.63 5724 12.45
12/25/2022 11:30:00 AM 4.38 39.884 0.587 7.63 5724 12.49
12/25/2022 11:45:00 AM 4.44 39.992 0.586 7.62 5724 12.53
12/25/2022 12:00:00 PM 4.47 40.046 0.586 7.62 5724 12.58
12/25/2022 12:15:00 PM 4.46 40.028 0.586 7.62 5724 12.62
12/25/2022 12:30:00 PM 4.51 40.118 0.587 7.63 5724 12.65
12/25/2022 12:45:00 PM 4.6 40.28 0.579 7.63 5724 12.71
12/25/2022 1:00:00 PM 4.64 40.352 0.587 7.63 5724 12.74
12/25/2022 1:15:00 PM 4.72 40.496 0.587 7.64 5724 12.78
12/25/2022 1:30:00 PM 4.78 40.604 0.586 7.65 5724 12.84
12/25/2022 1:45:00 PM 4.8 40.64 0.585 7.65 5723 12.88
12/25/2022 2:00:00 PM 4.79 40.622 0.585 7.65 5724 12.88
12/25/2022 2:15:00 PM 4.81 40.658 0.585 7.65 5724 12.88
12/25/2022 2:30:00 PM 4.82 40.676 0.584 7.65 5724 12.87
12/25/2022 2:45:00 PM 4.8 40.64 0.585 7.66 5723 12.89
12/25/2022 3:00:00 PM 4.78 40.604 0.586 7.66 5723 12.91
12/25/2022 3:15:00 PM 4.75 40.55 0.588 7.66 5724 12.91
12/25/2022 3:30:00 PM 4.72 40.496 0.588 7.67 5724 12.86
12/25/2022 3:45:00 PM 4.7 40.46 0.586 7.66 5724 12.8
12/25/2022 4:00:00 PM 4.69 40.442 0.585 7.66 5724 12.74
12/25/2022 4:15:00 PM 4.68 40.424 0.583 7.66 5724 12.68
12/25/2022 4:30:00 PM 4.69 40.442 0.582 7.66 5723 12.59
12/25/2022 4:45:00 PM 4.69 40.442 0.582 7.66 5724 12.52
12/25/2022 5:00:00 PM 4.7 40.46 0.582 7.65 5724 12.47
12/25/2022 5:15:00 PM 4.7 40.46 0.582 7.65 5724 12.37
12/25/2022 5:30:00 PM 4.7 40.46 0.582 7.65 5724 12.32
12/25/2022 5:45:00 PM 4.71 40.478 0.582 7.65 5724 12.25
12/25/2022 6:00:00 PM 4.72 40.496 0.582 7.65 5724 12.2
12/25/2022 6:15:00 PM 4.73 40.514 0.582 7.64 5724 12.16
12/25/2022 6:30:00 PM 4.73 40.514 0.582 7.64 5724 12.11
12/25/2022 6:45:00 PM 4.74 40.532 0.583 7.64 5724 12.06
12/25/2022 7:00:00 PM 4.72 40.496 0.584 7.64 5724 12.04
12/25/2022 7:15:00 PM 4.67 40.406 0.587 7.63 5723 11.99
12/25/2022 7:30:00 PM 4.64 40.352 0.588 7.63 5723 11.97
12/25/2022 7:45:00 PM 4.64 40.352 0.587 7.62 5724 11.92
12/25/2022 8:00:00 PM 4.64 40.352 0.586 7.62 5724 11.86
12/25/2022 8:15:00 PM 4.64 40.352 0.585 7.62 5723 11.82
12/25/2022 8:30:00 PM 4.65 40.37 0.584 7.62 5724 11.78
12/25/2022 8:45:00 PM 4.66 40.388 0.582 7.62 5723 11.73
12/25/2022 9:00:00 PM 4.66 40.388 0.582 7.62 5723 11.68
12/25/2022 9:15:00 PM 4.67 40.406 0.582 7.61 5724 11.64
12/25/2022 9:30:00 PM 4.67 40.406 0.582 7.61 5724 11.6
12/25/2022 9:45:00 PM 4.69 40.442 0.583 7.61 5724 11.53
12/25/2022 10:00:00 PM 4.71 40.478 0.583 7.61 5724 11.51
12/25/2022 10:15:00 PM 4.73 40.514 0.583 7.6 5724 11.46
12/25/2022 10:30:00 PM 4.76 40.568 0.578 7.59 5724 11.42
12/25/2022 10:45:00 PM 4.78 40.604 0.584 7.6 5724 11.39
12/25/2022 11:00:00 PM 4.8 40.64 0.584 7.59 5724 11.38
12/25/2022 11:15:00 PM 4.78 40.604 0.585 7.59 5724 11.38
12/25/2022 11:30:00 PM 4.75 40.55 0.589 7.59 5724 11.35
12/25/2022 11:45:00 PM 4.76 40.568 0.59 7.58 5724 11.33
12/26/2022 12:00:00 AM 4.76 40.568 0.59 7.58 5724 11.33
12/26/2022 12:15:00 AM 4.76 40.568 0.59 7.58 5724 11.33
12/26/2022 12:30:00 AM 4.76 40.568 0.59 7.58 5724 11.33
12/26/2022 12:45:00 AM 4.76 40.568 0.59 7.58 5724 11.33
12/26/2022 1:00:00 AM -99999.99 -179968 -99999.99 -99999.99 -99999.99 -99999.99
12/26/2022 1:15:00 AM -99999.99 -179968 -99999.99 -99999.99 -99999.99 -99999.99
12/26/2022 1:30:00 AM -99999.99 -179968 -99999.99 -99999.99 -99999.99 -99999.99
12/26/2022 1:45:00 AM -99999.99 -179968 -99999.99 -99999.99 -99999.99 -99999.99
12/26/2022 2:00:00 AM -99999.99 -179968 -99999.99 -99999.99 -99999.99 -99999.99
12/26/2022 2:15:00 AM -99999.99 -179968 -99999.99 -99999.99 -99999.99 -99999.99
12/26/2022 2:30:00 AM -99999.99 -179968 -99999.99 -99999.99 -99999.99 -99999.99
12/26/2022 2:45:00 AM -99999.99 -179968 -99999.99 -99999.99 -99999.99 -99999.99
12/26/2022 3:00:00 AM -99999.99 -179968 -99999.99 -99999.99 -99999.99 -99999.99
12/26/2022 3:15:00 AM -99999.99 -179968 -99999.99 -99999.99 -99999.99 -99999.99
12/26/2022 3:30:00 AM -99999.99 -179968 -99999.99 -99999.99 -99999.99 -99999.99
12/26/2022 3:45:00 AM -99999.99 -179968 -99999.99 -99999.99 -99999.99 -99999.99
12/26/2022 4:00:00 AM -99999.99 -179968 -99999.99 -99999.99 -99999.99 -99999.99
12/26/2022 4:15:00 AM -99999.99 -179968 -99999.99 -99999.99 -99999.99 -99999.99
12/26/2022 4:30:00 AM -99999.99 -179968 -99999.99 -99999.99 -99999.99 -99999.99
12/26/2022 4:45:00 AM -99999.99 -179968 -99999.99 -99999.99 -99999.99 -99999.99
12/26/2022 5:00:00 AM -99999.99 -179968 -99999.99 -99999.99 -99999.99 -99999.99
12/26/2022 5:15:00 AM -99999.99 -179968 -99999.99 -99999.99 -99999.99 -99999.99
12/26/2022 5:30:00 AM -99999.99 -179968 -99999.99 -99999.99 -99999.99 -99999.99
12/26/2022 5:45:00 AM -99999.99 -179968 -99999.99 -99999.99 -99999.99 -99999.99
12/26/2022 6:00:00 AM -99999.99 -179968 -99999.99 -99999.99 -99999.99 -99999.99
12/26/2022 6:15:00 AM -99999.99 -179968 -99999.99 -99999.99 -99999.99 -99999.99
12/26/2022 6:30:00 AM -99999.99 -179968 -99999.99 -99999.99 -99999.99 -99999.99
12/26/2022 6:45:00 AM -99999.99 -179968 -99999.99 -99999.99 -99999.99 -99999.99
12/26/2022 7:00:00 AM -99999.99 -179968 -99999.99 -99999.99 -99999.99 -99999.99
12/26/2022 7:15:00 AM -99999.99 -179968 -99999.99 -99999.99 -99999.99 -99999.99
12/26/2022 7:30:00 AM -99999.99 -179968 -99999.99 -99999.99 -99999.99 -99999.99
12/26/2022 7:45:00 AM -99999.99 -179968 -99999.99 -99999.99 -99999.99 -99999.99
12/26/2022 8:00:00 AM -99999.99 -179968 -99999.99 -99999.99 -99999.99 -99999.99
12/26/2022 8:15:00 AM -99999.99 -179968 -99999.99 -99999.99 -99999.99 -99999.99
12/26/2022 8:30:00 AM -99999.99 -179968 -99999.99 -99999.99 -99999.99 -99999.99
12/26/2022 8:45:00 AM -99999.99 -179968 -99999.99 -99999.99 -99999.99 -99999.99
12/26/2022 9:00:00 AM -99999.99 -179968 -99999.99 -99999.99 -99999.99 -99999.99
12/26/2022 9:15:00 AM -99999.99 -179968 -99999.99 -99999.99 -99999.99 -99999.99
12/26/2022 9:30:00 AM 4.53 40.154 0.577 7.66 5154 11.83
12/26/2022 9:45:00 AM 4.56 40.208 0.576 7.6 5054 11.94
12/26/2022 10:00:00 AM 4.61 40.298 0.547 7.63 4903 12.01
12/26/2022 10:15:00 AM 4.65 40.37 0.554 7.64 4811 12.07
12/26/2022 10:30:00 AM 4.64 40.352 0.583 7.63 4799 12.17
12/26/2022 10:45:00 AM 4.63 40.334 0.582 7.64 4774 12.27
12/26/2022 11:00:00 AM 4.65 40.37 0.594 7.65 4779 12.33
12/26/2022 11:15:00 AM 4.72 40.496 0.592 7.65 4841 12.4
12/26/2022 11:30:00 AM 4.82 40.676 0.59 7.65 4986 12.46
12/26/2022 11:45:00 AM 4.9 40.82 0.587 7.66 5376 12.54
12/26/2022 12:00:00 PM 4.98 40.964 0.574 7.67 5169 12.62
12/26/2022 12:15:00 PM 5.04 41.072 0.585 7.67 5080 12.68
12/26/2022 12:30:00 PM 5.11 41.198 0.587 7.67 5184 12.73
12/26/2022 12:45:00 PM 5.17 41.306 0.586 7.67 5175 12.78
12/26/2022 1:00:00 PM 5.21 41.378 0.587 7.68 5173 12.81
12/26/2022 1:15:00 PM 5.24 41.432 0.546 7.68 5169 12.84
12/26/2022 1:30:00 PM 5.24 41.432 0.556 7.69 5006 12.92
12/26/2022 1:45:00 PM 5.23 41.414 0.593 7.69 5042 12.94
12/26/2022 2:00:00 PM 5.24 41.432 0.593 7.69 4870 12.97
12/26/2022 2:15:00 PM 5.26 41.468 0.593 7.7 4967 12.92
12/26/2022 2:30:00 PM 5.26 41.468 0.593 7.69 4883 12.9
12/26/2022 2:45:00 PM 5.28 41.504 0.592 7.7 4920 12.87
12/26/2022 3:00:00 PM 5.31 41.558 0.591 7.7 4877 12.86
12/26/2022 3:15:00 PM 5.32 41.576 0.59 7.69 4873 12.85
12/26/2022 3:30:00 PM 5.33 41.594 0.582 7.69 4859 12.81
12/26/2022 3:45:00 PM 5.35 41.63 0.584 7.69 4839 12.75
12/26/2022 4:00:00 PM 5.37 41.666 0.584 7.69 4860 12.66
12/26/2022 4:15:00 PM 5.41 41.738 0.565 7.69 4789 12.6
12/26/2022 4:30:00 PM 5.43 41.774 0.562 7.68 4779 12.54
12/26/2022 4:45:00 PM 5.45 41.81 0.553 7.68 4754 12.47
12/26/2022 5:00:00 PM 5.46 41.828 0.58 7.68 4743 12.4
12/26/2022 5:15:00 PM 5.47 41.846 0.562 7.67 4724 12.32
12/26/2022 5:30:00 PM 5.46 41.828 0.514 7.67 4741 12.26
12/26/2022 5:45:00 PM 5.45 41.81 0.591 7.67 4782 12.18
12/26/2022 6:00:00 PM 5.41 41.738 0.589 7.66 4741 12.15
12/26/2022 6:15:00 PM 5.37 41.666 0.588 7.66 4751 12.11
12/26/2022 6:30:00 PM 5.37 41.666 0.566 7.66 4808 12.07
12/26/2022 6:45:00 PM 5.4 41.72 0.592 7.66 4700 12.01
12/26/2022 7:00:00 PM 5.42 41.756 0.591 7.66 4716 11.95
12/26/2022 7:15:00 PM 5.44 41.792 0.533 7.66 4761 11.9
12/26/2022 7:30:00 PM 5.46 41.828 0.544 7.65 4639 11.85
12/26/2022 7:45:00 PM 5.47 41.846 0.563 7.65 4674 11.79
12/26/2022 8:00:00 PM 5.49 41.882 0.589 7.65 4666 11.76
12/26/2022 8:15:00 PM 5.5 41.9 0.589 7.65 4655 11.72
12/26/2022 8:30:00 PM 5.51 41.918 0.589 7.65 4664 11.69
12/26/2022 8:45:00 PM 5.52 41.936 0.584 7.65 4661 11.63
12/26/2022 9:00:00 PM 5.53 41.954 0.589 7.64 4657 11.6
12/26/2022 9:15:00 PM 5.55 41.99 0.589 7.64 4659 11.56
12/26/2022 9:30:00 PM 5.57 42.026 0.59 7.64 4577 11.5
12/26/2022 9:45:00 PM 5.59 42.062 0.59 7.64 4525 11.47
12/26/2022 10:00:00 PM 5.59 42.062 0.59 7.64 4525 11.47
12/26/2022 10:15:00 PM -99999.99 -179968 -99999.99 -99999.99 -99999.99 -99999.99
12/26/2022 10:30:00 PM -99999.99 -179968 -99999.99 -99999.99 -99999.99 -99999.99
12/26/2022 10:45:00 PM -99999.99 -179968 -99999.99 -99999.99 -99999.99 -99999.99
12/26/2022 11:00:00 PM -99999.99 -179968 -99999.99 -99999.99 -99999.99 -99999.99
12/26/2022 11:15:00 PM -99999.99 -179968 -99999.99 -99999.99 -99999.99 -99999.99
12/26/2022 11:30:00 PM -99999.99 -179968 -99999.99 -99999.99 -99999.99 -99999.99
12/26/2022 11:45:00 PM -99999.99 -179968 -99999.99 -99999.99 -99999.99 -99999.99
12/27/2022 12:00:00 AM -99999.99 -179968 -99999.99 -99999.99 -99999.99 -99999.99
12/27/2022 12:15:00 AM -99999.99 -179968 -99999.99 -99999.99 -99999.99 -99999.99
12/27/2022 12:30:00 AM -99999.99 -179968 -99999.99 -99999.99 -99999.99 -99999.99
12/27/2022 12:45:00 AM -99999.99 -179968 -99999.99 -99999.99 -99999.99 -99999.99
12/27/2022 1:00:00 AM -99999.99 -179968 -99999.99 -99999.99 -99999.99 -99999.99
12/27/2022 1:15:00 AM -99999.99 -179968 -99999.99 -99999.99 -99999.99 -99999.99
12/27/2022 1:30:00 AM -99999.99 -179968 -99999.99 -99999.99 -99999.99 -99999.99
12/27/2022 1:45:00 AM -99999.99 -179968 -99999.99 -99999.99 -99999.99 -99999.99
12/27/2022 2:00:00 AM -99999.99 -179968 -99999.99 -99999.99 -99999.99 -99999.99
12/27/2022 2:15:00 AM -99999.99 -179968 -99999.99 -99999.99 -99999.99 -99999.99
12/27/2022 2:30:00 AM -99999.99 -179968 -99999.99 -99999.99 -99999.99 -99999.99
12/27/2022 2:45:00 AM -99999.99 -179968 -99999.99 -99999.99 -99999.99 -99999.99
12/27/2022 3:00:00 AM -99999.99 -179968 -99999.99 -99999.99 -99999.99 -99999.99
12/27/2022 3:15:00 AM -99999.99 -179968 -99999.99 -99999.99 -99999.99 -99999.99
12/27/2022 3:30:00 AM -99999.99 -179968 -99999.99 -99999.99 -99999.99 -99999.99
12/27/2022 3:45:00 AM -99999.99 -179968 -99999.99 -99999.99 -99999.99 -99999.99
12/27/2022 4:00:00 AM -99999.99 -179968 -99999.99 -99999.99 -99999.99 -99999.99
12/27/2022 4:15:00 AM -99999.99 -179968 -99999.99 -99999.99 -99999.99 -99999.99
12/27/2022 4:30:00 AM -99999.99 -179968 -99999.99 -99999.99 -99999.99 -99999.99
12/27/2022 4:45:00 AM -99999.99 -179968 -99999.99 -99999.99 -99999.99 -99999.99
12/27/2022 5:00:00 AM -99999.99 -179968 -99999.99 -99999.99 -99999.99 -99999.99
12/27/2022 5:15:00 AM -99999.99 -179968 -99999.99 -99999.99 -99999.99 -99999.99
12/27/2022 5:30:00 AM -99999.99 -179968 -99999.99 -99999.99 -99999.99 -99999.99
12/27/2022 5:45:00 AM -99999.99 -179968 -99999.99 -99999.99 -99999.99 -99999.99
12/27/2022 6:00:00 AM -99999.99 -179968 -99999.99 -99999.99 -99999.99 -99999.99
12/27/2022 6:15:00 AM -99999.99 -179968 -99999.99 -99999.99 -99999.99 -99999.99
12/27/2022 6:30:00 AM -99999.99 -179968 -99999.99 -99999.99 -99999.99 -99999.99
12/27/2022 6:45:00 AM -99999.99 -179968 -99999.99 -99999.99 -99999.99 -99999.99
12/27/2022 7:00:00 AM -99999.99 -179968 -99999.99 -99999.99 -99999.99 -99999.99
12/27/2022 7:15:00 AM -99999.99 -179968 -99999.99 -99999.99 -99999.99 -99999.99
12/27/2022 7:30:00 AM -99999.99 -179968 -99999.99 -99999.99 -99999.99 -99999.99
12/27/2022 7:45:00 AM -99999.99 -179968 -99999.99 -99999.99 -99999.99 -99999.99
12/27/2022 8:00:00 AM -99999.99 -179968 -99999.99 -99999.99 -99999.99 -99999.99
12/27/2022 8:15:00 AM -99999.99 -179968 -99999.99 -99999.99 -99999.99 -99999.99
12/27/2022 8:30:00 AM -99999.99 -179968 -99999.99 -99999.99 -99999.99 -99999.99
12/27/2022 8:45:00 AM -99999.99 -179968 -99999.99 -99999.99 -99999.99 -99999.99
12/27/2022 9:00:00 AM -99999.99 -179968 -99999.99 -99999.99 -99999.99 -99999.99
12/27/2022 9:15:00 AM -99999.99 -179968 -99999.99 -99999.99 -99999.99 -99999.99
12/27/2022 9:30:00 AM -99999.99 -179968 -99999.99 -99999.99 -99999.99 -99999.99
12/27/2022 9:45:00 AM -99999.99 -179968 -99999.99 -99999.99 -99999.99 -99999.99
12/27/2022 10:00:00 AM -99999.99 -179968 -99999.99 -99999.99 -99999.99 -99999.99
12/27/2022 10:15:00 AM -99999.99 -179968 -99999.99 -99999.99 -99999.99 -99999.99
12/27/2022 10:30:00 AM -99999.99 -179968 -99999.99 -99999.99 -99999.99 -99999.99
12/27/2022 10:45:00 AM -99999.99 -179968 -99999.99 -99999.99 -99999.99 -99999.99
12/27/2022 11:00:00 AM -99999.99 -179968 -99999.99 -99999.99 -99999.99 -99999.99
12/27/2022 11:15:00 AM -99999.99 -179968 -99999.99 -99999.99 -99999.99 -99999.99
12/27/2022 11:30:00 AM 6.53 43.754 0.597 7.74 1794 11.86
12/27/2022 11:45:00 AM 6.59 43.862 0.595 7.77 1821 11.95
12/27/2022 12:00:00 PM 6.64 43.952 0.595 7.76 1941 12.03
12/27/2022 12:15:00 PM 6.68 44.024 0.59 7.75 1866 12.13
12/27/2022 12:30:00 PM 6.73 44.114 0.589 7.74 1812 12.18
12/27/2022 12:45:00 PM 6.77 44.186 0.559 7.72 1931 12.25
12/27/2022 1:00:00 PM 6.79 44.222 0.58 7.72 1974 12.34
12/27/2022 1:15:00 PM 6.78 44.204 0.582 7.71 2046 12.39
12/27/2022 1:30:00 PM 6.79 44.222 0.592 7.71 2128 12.46
12/27/2022 1:45:00 PM 6.83 44.294 0.59 7.71 2007 12.51
12/27/2022 2:00:00 PM 6.88 44.384 0.588 7.71 1918 12.52
12/27/2022 2:15:00 PM 6.93 44.474 0.586 7.71 2052 12.53
12/27/2022 2:30:00 PM 6.97 44.546 0.504 7.72 1934 12.54
12/27/2022 2:45:00 PM 6.99 44.582 0.503 7.72 1907 12.57
12/27/2022 3:00:00 PM 6.97 44.546 0.495 7.71 2090 12.55
12/27/2022 3:15:00 PM 6.96 44.528 0.571 7.71 1952 12.53
12/27/2022 3:30:00 PM 6.97 44.546 0.52 7.71 1970 12.48
12/27/2022 3:45:00 PM 7 44.6 0.501 7.71 1931 12.41
12/27/2022 4:00:00 PM 7.02 44.636 0.489 7.71 1995 12.35
12/27/2022 4:15:00 PM 7.03 44.654 0.529 7.71 2051 12.24
12/27/2022 4:30:00 PM 7.04 44.672 0.528 7.7 1774 12.14
12/27/2022 4:45:00 PM 7.04 44.672 0.528 7.7 1774 12.14
12/27/2022 5:00:00 PM -99999.99 -179968 -99999.99 -99999.99 -99999.99 -99999.99
12/27/2022 5:15:00 PM -99999.99 -179968 -99999.99 -99999.99 -99999.99 -99999.99
12/27/2022 5:30:00 PM -99999.99 -179968 -99999.99 -99999.99 -99999.99 -99999.99
12/27/2022 5:45:00 PM -99999.99 -179968 -99999.99 -99999.99 -99999.99 -99999.99
12/27/2022 6:00:00 PM -99999.99 -179968 -99999.99 -99999.99 -99999.99 -99999.99
12/27/2022 6:15:00 PM -99999.99 -179968 -99999.99 -99999.99 -99999.99 -99999.99
12/27/2022 6:30:00 PM -99999.99 -179968 -99999.99 -99999.99 -99999.99 -99999.99
12/27/2022 6:45:00 PM -99999.99 -179968 -99999.99 -99999.99 -99999.99 -99999.99
12/27/2022 7:00:00 PM -99999.99 -179968 -99999.99 -99999.99 -99999.99 -99999.99
12/27/2022 7:15:00 PM -99999.99 -179968 -99999.99 -99999.99 -99999.99 -99999.99
12/27/2022 7:30:00 PM -99999.99 -179968 -99999.99 -99999.99 -99999.99 -99999.99
12/27/2022 7:45:00 PM -99999.99 -179968 -99999.99 -99999.99 -99999.99 -99999.99
12/27/2022 8:00:00 PM -99999.99 -179968 -99999.99 -99999.99 -99999.99 -99999.99
12/27/2022 8:15:00 PM -99999.99 -179968 -99999.99 -99999.99 -99999.99 -99999.99
12/27/2022 8:30:00 PM -99999.99 -179968 -99999.99 -99999.99 -99999.99 -99999.99
12/27/2022 8:45:00 PM -99999.99 -179968 -99999.99 -99999.99 -99999.99 -99999.99
12/27/2022 9:00:00 PM -99999.99 -179968 -99999.99 -99999.99 -99999.99 -99999.99
12/27/2022 9:15:00 PM -99999.99 -179968 -99999.99 -99999.99 -99999.99 -99999.99
12/27/2022 9:30:00 PM -99999.99 -179968 -99999.99 -99999.99 -99999.99 -99999.99
12/27/2022 9:45:00 PM -99999.99 -179968 -99999.99 -99999.99 -99999.99 -99999.99
12/27/2022 10:00:00 PM -99999.99 -179968 -99999.99 -99999.99 -99999.99 -99999.99
12/27/2022 10:15:00 PM -99999.99 -179968 -99999.99 -99999.99 -99999.99 -99999.99
12/27/2022 10:30:00 PM -99999.99 -179968 -99999.99 -99999.99 -99999.99 -99999.99
12/27/2022 10:45:00 PM -99999.99 -179968 -99999.99 -99999.99 -99999.99 -99999.99
12/27/2022 11:00:00 PM -99999.99 -179968 -99999.99 -99999.99 -99999.99 -99999.99
12/27/2022 11:15:00 PM -99999.99 -179968 -99999.99 -99999.99 -99999.99 -99999.99
12/27/2022 11:30:00 PM -99999.99 -179968 -99999.99 -99999.99 -99999.99 -99999.99
12/27/2022 11:45:00 PM -99999.99 -179968 -99999.99 -99999.99 -99999.99 -99999.99
12/28/2022 12:00:00 AM -99999.99 -179968 -99999.99 -99999.99 -99999.99 -99999.99
12/28/2022 12:15:00 AM -99999.99 -179968 -99999.99 -99999.99 -99999.99 -99999.99
12/28/2022 12:30:00 AM -99999.99 -179968 -99999.99 -99999.99 -99999.99 -99999.99
12/28/2022 12:45:00 AM -99999.99 -179968 -99999.99 -99999.99 -99999.99 -99999.99
12/28/2022 1:00:00 AM -99999.99 -179968 -99999.99 -99999.99 -99999.99 -99999.99
12/28/2022 1:15:00 AM -99999.99 -179968 -99999.99 -99999.99 -99999.99 -99999.99
12/28/2022 1:30:00 AM -99999.99 -179968 -99999.99 -99999.99 -99999.99 -99999.99
12/28/2022 1:45:00 AM -99999.99 -179968 -99999.99 -99999.99 -99999.99 -99999.99
12/28/2022 2:00:00 AM -99999.99 -179968 -99999.99 -99999.99 -99999.99 -99999.99
12/28/2022 2:15:00 AM -99999.99 -179968 -99999.99 -99999.99 -99999.99 -99999.99
12/28/2022 2:30:00 AM -99999.99 -179968 -99999.99 -99999.99 -99999.99 -99999.99
12/28/2022 2:45:00 AM -99999.99 -179968 -99999.99 -99999.99 -99999.99 -99999.99
12/28/2022 3:00:00 AM -99999.99 -179968 -99999.99 -99999.99 -99999.99 -99999.99
12/28/2022 3:15:00 AM -99999.99 -179968 -99999.99 -99999.99 -99999.99 -99999.99
12/28/2022 3:30:00 AM -99999.99 -179968 -99999.99 -99999.99 -99999.99 -99999.99
12/28/2022 3:45:00 AM -99999.99 -179968 -99999.99 -99999.99 -99999.99 -99999.99
12/28/2022 4:00:00 AM -99999.99 -179968 -99999.99 -99999.99 -99999.99 -99999.99
12/28/2022 4:15:00 AM -99999.99 -179968 -99999.99 -99999.99 -99999.99 -99999.99
12/28/2022 4:30:00 AM -99999.99 -179968 -99999.99 -99999.99 -99999.99 -99999.99
12/28/2022 4:45:00 AM -99999.99 -179968 -99999.99 -99999.99 -99999.99 -99999.99
12/28/2022 5:00:00 AM -99999.99 -179968 -99999.99 -99999.99 -99999.99 -99999.99
12/28/2022 5:15:00 AM -99999.99 -179968 -99999.99 -99999.99 -99999.99 -99999.99
12/28/2022 5:30:00 AM -99999.99 -179968 -99999.99 -99999.99 -99999.99 -99999.99
12/28/2022 5:45:00 AM -99999.99 -179968 -99999.99 -99999.99 -99999.99 -99999.99
12/28/2022 6:00:00 AM -99999.99 -179968 -99999.99 -99999.99 -99999.99 -99999.99
12/28/2022 6:15:00 AM -99999.99 -179968 -99999.99 -99999.99 -99999.99 -99999.99
12/28/2022 6:30:00 AM -99999.99 -179968 -99999.99 -99999.99 -99999.99 -99999.99
12/28/2022 6:45:00 AM -99999.99 -179968 -99999.99 -99999.99 -99999.99 -99999.99
12/28/2022 7:00:00 AM -99999.99 -179968 -99999.99 -99999.99 -99999.99 -99999.99
12/28/2022 7:15:00 AM -99999.99 -179968 -99999.99 -99999.99 -99999.99 -99999.99
12/28/2022 7:30:00 AM -99999.99 -179968 -99999.99 -99999.99 -99999.99 -99999.99
12/28/2022 7:45:00 AM -99999.99 -179968 -99999.99 -99999.99 -99999.99 -99999.99
12/28/2022 8:00:00 AM -99999.99 -179968 -99999.99 -99999.99 -99999.99 -99999.99
12/28/2022 8:15:00 AM -99999.99 -179968 -99999.99 -99999.99 -99999.99 -99999.99
12/28/2022 8:30:00 AM -99999.99 -179968 -99999.99 -99999.99 -99999.99 -99999.99
12/28/2022 8:45:00 AM -99999.99 -179968 -99999.99 -99999.99 -99999.99 -99999.99
12/28/2022 9:00:00 AM -99999.99 -179968 -99999.99 -99999.99 -99999.99 -99999.99
12/28/2022 9:15:00 AM -99999.99 -179968 -99999.99 -99999.99 -99999.99 -99999.99
12/28/2022 9:30:00 AM -99999.99 -179968 -99999.99 -99999.99 -99999.99 -99999.99
12/28/2022 9:45:00 AM -99999.99 -179968 -99999.99 -99999.99 -99999.99 -99999.99
12/28/2022 10:00:00 AM 6.72 44.096 0.59 7.6 2321 11.19
12/28/2022 10:15:00 AM 6.79 44.222 0.599 7.64 2350 11.34
12/28/2022 10:30:00 AM 6.86 44.348 0.598 7.66 2251 11.51
12/28/2022 10:45:00 AM 6.92 44.456 0.578 7.67 2250 11.63
12/28/2022 11:00:00 AM 6.97 44.546 0.573 7.67 2290 11.71
12/28/2022 11:15:00 AM 7.04 44.672 0.571 7.68 2100 11.8
12/28/2022 11:30:00 AM 7.11 44.798 0.568 7.68 2039 11.88
12/28/2022 11:45:00 AM 7.19 44.942 0.598 7.69 2086 11.96
12/28/2022 12:00:00 PM 7.26 45.068 0.594 7.69 2053 12.08
12/28/2022 12:15:00 PM 7.33 45.194 0.595 7.7 1966 12.18
12/28/2022 12:30:00 PM 7.4 45.32 0.594 7.7 1969 12.25
12/28/2022 12:45:00 PM 7.46 45.428 0.596 7.71 1988 12.3
12/28/2022 1:00:00 PM 7.51 45.518 0.591 7.71 2133 12.34
12/28/2022 1:15:00 PM 7.56 45.608 0.591 7.72 2095 12.4
12/28/2022 1:30:00 PM 7.61 45.698 0.592 7.72 1954 12.44
12/28/2022 1:45:00 PM 7.64 45.752 0.592 7.73 2042 12.48
12/28/2022 2:00:00 PM 7.67 45.806 0.59 7.73 2035 12.52
12/28/2022 2:15:00 PM 7.68 45.824 0.589 7.73 2033 12.54
12/28/2022 2:30:00 PM 7.69 45.842 0.477 7.73 1894 12.55
12/28/2022 2:45:00 PM 7.7 45.86 0.554 7.74 2117 12.54
12/28/2022 3:00:00 PM 7.7 45.86 0.598 7.74 1997 12.52
12/28/2022 3:15:00 PM 7.69 45.842 0.596 7.74 1861 12.49
12/28/2022 3:30:00 PM 7.68 45.824 0.545 7.74 1986 12.47
12/28/2022 3:45:00 PM 7.67 45.806 0.586 7.74 2169 12.43
12/28/2022 4:00:00 PM 7.67 45.806 0.505 7.74 2096 12.36
12/28/2022 4:15:00 PM 7.65 45.77 0.595 7.73 2012 12.28
12/28/2022 4:30:00 PM 7.64 45.752 0.595 7.73 2122 12.17
12/28/2022 4:45:00 PM 7.63 45.734 0.593 7.73 1999 12.09
12/28/2022 5:00:00 PM 7.62 45.716 0.591 7.72 2059 11.99
12/28/2022 5:15:00 PM 7.61 45.698 0.586 7.72 1961 11.87
12/28/2022 5:30:00 PM 7.59 45.662 0.595 7.71 1933 11.81
12/28/2022 5:45:00 PM 7.57 45.626 0.594 7.71 2040 11.74
12/28/2022 6:00:00 PM 7.55 45.59 0.593 7.71 1964 11.67
12/28/2022 6:15:00 PM 7.53 45.554 0.591 7.7 1954 11.6
12/28/2022 6:30:00 PM 7.53 45.554 0.591 7.7 1954 11.6
12/28/2022 6:45:00 PM -99999.99 -179968 -99999.99 -99999.99 -99999.99 -99999.99
12/28/2022 7:00:00 PM -99999.99 -179968 -99999.99 -99999.99 -99999.99 -99999.99
12/28/2022 7:15:00 PM -99999.99 -179968 -99999.99 -99999.99 -99999.99 -99999.99
12/28/2022 7:30:00 PM -99999.99 -179968 -99999.99 -99999.99 -99999.99 -99999.99
12/28/2022 7:45:00 PM -99999.99 -179968 -99999.99 -99999.99 -99999.99 -99999.99
12/28/2022 8:00:00 PM -99999.99 -179968 -99999.99 -99999.99 -99999.99 -99999.99
12/28/2022 8:15:00 PM -99999.99 -179968 -99999.99 -99999.99 -99999.99 -99999.99
12/28/2022 8:30:00 PM -99999.99 -179968 -99999.99 -99999.99 -99999.99 -99999.99
12/28/2022 8:45:00 PM -99999.99 -179968 -99999.99 -99999.99 -99999.99 -99999.99
12/28/2022 9:00:00 PM -99999.99 -179968 -99999.99 -99999.99 -99999.99 -99999.99
12/28/2022 9:15:00 PM -99999.99 -179968 -99999.99 -99999.99 -99999.99 -99999.99
12/28/2022 9:30:00 PM -99999.99 -179968 -99999.99 -99999.99 -99999.99 -99999.99
12/28/2022 9:45:00 PM -99999.99 -179968 -99999.99 -99999.99 -99999.99 -99999.99
12/28/2022 10:00:00 PM -99999.99 -179968 -99999.99 -99999.99 -99999.99 -99999.99
12/28/2022 10:15:00 PM -99999.99 -179968 -99999.99 -99999.99 -99999.99 -99999.99
12/28/2022 10:30:00 PM -99999.99 -179968 -99999.99 -99999.99 -99999.99 -99999.99
12/28/2022 10:45:00 PM -99999.99 -179968 -99999.99 -99999.99 -99999.99 -99999.99
12/28/2022 11:00:00 PM -99999.99 -179968 -99999.99 -99999.99 -99999.99 -99999.99
12/28/2022 11:15:00 PM -99999.99 -179968 -99999.99 -99999.99 -99999.99 -99999.99
12/28/2022 11:30:00 PM -99999.99 -179968 -99999.99 -99999.99 -99999.99 -99999.99
12/28/2022 11:45:00 PM -99999.99 -179968 -99999.99 -99999.99 -99999.99 -99999.99
12/29/2022 12:00:00 AM -99999.99 -179968 -99999.99 -99999.99 -99999.99 -99999.99
12/29/2022 12:15:00 AM -99999.99 -179968 -99999.99 -99999.99 -99999.99 -99999.99
12/29/2022 12:30:00 AM -99999.99 -179968 -99999.99 -99999.99 -99999.99 -99999.99
12/29/2022 12:45:00 AM -99999.99 -179968 -99999.99 -99999.99 -99999.99 -99999.99
12/29/2022 1:00:00 AM -99999.99 -179968 -99999.99 -99999.99 -99999.99 -99999.99
12/29/2022 1:15:00 AM -99999.99 -179968 -99999.99 -99999.99 -99999.99 -99999.99
12/29/2022 1:30:00 AM -99999.99 -179968 -99999.99 -99999.99 -99999.99 -99999.99
12/29/2022 1:45:00 AM -99999.99 -179968 -99999.99 -99999.99 -99999.99 -99999.99
12/29/2022 2:00:00 AM -99999.99 -179968 -99999.99 -99999.99 -99999.99 -99999.99
12/29/2022 2:15:00 AM -99999.99 -179968 -99999.99 -99999.99 -99999.99 -99999.99
12/29/2022 2:30:00 AM -99999.99 -179968 -99999.99 -99999.99 -99999.99 -99999.99
12/29/2022 2:45:00 AM -99999.99 -179968 -99999.99 -99999.99 -99999.99 -99999.99
12/29/2022 3:00:00 AM -99999.99 -179968 -99999.99 -99999.99 -99999.99 -99999.99
12/29/2022 3:15:00 AM -99999.99 -179968 -99999.99 -99999.99 -99999.99 -99999.99
12/29/2022 3:30:00 AM -99999.99 -179968 -99999.99 -99999.99 -99999.99 -99999.99
12/29/2022 3:45:00 AM -99999.99 -179968 -99999.99 -99999.99 -99999.99 -99999.99
12/29/2022 4:00:00 AM -99999.99 -179968 -99999.99 -99999.99 -99999.99 -99999.99
12/29/2022 4:15:00 AM -99999.99 -179968 -99999.99 -99999.99 -99999.99 -99999.99
12/29/2022 4:30:00 AM -99999.99 -179968 -99999.99 -99999.99 -99999.99 -99999.99
12/29/2022 4:45:00 AM -99999.99 -179968 -99999.99 -99999.99 -99999.99 -99999.99
12/29/2022 5:00:00 AM -99999.99 -179968 -99999.99 -99999.99 -99999.99 -99999.99
12/29/2022 5:15:00 AM -99999.99 -179968 -99999.99 -99999.99 -99999.99 -99999.99
12/29/2022 5:30:00 AM -99999.99 -179968 -99999.99 -99999.99 -99999.99 -99999.99
12/29/2022 5:45:00 AM -99999.99 -179968 -99999.99 -99999.99 -99999.99 -99999.99
12/29/2022 6:00:00 AM -99999.99 -179968 -99999.99 -99999.99 -99999.99 -99999.99
12/29/2022 6:15:00 AM -99999.99 -179968 -99999.99 -99999.99 -99999.99 -99999.99
12/29/2022 6:30:00 AM -99999.99 -179968 -99999.99 -99999.99 -99999.99 -99999.99
12/29/2022 6:45:00 AM -99999.99 -179968 -99999.99 -99999.99 -99999.99 -99999.99
12/29/2022 7:00:00 AM -99999.99 -179968 -99999.99 -99999.99 -99999.99 -99999.99
12/29/2022 7:15:00 AM -99999.99 -179968 -99999.99 -99999.99 -99999.99 -99999.99
12/29/2022 7:30:00 AM -99999.99 -179968 -99999.99 -99999.99 -99999.99 -99999.99
12/29/2022 7:45:00 AM -99999.99 -179968 -99999.99 -99999.99 -99999.99 -99999.99
12/29/2022 8:00:00 AM -99999.99 -179968 -99999.99 -99999.99 -99999.99 -99999.99
12/29/2022 8:15:00 AM -99999.99 -179968 -99999.99 -99999.99 -99999.99 -99999.99
12/29/2022 8:30:00 AM -99999.99 -179968 -99999.99 -99999.99 -99999.99 -99999.99
12/29/2022 8:45:00 AM -99999.99 -179968 -99999.99 -99999.99 -99999.99 -99999.99
12/29/2022 9:00:00 AM -99999.99 -179968 -99999.99 -99999.99 -99999.99 -99999.99
12/29/2022 9:15:00 AM -99999.99 -179968 -99999.99 -99999.99 -99999.99 -99999.99
12/29/2022 9:30:00 AM -99999.99 -179968 -99999.99 -99999.99 -99999.99 -99999.99
12/29/2022 9:45:00 AM -99999.99 -179968 -99999.99 -99999.99 -99999.99 -99999.99
12/29/2022 10:00:00 AM 6.42 43.556 0.59 7.66 5723 11.47
12/29/2022 10:15:00 AM 6.48 43.664 0.602 7.69 5723 11.63
12/29/2022 10:30:00 AM 6.56 43.808 0.589 7.69 5723 11.75
12/29/2022 10:45:00 AM 6.64 43.952 0.602 7.7 5723 11.89
12/29/2022 11:00:00 AM 6.73 44.114 0.592 7.69 5723 12.01
12/29/2022 11:15:00 AM 6.82 44.276 0.588 7.7 5723 12.13
12/29/2022 11:30:00 AM 6.92 44.456 0.457 7.7 5723 12.23
12/29/2022 11:45:00 AM 7.02 44.636 0.588 7.7 5723 12.34
12/29/2022 12:00:00 PM 7.11 44.798 0.594 7.71 5723 12.42
12/29/2022 12:15:00 PM 7.19 44.942 0.575 7.71 5723 12.52
12/29/2022 12:30:00 PM 7.27 45.086 0.599 7.72 5723 12.59
12/29/2022 12:45:00 PM 7.35 45.23 0.544 7.72 5723 12.66
12/29/2022 1:00:00 PM 7.41 45.338 0.571 7.73 5723 12.73
12/29/2022 1:15:00 PM 7.47 45.446 0.591 7.73 5723 12.77
12/29/2022 1:30:00 PM 7.52 45.536 0.509 7.73 5723 12.8
12/29/2022 1:45:00 PM 7.56 45.608 0.516 7.73 5723 12.85
12/29/2022 2:00:00 PM 7.59 45.662 0.495 7.74 5723 12.87
12/29/2022 2:15:00 PM 7.6 45.68 0.464 7.74 5723 12.89
12/29/2022 2:30:00 PM 7.62 45.716 0.417 7.74 5723 12.89
12/29/2022 2:45:00 PM 7.63 45.734 0.406 7.74 5723 12.89
12/29/2022 3:00:00 PM 7.65 45.77 0.397 7.74 5723 12.86
12/29/2022 3:15:00 PM 7.66 45.788 0.457 7.74 5723 12.79
12/29/2022 3:30:00 PM 7.67 45.806 0.468 7.74 5723 12.76
12/29/2022 3:45:00 PM 7.67 45.806 0.517 7.74 5723 12.69
12/29/2022 4:00:00 PM 7.67 45.806 0.527 7.74 5723 12.62
12/29/2022 4:15:00 PM 7.66 45.788 0.439 7.74 5723 12.53
12/29/2022 4:30:00 PM 7.66 45.788 0.506 7.73 5069 12.42
12/29/2022 4:45:00 PM 7.64 45.752 0.55 7.73 3905 12.32
12/29/2022 5:00:00 PM 7.63 45.734 0.46 7.73 2693 12.2
12/29/2022 5:15:00 PM 7.61 45.698 0.485 7.72 1888 12.07
12/29/2022 5:30:00 PM 7.6 45.68 0.446 7.71 681.5 11.97
12/29/2022 5:45:00 PM 7.58 45.644 0.596 7.71 756.6 11.88
12/29/2022 6:00:00 PM 7.58 45.644 0.585 7.71 513.1 11.8
12/29/2022 6:15:00 PM 7.58 45.644 0.463 7.7 550.2 11.72
12/29/2022 6:30:00 PM 7.57 45.626 0.54 7.7 978.4 11.67
12/29/2022 6:45:00 PM 7.56 45.608 0.517 7.7 1150 11.6
12/29/2022 7:00:00 PM 7.56 45.608 0.566 7.69 423.9 11.52
12/29/2022 7:15:00 PM -99999.99 -179968 -99999.99 -99999.99 -99999.99 -99999.99
12/29/2022 7:30:00 PM -99999.99 -179968 -99999.99 -99999.99 -99999.99 -99999.99
12/29/2022 7:45:00 PM -99999.99 -179968 -99999.99 -99999.99 -99999.99 -99999.99
12/29/2022 8:00:00 PM -99999.99 -179968 -99999.99 -99999.99 -99999.99 -99999.99
12/29/2022 8:15:00 PM -99999.99 -179968 -99999.99 -99999.99 -99999.99 -99999.99
12/29/2022 8:30:00 PM -99999.99 -179968 -99999.99 -99999.99 -99999.99 -99999.99
12/29/2022 8:45:00 PM -99999.99 -179968 -99999.99 -99999.99 -99999.99 -99999.99
12/29/2022 9:00:00 PM -99999.99 -179968 -99999.99 -99999.99 -99999.99 -99999.99
12/29/2022 9:15:00 PM -99999.99 -179968 -99999.99 -99999.99 -99999.99 -99999.99
12/29/2022 9:30:00 PM -99999.99 -179968 -99999.99 -99999.99 -99999.99 -99999.99
12/29/2022 9:45:00 PM -99999.99 -179968 -99999.99 -99999.99 -99999.99 -99999.99
12/29/2022 10:00:00 PM -99999.99 -179968 -99999.99 -99999.99 -99999.99 -99999.99
12/29/2022 10:15:00 PM -99999.99 -179968 -99999.99 -99999.99 -99999.99 -99999.99
12/29/2022 10:30:00 PM -99999.99 -179968 -99999.99 -99999.99 -99999.99 -99999.99
12/29/2022 10:45:00 PM -99999.99 -179968 -99999.99 -99999.99 -99999.99 -99999.99
12/29/2022 11:00:00 PM -99999.99 -179968 -99999.99 -99999.99 -99999.99 -99999.99
12/29/2022 11:15:00 PM -99999.99 -179968 -99999.99 -99999.99 -99999.99 -99999.99
12/29/2022 11:30:00 PM -99999.99 -179968 -99999.99 -99999.99 -99999.99 -99999.99
12/29/2022 11:45:00 PM -99999.99 -179968 -99999.99 -99999.99 -99999.99 -99999.99
12/30/2022 12:00:00 AM -99999.99 -179968 -99999.99 -99999.99 -99999.99 -99999.99
12/30/2022 12:15:00 AM -99999.99 -179968 -99999.99 -99999.99 -99999.99 -99999.99
12/30/2022 12:30:00 AM -99999.99 -179968 -99999.99 -99999.99 -99999.99 -99999.99
12/30/2022 12:45:00 AM -99999.99 -179968 -99999.99 -99999.99 -99999.99 -99999.99
12/30/2022 1:00:00 AM -99999.99 -179968 -99999.99 -99999.99 -99999.99 -99999.99
12/30/2022 1:15:00 AM -99999.99 -179968 -99999.99 -99999.99 -99999.99 -99999.99
12/30/2022 1:30:00 AM -99999.99 -179968 -99999.99 -99999.99 -99999.99 -99999.99
12/30/2022 1:45:00 AM -99999.99 -179968 -99999.99 -99999.99 -99999.99 -99999.99
12/30/2022 2:00:00 AM -99999.99 -179968 -99999.99 -99999.99 -99999.99 -99999.99
12/30/2022 2:15:00 AM -99999.99 -179968 -99999.99 -99999.99 -99999.99 -99999.99
12/30/2022 2:30:00 AM -99999.99 -179968 -99999.99 -99999.99 -99999.99 -99999.99
12/30/2022 2:45:00 AM -99999.99 -179968 -99999.99 -99999.99 -99999.99 -99999.99
12/30/2022 3:00:00 AM -99999.99 -179968 -99999.99 -99999.99 -99999.99 -99999.99
12/30/2022 3:15:00 AM -99999.99 -179968 -99999.99 -99999.99 -99999.99 -99999.99
12/30/2022 3:30:00 AM -99999.99 -179968 -99999.99 -99999.99 -99999.99 -99999.99
12/30/2022 3:45:00 AM -99999.99 -179968 -99999.99 -99999.99 -99999.99 -99999.99
12/30/2022 4:00:00 AM -99999.99 -179968 -99999.99 -99999.99 -99999.99 -99999.99
12/30/2022 4:15:00 AM -99999.99 -179968 -99999.99 -99999.99 -99999.99 -99999.99
12/30/2022 4:30:00 AM -99999.99 -179968 -99999.99 -99999.99 -99999.99 -99999.99
12/30/2022 4:45:00 AM -99999.99 -179968 -99999.99 -99999.99 -99999.99 -99999.99
12/30/2022 5:00:00 AM -99999.99 -179968 -99999.99 -99999.99 -99999.99 -99999.99
12/30/2022 5:15:00 AM -99999.99 -179968 -99999.99 -99999.99 -99999.99 -99999.99
12/30/2022 5:30:00 AM -99999.99 -179968 -99999.99 -99999.99 -99999.99 -99999.99
12/30/2022 5:45:00 AM -99999.99 -179968 -99999.99 -99999.99 -99999.99 -99999.99
12/30/2022 6:00:00 AM -99999.99 -179968 -99999.99 -99999.99 -99999.99 -99999.99
12/30/2022 6:15:00 AM -99999.99 -179968 -99999.99 -99999.99 -99999.99 -99999.99
12/30/2022 6:30:00 AM -99999.99 -179968 -99999.99 -99999.99 -99999.99 -99999.99
12/30/2022 6:45:00 AM -99999.99 -179968 -99999.99 -99999.99 -99999.99 -99999.99
12/30/2022 7:00:00 AM -99999.99 -179968 -99999.99 -99999.99 -99999.99 -99999.99
12/30/2022 7:15:00 AM -99999.99 -179968 -99999.99 -99999.99 -99999.99 -99999.99
12/30/2022 7:30:00 AM -99999.99 -179968 -99999.99 -99999.99 -99999.99 -99999.99
12/30/2022 7:45:00 AM -99999.99 -179968 -99999.99 -99999.99 -99999.99 -99999.99
12/30/2022 8:00:00 AM -99999.99 -179968 -99999.99 -99999.99 -99999.99 -99999.99
12/30/2022 8:15:00 AM -99999.99 -179968 -99999.99 -99999.99 -99999.99 -99999.99
12/30/2022 8:30:00 AM -99999.99 -179968 -99999.99 -99999.99 -99999.99 -99999.99
12/30/2022 8:45:00 AM -99999.99 -179968 -99999.99 -99999.99 -99999.99 -99999.99
12/30/2022 9:00:00 AM -99999.99 -179968 -99999.99 -99999.99 -99999.99 -99999.99
12/30/2022 9:15:00 AM -99999.99 -179968 -99999.99 -99999.99 -99999.99 -99999.99
12/30/2022 9:30:00 AM -99999.99 -179968 -99999.99 -99999.99 -99999.99 -99999.99
12/30/2022 9:45:00 AM -99999.99 -179968 -99999.99 -99999.99 -99999.99 -99999.99
12/30/2022 10:00:00 AM -99999.99 -179968 -99999.99 -99999.99 -99999.99 -99999.99
12/30/2022 10:15:00 AM -99999.99 -179968 -99999.99 -99999.99 -99999.99 -99999.99
12/30/2022 10:30:00 AM -99999.99 -179968 -99999.99 -99999.99 -99999.99 -99999.99
12/30/2022 10:45:00 AM -99999.99 -179968 -99999.99 -99999.99 -99999.99 -99999.99
12/30/2022 11:00:00 AM -99999.99 -179968 -99999.99 -99999.99 -99999.99 -99999.99
12/30/2022 11:15:00 AM -99999.99 -179968 -99999.99 -99999.99 -99999.99 -99999.99
12/30/2022 11:30:00 AM -99999.99 -179968 -99999.99 -99999.99 -99999.99 -99999.99
12/30/2022 11:45:00 AM 8.61 47.498 0.62 7.78 3506 11.89
12/30/2022 12:00:00 PM 8.68 47.624 0.601 7.81 3983 12.02
12/30/2022 12:15:00 PM 8.74 47.732 0.603 7.81 2109 12.11
12/30/2022 12:30:00 PM 8.81 47.858 0.614 7.8 2086 12.24
12/30/2022 12:45:00 PM 8.88 47.984 0.616 7.79 1920 12.34
12/30/2022 1:00:00 PM 8.94 48.092 0.617 7.78 2518 12.41
12/30/2022 1:15:00 PM 8.99 48.182 0.593 7.78 2719 12.45
12/30/2022 1:30:00 PM 9.06 48.308 0.614 7.78 3199 12.54
12/30/2022 1:45:00 PM 9.13 48.434 0.604 7.79 4521 12.63
12/30/2022 2:00:00 PM 9.18 48.524 0.528 7.79 4958 12.72
12/30/2022 2:15:00 PM 9.23 48.614 0.491 7.8 3646 12.76
12/30/2022 2:30:00 PM 9.27 48.686 0.447 7.8 3363 12.8
12/30/2022 2:45:00 PM 9.29 48.722 0.513 7.81 2369 12.81
12/30/2022 3:00:00 PM 9.29 48.722 0.487 7.8 2444 12.75
12/30/2022 3:15:00 PM 9.3 48.74 0.446 7.8 2282 12.69
12/30/2022 3:30:00 PM 9.32 48.776 0.471 7.8 2121 12.67
12/30/2022 3:45:00 PM 9.33 48.794 0.48 7.8 2001 12.61
12/30/2022 4:00:00 PM 9.3 48.74 0.556 7.8 2216 12.47
12/30/2022 4:15:00 PM 9.27 48.686 0.442 7.79 2210 12.33
12/30/2022 4:30:00 PM 9.27 48.686 0.442 7.79 2210 12.33
12/30/2022 4:45:00 PM -99999.99 -179968 -99999.99 -99999.99 -99999.99 -99999.99
12/30/2022 5:00:00 PM -99999.99 -179968 -99999.99 -99999.99 -99999.99 -99999.99
12/30/2022 5:15:00 PM -99999.99 -179968 -99999.99 -99999.99 -99999.99 -99999.99
12/30/2022 5:30:00 PM -99999.99 -179968 -99999.99 -99999.99 -99999.99 -99999.99
12/30/2022 5:45:00 PM -99999.99 -179968 -99999.99 -99999.99 -99999.99 -99999.99
12/30/2022 6:00:00 PM -99999.99 -179968 -99999.99 -99999.99 -99999.99 -99999.99
12/30/2022 6:15:00 PM -99999.99 -179968 -99999.99 -99999.99 -99999.99 -99999.99
12/30/2022 6:30:00 PM -99999.99 -179968 -99999.99 -99999.99 -99999.99 -99999.99
12/30/2022 6:45:00 PM -99999.99 -179968 -99999.99 -99999.99 -99999.99 -99999.99
12/30/2022 7:00:00 PM -99999.99 -179968 -99999.99 -99999.99 -99999.99 -99999.99
12/30/2022 7:15:00 PM -99999.99 -179968 -99999.99 -99999.99 -99999.99 -99999.99
12/30/2022 7:30:00 PM -99999.99 -179968 -99999.99 -99999.99 -99999.99 -99999.99
12/30/2022 7:45:00 PM -99999.99 -179968 -99999.99 -99999.99 -99999.99 -99999.99
12/30/2022 8:00:00 PM -99999.99 -179968 -99999.99 -99999.99 -99999.99 -99999.99
12/30/2022 8:15:00 PM -99999.99 -179968 -99999.99 -99999.99 -99999.99 -99999.99
12/30/2022 8:30:00 PM -99999.99 -179968 -99999.99 -99999.99 -99999.99 -99999.99
12/30/2022 8:45:00 PM -99999.99 -179968 -99999.99 -99999.99 -99999.99 -99999.99
12/30/2022 9:00:00 PM -99999.99 -179968 -99999.99 -99999.99 -99999.99 -99999.99
12/30/2022 9:15:00 PM -99999.99 -179968 -99999.99 -99999.99 -99999.99 -99999.99
12/30/2022 9:30:00 PM -99999.99 -179968 -99999.99 -99999.99 -99999.99 -99999.99
12/30/2022 9:45:00 PM -99999.99 -179968 -99999.99 -99999.99 -99999.99 -99999.99
12/30/2022 10:00:00 PM -99999.99 -179968 -99999.99 -99999.99 -99999.99 -99999.99
12/30/2022 10:15:00 PM -99999.99 -179968 -99999.99 -99999.99 -99999.99 -99999.99
12/30/2022 10:30:00 PM -99999.99 -179968 -99999.99 -99999.99 -99999.99 -99999.99
12/30/2022 10:45:00 PM -99999.99 -179968 -99999.99 -99999.99 -99999.99 -99999.99
12/30/2022 11:00:00 PM -99999.99 -179968 -99999.99 -99999.99 -99999.99 -99999.99
12/30/2022 11:15:00 PM -99999.99 -179968 -99999.99 -99999.99 -99999.99 -99999.99
12/30/2022 11:30:00 PM -99999.99 -179968 -99999.99 -99999.99 -99999.99 -99999.99
12/30/2022 11:45:00 PM -99999.99 -179968 -99999.99 -99999.99 -99999.99 -99999.99
12/31/2022 12:00:00 AM -99999.99 -179968 -99999.99 -99999.99 -99999.99 -99999.99
12/31/2022 12:15:00 AM -99999.99 -179968 -99999.99 -99999.99 -99999.99 -99999.99
12/31/2022 12:30:00 AM -99999.99 -179968 -99999.99 -99999.99 -99999.99 -99999.99
12/31/2022 12:45:00 AM -99999.99 -179968 -99999.99 -99999.99 -99999.99 -99999.99
12/31/2022 1:00:00 AM -99999.99 -179968 -99999.99 -99999.99 -99999.99 -99999.99
12/31/2022 1:15:00 AM -99999.99 -179968 -99999.99 -99999.99 -99999.99 -99999.99
12/31/2022 1:30:00 AM -99999.99 -179968 -99999.99 -99999.99 -99999.99 -99999.99
12/31/2022 1:45:00 AM -99999.99 -179968 -99999.99 -99999.99 -99999.99 -99999.99
12/31/2022 2:00:00 AM -99999.99 -179968 -99999.99 -99999.99 -99999.99 -99999.99
12/31/2022 2:15:00 AM -99999.99 -179968 -99999.99 -99999.99 -99999.99 -99999.99
12/31/2022 2:30:00 AM -99999.99 -179968 -99999.99 -99999.99 -99999.99 -99999.99
12/31/2022 2:45:00 AM -99999.99 -179968 -99999.99 -99999.99 -99999.99 -99999.99
12/31/2022 3:00:00 AM -99999.99 -179968 -99999.99 -99999.99 -99999.99 -99999.99
12/31/2022 3:15:00 AM -99999.99 -179968 -99999.99 -99999.99 -99999.99 -99999.99
12/31/2022 3:30:00 AM -99999.99 -179968 -99999.99 -99999.99 -99999.99 -99999.99
12/31/2022 3:45:00 AM -99999.99 -179968 -99999.99 -99999.99 -99999.99 -99999.99
12/31/2022 4:00:00 AM -99999.99 -179968 -99999.99 -99999.99 -99999.99 -99999.99
12/31/2022 4:15:00 AM -99999.99 -179968 -99999.99 -99999.99 -99999.99 -99999.99
12/31/2022 4:30:00 AM -99999.99 -179968 -99999.99 -99999.99 -99999.99 -99999.99
12/31/2022 4:45:00 AM -99999.99 -179968 -99999.99 -99999.99 -99999.99 -99999.99
12/31/2022 5:00:00 AM -99999.99 -179968 -99999.99 -99999.99 -99999.99 -99999.99
12/31/2022 5:15:00 AM -99999.99 -179968 -99999.99 -99999.99 -99999.99 -99999.99
12/31/2022 5:30:00 AM -99999.99 -179968 -99999.99 -99999.99 -99999.99 -99999.99
12/31/2022 5:45:00 AM -99999.99 -179968 -99999.99 -99999.99 -99999.99 -99999.99
12/31/2022 6:00:00 AM -99999.99 -179968 -99999.99 -99999.99 -99999.99 -99999.99
12/31/2022 6:15:00 AM -99999.99 -179968 -99999.99 -99999.99 -99999.99 -99999.99
12/31/2022 6:30:00 AM -99999.99 -179968 -99999.99 -99999.99 -99999.99 -99999.99
12/31/2022 6:45:00 AM -99999.99 -179968 -99999.99 -99999.99 -99999.99 -99999.99
12/31/2022 7:00:00 AM -99999.99 -179968 -99999.99 -99999.99 -99999.99 -99999.99
12/31/2022 7:15:00 AM -99999.99 -179968 -99999.99 -99999.99 -99999.99 -99999.99
12/31/2022 7:30:00 AM -99999.99 -179968 -99999.99 -99999.99 -99999.99 -99999.99
12/31/2022 7:45:00 AM -99999.99 -179968 -99999.99 -99999.99 -99999.99 -99999.99
12/31/2022 8:00:00 AM -99999.99 -179968 -99999.99 -99999.99 -99999.99 -99999.99
12/31/2022 8:15:00 AM -99999.99 -179968 -99999.99 -99999.99 -99999.99 -99999.99
12/31/2022 8:30:00 AM -99999.99 -179968 -99999.99 -99999.99 -99999.99 -99999.99
12/31/2022 8:45:00 AM -99999.99 -179968 -99999.99 -99999.99 -99999.99 -99999.99
12/31/2022 9:00:00 AM -99999.99 -179968 -99999.99 -99999.99 -99999.99 -99999.99
12/31/2022 9:15:00 AM -99999.99 -179968 -99999.99 -99999.99 -99999.99 -99999.99
12/31/2022 9:30:00 AM -99999.99 -179968 -99999.99 -99999.99 -99999.99 -99999.99
12/31/2022 9:45:00 AM -99999.99 -179968 -99999.99 -99999.99 -99999.99 -99999.99
12/31/2022 10:00:00 AM -99999.99 -179968 -99999.99 -99999.99 -99999.99 -99999.99
12/31/2022 10:15:00 AM -99999.99 -179968 -99999.99 -99999.99 -99999.99 -99999.99
12/31/2022 10:30:00 AM -99999.99 -179968 -99999.99 -99999.99 -99999.99 -99999.99
12/31/2022 10:45:00 AM -99999.99 -179968 -99999.99 -99999.99 -99999.99 -99999.99
12/31/2022 11:00:00 AM -99999.99 -179968 -99999.99 -99999.99 -99999.99 -99999.99
12/31/2022 11:15:00 AM -99999.99 -179968 -99999.99 -99999.99 -99999.99 -99999.99
12/31/2022 11:30:00 AM -99999.99 -179968 -99999.99 -99999.99 -99999.99 -99999.99
12/31/2022 11:45:00 AM -99999.99 -179968 -99999.99 -99999.99 -99999.99 -99999.99
12/31/2022 12:00:00 PM -99999.99 -179968 -99999.99 -99999.99 -99999.99 -99999.99
12/31/2022 12:15:00 PM -99999.99 -179968 -99999.99 -99999.99 -99999.99 -99999.99
12/31/2022 12:30:00 PM -99999.99 -179968 -99999.99 -99999.99 -99999.99 -99999.99
12/31/2022 12:45:00 PM -99999.99 -179968 -99999.99 -99999.99 -99999.99 -99999.99
12/31/2022 1:00:00 PM -99999.99 -179968 -99999.99 -99999.99 -99999.99 -99999.99
12/31/2022 1:15:00 PM -99999.99 -179968 -99999.99 -99999.99 -99999.99 -99999.99
12/31/2022 1:30:00 PM -99999.99 -179968 -99999.99 -99999.99 -99999.99 -99999.99
12/31/2022 1:45:00 PM -99999.99 -179968 -99999.99 -99999.99 -99999.99 -99999.99
12/31/2022 2:00:00 PM -99999.99 -179968 -99999.99 -99999.99 -99999.99 -99999.99
12/31/2022 2:15:00 PM -99999.99 -179968 -99999.99 -99999.99 -99999.99 -99999.99
12/31/2022 2:30:00 PM -99999.99 -179968 -99999.99 -99999.99 -99999.99 -99999.99
12/31/2022 2:45:00 PM -99999.99 -179968 -99999.99 -99999.99 -99999.99 -99999.99
12/31/2022 3:00:00 PM -99999.99 -179968 -99999.99 -99999.99 -99999.99 -99999.99
12/31/2022 3:15:00 PM -99999.99 -179968 -99999.99 -99999.99 -99999.99 -99999.99
12/31/2022 3:30:00 PM -99999.99 -179968 -99999.99 -99999.99 -99999.99 -99999.99
12/31/2022 3:45:00 PM -99999.99 -179968 -99999.99 -99999.99 -99999.99 -99999.99
12/31/2022 4:00:00 PM -99999.99 -179968 -99999.99 -99999.99 -99999.99 -99999.99
12/31/2022 4:15:00 PM -99999.99 -179968 -99999.99 -99999.99 -99999.99 -99999.99
12/31/2022 4:30:00 PM -99999.99 -179968 -99999.99 -99999.99 -99999.99 -99999.99
12/31/2022 4:45:00 PM -99999.99 -179968 -99999.99 -99999.99 -99999.99 -99999.99
12/31/2022 5:00:00 PM -99999.99 -179968 -99999.99 -99999.99 -99999.99 -99999.99
12/31/2022 5:15:00 PM -99999.99 -179968 -99999.99 -99999.99 -99999.99 -99999.99
12/31/2022 5:30:00 PM -99999.99 -179968 -99999.99 -99999.99 -99999.99 -99999.99
12/31/2022 5:45:00 PM -99999.99 -179968 -99999.99 -99999.99 -99999.99 -99999.99
12/31/2022 6:00:00 PM -99999.99 -179968 -99999.99 -99999.99 -99999.99 -99999.99
12/31/2022 6:15:00 PM -99999.99 -179968 -99999.99 -99999.99 -99999.99 -99999.99
12/31/2022 6:30:00 PM -99999.99 -179968 -99999.99 -99999.99 -99999.99 -99999.99
12/31/2022 6:45:00 PM -99999.99 -179968 -99999.99 -99999.99 -99999.99 -99999.99
12/31/2022 7:00:00 PM -99999.99 -179968 -99999.99 -99999.99 -99999.99 -99999.99
12/31/2022 7:15:00 PM -99999.99 -179968 -99999.99 -99999.99 -99999.99 -99999.99
12/31/2022 7:30:00 PM -99999.99 -179968 -99999.99 -99999.99 -99999.99 -99999.99
12/31/2022 7:45:00 PM -99999.99 -179968 -99999.99 -99999.99 -99999.99 -99999.99
12/31/2022 8:00:00 PM -99999.99 -179968 -99999.99 -99999.99 -99999.99 -99999.99
1/1/2023 8:00:00 AM -99999.99 -179968 -99999.99 -99999.99 -99999.99 -99999.99
1/1/2023 8:15:00 AM -99999.99 -179968 -99999.99 -99999.99 -99999.99 -99999.99
1/1/2023 8:30:00 AM -99999.99 -179968 -99999.99 -99999.99 -99999.99 -99999.99
1/1/2023 8:45:00 AM -99999.99 -179968 -99999.99 -99999.99 -99999.99 -99999.99
1/1/2023 9:00:00 AM -99999.99 -179968 -99999.99 -99999.99 -99999.99 -99999.99
1/1/2023 9:15:00 AM -99999.99 -179968 -99999.99 -99999.99 -99999.99 -99999.99
1/1/2023 9:30:00 AM -99999.99 -179968 -99999.99 -99999.99 -99999.99 -99999.99
1/1/2023 9:45:00 AM -99999.99 -179968 -99999.99 -99999.99 -99999.99 -99999.99
1/1/2023 10:00:00 AM -99999.99 -179968 -99999.99 -99999.99 -99999.99 -99999.99
1/1/2023 10:15:00 AM 9.08 48.344 0.55 7.55 5722 10.1
1/1/2023 10:30:00 AM 9.11 48.398 0.545 7.57 5722 10.24
1/1/2023 10:45:00 AM 9.15 48.47 0.541 7.6 5722 10.42
1/1/2023 11:00:00 AM 9.21 48.578 0.539 7.62 5722 10.6
1/1/2023 11:15:00 AM 9.27 48.686 0.537 7.64 5723 10.75
1/1/2023 11:30:00 AM 9.34 48.812 0.537 7.65 5723 10.92
1/1/2023 11:45:00 AM 9.41 48.938 0.538 7.66 5723 11.09
1/1/2023 12:00:00 PM 9.48 49.064 0.539 7.67 5715 11.25
1/1/2023 12:15:00 PM 9.55 49.19 0.542 7.68 5723 11.38
1/1/2023 12:30:00 PM 9.6 49.28 0.544 7.69 5723 11.49
1/1/2023 12:45:00 PM 9.66 49.388 0.547 7.71 5723 11.61
1/1/2023 1:00:00 PM 9.71 49.478 0.55 7.72 5722 11.72
1/1/2023 1:15:00 PM 9.72 49.496 0.552 7.73 5723 11.77
1/1/2023 1:30:00 PM 9.73 49.514 0.555 7.73 5717 11.75
1/1/2023 1:45:00 PM 9.76 49.568 0.558 7.73 5693 11.79
1/1/2023 2:00:00 PM 9.77 49.586 0.561 7.74 5697 11.85
1/1/2023 2:15:00 PM 9.77 49.586 0.564 7.74 5665 11.88
1/1/2023 2:30:00 PM 9.78 49.604 0.566 7.75 5721 11.95
1/1/2023 2:45:00 PM 9.79 49.622 0.57 7.76 5723 11.97
1/1/2023 3:00:00 PM 9.82 49.676 0.572 7.76 5723 11.98
1/1/2023 3:15:00 PM 9.87 49.766 0.575 7.77 5723 12.06
1/1/2023 3:30:00 PM 9.87 49.766 0.575 7.77 5723 12.05
1/1/2023 3:45:00 PM 9.86 49.748 0.576 7.77 5723 11.95
1/1/2023 4:00:00 PM 9.85 49.73 0.579 7.77 5723 11.89
1/1/2023 4:15:00 PM 9.84 49.712 0.583 7.76 5723 11.8
1/1/2023 4:30:00 PM 9.81 49.658 0.585 7.76 5723 11.68
1/1/2023 4:45:00 PM 9.77 49.586 0.588 7.75 5723 11.57
1/1/2023 5:00:00 PM 9.72 49.496 0.59 7.75 5723 11.41
1/1/2023 5:15:00 PM 9.67 49.406 0.592 7.74 5723 11.28
1/1/2023 5:30:00 PM 9.62 49.316 0.595 7.73 5723 11.16
1/1/2023 5:45:00 PM 9.58 49.244 0.596 7.73 5723 11.07
1/1/2023 6:00:00 PM 9.58 49.244 0.596 7.73 5723 11.07
1/1/2023 6:15:00 PM -99999.99 -179968 -99999.99 -99999.99 -99999.99 -99999.99
1/1/2023 6:30:00 PM -99999.99 -179968 -99999.99 -99999.99 -99999.99 -99999.99
1/1/2023 6:45:00 PM -99999.99 -179968 -99999.99 -99999.99 -99999.99 -99999.99
1/1/2023 7:00:00 PM -99999.99 -179968 -99999.99 -99999.99 -99999.99 -99999.99
1/1/2023 7:15:00 PM -99999.99 -179968 -99999.99 -99999.99 -99999.99 -99999.99
1/1/2023 7:30:00 PM -99999.99 -179968 -99999.99 -99999.99 -99999.99 -99999.99
1/1/2023 7:45:00 PM -99999.99 -179968 -99999.99 -99999.99 -99999.99 -99999.99
1/1/2023 8:00:00 PM -99999.99 -179968 -99999.99 -99999.99 -99999.99 -99999.99
1/1/2023 8:15:00 PM -99999.99 -179968 -99999.99 -99999.99 -99999.99 -99999.99
1/1/2023 8:30:00 PM -99999.99 -179968 -99999.99 -99999.99 -99999.99 -99999.99
1/1/2023 8:45:00 PM -99999.99 -179968 -99999.99 -99999.99 -99999.99 -99999.99
1/1/2023 9:00:00 PM -99999.99 -179968 -99999.99 -99999.99 -99999.99 -99999.99
1/1/2023 9:15:00 PM -99999.99 -179968 -99999.99 -99999.99 -99999.99 -99999.99
1/1/2023 9:30:00 PM -99999.99 -179968 -99999.99 -99999.99 -99999.99 -99999.99
1/1/2023 9:45:00 PM -99999.99 -179968 -99999.99 -99999.99 -99999.99 -99999.99
1/1/2023 10:00:00 PM -99999.99 -179968 -99999.99 -99999.99 -99999.99 -99999.99
1/1/2023 10:15:00 PM -99999.99 -179968 -99999.99 -99999.99 -99999.99 -99999.99
1/1/2023 10:30:00 PM -99999.99 -179968 -99999.99 -99999.99 -99999.99 -99999.99
1/1/2023 10:45:00 PM -99999.99 -179968 -99999.99 -99999.99 -99999.99 -99999.99
1/1/2023 11:00:00 PM -99999.99 -179968 -99999.99 -99999.99 -99999.99 -99999.99
1/1/2023 11:15:00 PM -99999.99 -179968 -99999.99 -99999.99 -99999.99 -99999.99
1/1/2023 11:30:00 PM -99999.99 -179968 -99999.99 -99999.99 -99999.99 -99999.99
1/1/2023 11:45:00 PM -99999.99 -179968 -99999.99 -99999.99 -99999.99 -99999.99
1/2/2023 12:00:00 AM -99999.99 -179968 -99999.99 -99999.99 -99999.99 -99999.99
1/2/2023 12:15:00 AM -99999.99 -179968 -99999.99 -99999.99 -99999.99 -99999.99
1/2/2023 12:30:00 AM -99999.99 -179968 -99999.99 -99999.99 -99999.99 -99999.99
1/2/2023 12:45:00 AM -99999.99 -179968 -99999.99 -99999.99 -99999.99 -99999.99
1/2/2023 1:00:00 AM -99999.99 -179968 -99999.99 -99999.99 -99999.99 -99999.99
1/2/2023 8:15:00 AM -99999.99 -179968 -99999.99 -99999.99 -99999.99 -99999.99
1/2/2023 8:30:00 AM -99999.99 -179968 -99999.99 -99999.99 -99999.99 -99999.99
1/2/2023 8:45:00 AM -99999.99 -179968 -99999.99 -99999.99 -99999.99 -99999.99
1/2/2023 9:00:00 AM -99999.99 -179968 -99999.99 -99999.99 -99999.99 -99999.99
1/2/2023 9:15:00 AM -99999.99 -179968 -99999.99 -99999.99 -99999.99 -99999.99
1/2/2023 9:30:00 AM -99999.99 -179968 -99999.99 -99999.99 -99999.99 -99999.99
1/2/2023 9:45:00 AM -99999.99 -179968 -99999.99 -99999.99 -99999.99 -99999.99
1/2/2023 10:00:00 AM -99999.99 -179968 -99999.99 -99999.99 -99999.99 -99999.99
1/2/2023 10:15:00 AM -99999.99 -179968 -99999.99 -99999.99 -99999.99 -99999.99
1/2/2023 10:30:00 AM -99999.99 -179968 -99999.99 -99999.99 -99999.99 -99999.99
1/2/2023 10:45:00 AM -99999.99 -179968 -99999.99 -99999.99 -99999.99 -99999.99
1/2/2023 11:00:00 AM 9.31 48.758 0.52 7.74 1998 11.24
1/2/2023 11:15:00 AM 9.37 48.866 0.629 7.8 2025 11.45
1/2/2023 11:30:00 AM 9.41 48.938 0.631 7.81 2008 11.54
1/2/2023 11:45:00 AM 9.41 48.938 0.631 7.81 2008 11.54
1/2/2023 12:00:00 PM 9.46 49.028 0.592 7.79 1972 11.54
1/2/2023 12:15:00 PM 9.5 49.1 0.61 7.79 1983 11.63
1/2/2023 12:30:00 PM 9.51 49.118 0.597 7.79 2025 11.65
1/2/2023 12:45:00 PM 9.49 49.082 0.627 7.78 1993 11.6
1/2/2023 1:00:00 PM 9.49 49.082 0.637 7.78 1988 11.65
1/2/2023 1:15:00 PM 9.5 49.1 0.596 7.78 1956 11.69
1/2/2023 1:30:00 PM 9.54 49.172 0.659 7.78 1965 11.79
1/2/2023 1:45:00 PM 9.59 49.262 0.665 7.8 2046 11.92
1/2/2023 2:00:00 PM 9.61 49.298 0.669 7.8 2018 11.91
1/2/2023 2:15:00 PM 9.64 49.352 0.672 7.8 1991 11.85
1/2/2023 2:30:00 PM 9.67 49.406 0.572 7.8 2016 11.85
1/2/2023 2:45:00 PM 9.67 49.406 0.572 7.8 2016 11.85
1/2/2023 3:00:00 PM -99999.99 -179968 -99999.99 -99999.99 -99999.99 -99999.99
1/2/2023 3:15:00 PM -99999.99 -179968 -99999.99 -99999.99 -99999.99 -99999.99
1/2/2023 3:30:00 PM -99999.99 -179968 -99999.99 -99999.99 -99999.99 -99999.99
1/2/2023 3:45:00 PM -99999.99 -179968 -99999.99 -99999.99 -99999.99 -99999.99
1/2/2023 4:00:00 PM -99999.99 -179968 -99999.99 -99999.99 -99999.99 -99999.99
1/2/2023 4:15:00 PM -99999.99 -179968 -99999.99 -99999.99 -99999.99 -99999.99
1/2/2023 4:30:00 PM -99999.99 -179968 -99999.99 -99999.99 -99999.99 -99999.99
1/2/2023 4:45:00 PM -99999.99 -179968 -99999.99 -99999.99 -99999.99 -99999.99
1/2/2023 5:00:00 PM -99999.99 -179968 -99999.99 -99999.99 -99999.99 -99999.99
1/2/2023 5:15:00 PM -99999.99 -179968 -99999.99 -99999.99 -99999.99 -99999.99
1/2/2023 5:30:00 PM -99999.99 -179968 -99999.99 -99999.99 -99999.99 -99999.99
1/2/2023 5:45:00 PM -99999.99 -179968 -99999.99 -99999.99 -99999.99 -99999.99
1/2/2023 6:00:00 PM -99999.99 -179968 -99999.99 -99999.99 -99999.99 -99999.99
1/2/2023 6:15:00 PM -99999.99 -179968 -99999.99 -99999.99 -99999.99 -99999.99
1/2/2023 6:30:00 PM -99999.99 -179968 -99999.99 -99999.99 -99999.99 -99999.99
1/2/2023 6:45:00 PM -99999.99 -179968 -99999.99 -99999.99 -99999.99 -99999.99
1/2/2023 7:00:00 PM -99999.99 -179968 -99999.99 -99999.99 -99999.99 -99999.99
1/2/2023 7:15:00 PM -99999.99 -179968 -99999.99 -99999.99 -99999.99 -99999.99
1/2/2023 7:30:00 PM -99999.99 -179968 -99999.99 -99999.99 -99999.99 -99999.99
1/2/2023 7:45:00 PM -99999.99 -179968 -99999.99 -99999.99 -99999.99 -99999.99
1/2/2023 8:00:00 PM -99999.99 -179968 -99999.99 -99999.99 -99999.99 -99999.99
1/2/2023 8:15:00 PM -99999.99 -179968 -99999.99 -99999.99 -99999.99 -99999.99
1/2/2023 8:30:00 PM -99999.99 -179968 -99999.99 -99999.99 -99999.99 -99999.99
1/2/2023 8:45:00 PM -99999.99 -179968 -99999.99 -99999.99 -99999.99 -99999.99
1/2/2023 9:00:00 PM -99999.99 -179968 -99999.99 -99999.99 -99999.99 -99999.99
1/2/2023 9:15:00 PM -99999.99 -179968 -99999.99 -99999.99 -99999.99 -99999.99
1/2/2023 9:30:00 PM -99999.99 -179968 -99999.99 -99999.99 -99999.99 -99999.99
1/2/2023 9:45:00 PM -99999.99 -179968 -99999.99 -99999.99 -99999.99 -99999.99
1/2/2023 10:00:00 PM -99999.99 -179968 -99999.99 -99999.99 -99999.99 -99999.99
1/3/2023 9:45:00 AM -99999.99 -179968 -99999.99 -99999.99 -99999.99 -99999.99
1/3/2023 10:00:00 AM -99999.99 -179968 -99999.99 -99999.99 -99999.99 -99999.99
1/3/2023 10:15:00 AM -99999.99 -179968 -99999.99 -99999.99 -99999.99 -99999.99
1/3/2023 10:30:00 AM -99999.99 -179968 -99999.99 -99999.99 -99999.99 -99999.99
1/3/2023 10:45:00 AM -99999.99 -179968 -99999.99 -99999.99 -99999.99 -99999.99
1/3/2023 11:00:00 AM -99999.99 -179968 -99999.99 -99999.99 -99999.99 -99999.99
1/3/2023 11:15:00 AM -99999.99 -179968 -99999.99 -99999.99 -99999.99 -99999.99
1/3/2023 11:30:00 AM -99999.99 -179968 -99999.99 -99999.99 -99999.99 -99999.99
1/3/2023 11:45:00 AM -99999.99 -179968 -99999.99 -99999.99 -99999.99 -99999.99
1/3/2023 12:00:00 PM -99999.99 -179968 -99999.99 -99999.99 -99999.99 -99999.99
1/3/2023 12:15:00 PM -99999.99 -179968 -99999.99 -99999.99 -99999.99 -99999.99
1/3/2023 12:30:00 PM -99999.99 -179968 -99999.99 -99999.99 -99999.99 -99999.99
1/3/2023 12:45:00 PM -99999.99 -179968 -99999.99 -99999.99 -99999.99 -99999.99
1/3/2023 1:00:00 PM -99999.99 -179968 -99999.99 -99999.99 -99999.99 -99999.99
1/3/2023 1:15:00 PM -99999.99 -179968 -99999.99 -99999.99 -99999.99 -99999.99
1/3/2023 1:30:00 PM -99999.99 -179968 -99999.99 -99999.99 -99999.99 -99999.99
1/3/2023 1:45:00 PM -99999.99 -179968 -99999.99 -99999.99 -99999.99 -99999.99
1/3/2023 2:00:00 PM -99999.99 -179968 -99999.99 -99999.99 -99999.99 -99999.99
1/3/2023 2:15:00 PM -99999.99 -179968 -99999.99 -99999.99 -99999.99 -99999.99
1/3/2023 2:30:00 PM -99999.99 -179968 -99999.99 -99999.99 -99999.99 -99999.99
1/3/2023 2:45:00 PM -99999.99 -179968 -99999.99 -99999.99 -99999.99 -99999.99
1/3/2023 3:00:00 PM -99999.99 -179968 -99999.99 -99999.99 -99999.99 -99999.99
1/3/2023 3:15:00 PM -99999.99 -179968 -99999.99 -99999.99 -99999.99 -99999.99
1/3/2023 3:30:00 PM -99999.99 -179968 -99999.99 -99999.99 -99999.99 -99999.99
1/3/2023 3:45:00 PM -99999.99 -179968 -99999.99 -99999.99 -99999.99 -99999.99
1/3/2023 4:00:00 PM -99999.99 -179968 -99999.99 -99999.99 -99999.99 -99999.99
1/4/2023 8:00:00 AM -99999.99 -179968 -99999.99 -99999.99 -99999.99 -99999.99
1/4/2023 8:15:00 AM -99999.99 -179968 -99999.99 -99999.99 -99999.99 -99999.99
1/4/2023 8:30:00 AM -99999.99 -179968 -99999.99 -99999.99 -99999.99 -99999.99
1/4/2023 8:45:00 AM -99999.99 -179968 -99999.99 -99999.99 -99999.99 -99999.99
1/4/2023 9:00:00 AM -99999.99 -179968 -99999.99 -99999.99 -99999.99 -99999.99
1/4/2023 9:15:00 AM -99999.99 -179968 -99999.99 -99999.99 -99999.99 -99999.99
1/4/2023 9:30:00 AM -99999.99 -179968 -99999.99 -99999.99 -99999.99 -99999.99
1/4/2023 9:45:00 AM -99999.99 -179968 -99999.99 -99999.99 -99999.99 -99999.99
1/4/2023 10:00:00 AM 10 50 0.523 7.55 4108 9.99
1/4/2023 10:15:00 AM 10.06 50.108 0.46 7.59 4092 10.12
1/4/2023 10:30:00 AM 10.12 50.216 0.541 7.6 4093 10.24
1/4/2023 10:45:00 AM 10.19 50.342 0.542 7.61 4093 10.34
1/4/2023 11:00:00 AM 10.24 50.432 0.551 7.61 4100 10.47
1/4/2023 11:15:00 AM 10.29 50.522 0.543 7.62 4140 10.56
1/4/2023 11:30:00 AM 10.35 50.63 0.544 7.62 4147 10.64
1/4/2023 11:45:00 AM 10.41 50.738 0.547 7.63 4157 10.74
1/4/2023 12:00:00 PM 10.45 50.81 0.55 7.64 4194 10.81
1/4/2023 12:15:00 PM 10.49 50.882 0.467 7.64 4193 10.9
1/4/2023 12:30:00 PM 10.55 50.99 0.561 7.65 4184 10.95
1/4/2023 12:45:00 PM 10.6 51.08 0.563 7.65 4157 11.02
1/4/2023 1:00:00 PM 10.64 51.152 0.564 7.66 4171 11.1
1/4/2023 1:15:00 PM 10.68 51.224 0.564 7.67 4157 11.14
1/4/2023 1:30:00 PM 10.71 51.278 0.565 7.67 4146 11.22
1/4/2023 1:45:00 PM 10.74 51.332 0.565 7.68 4138 11.23
1/4/2023 2:00:00 PM 10.77 51.386 0.566 7.68 4145 11.23
1/4/2023 2:15:00 PM 10.79 51.422 0.566 7.68 4140 11.24
1/4/2023 2:30:00 PM 10.81 51.458 0.567 7.68 4153 11.19
1/4/2023 2:45:00 PM 10.83 51.494 0.568 7.68 4150 11.15
1/4/2023 3:00:00 PM 10.85 51.53 0.568 7.67 4145 11.1
1/4/2023 3:15:00 PM 10.86 51.548 0.569 7.67 4162 11.03
1/4/2023 3:30:00 PM 10.88 51.584 0.571 7.67 4154 10.95
1/4/2023 3:45:00 PM 10.89 51.602 0.572 7.66 4151 10.86
1/4/2023 4:00:00 PM 10.91 51.638 0.573 7.66 4133 10.75
1/4/2023 4:15:00 PM 10.92 51.656 0.573 7.65 4127 10.68
1/4/2023 4:30:00 PM 10.93 51.674 0.575 7.65 4136 10.6
1/4/2023 4:45:00 PM -99999.99 -179968 -99999.99 -99999.99 -99999.99 -99999.99
1/4/2023 5:00:00 PM -99999.99 -179968 -99999.99 -99999.99 -99999.99 -99999.99
1/4/2023 5:15:00 PM -99999.99 -179968 -99999.99 -99999.99 -99999.99 -99999.99
1/4/2023 5:30:00 PM -99999.99 -179968 -99999.99 -99999.99 -99999.99 -99999.99
1/4/2023 5:45:00 PM -99999.99 -179968 -99999.99 -99999.99 -99999.99 -99999.99
1/4/2023 6:00:00 PM -99999.99 -179968 -99999.99 -99999.99 -99999.99 -99999.99
1/4/2023 6:15:00 PM -99999.99 -179968 -99999.99 -99999.99 -99999.99 -99999.99
1/4/2023 6:30:00 PM -99999.99 -179968 -99999.99 -99999.99 -99999.99 -99999.99
1/4/2023 6:45:00 PM -99999.99 -179968 -99999.99 -99999.99 -99999.99 -99999.99
1/4/2023 7:00:00 PM -99999.99 -179968 -99999.99 -99999.99 -99999.99 -99999.99
1/4/2023 7:15:00 PM -99999.99 -179968 -99999.99 -99999.99 -99999.99 -99999.99
1/4/2023 7:30:00 PM -99999.99 -179968 -99999.99 -99999.99 -99999.99 -99999.99
1/4/2023 7:45:00 PM -99999.99 -179968 -99999.99 -99999.99 -99999.99 -99999.99
1/4/2023 8:00:00 PM -99999.99 -179968 -99999.99 -99999.99 -99999.99 -99999.99
1/4/2023 8:15:00 PM -99999.99 -179968 -99999.99 -99999.99 -99999.99 -99999.99
1/4/2023 8:30:00 PM -99999.99 -179968 -99999.99 -99999.99 -99999.99 -99999.99
1/4/2023 8:45:00 PM -99999.99 -179968 -99999.99 -99999.99 -99999.99 -99999.99
1/4/2023 9:00:00 PM -99999.99 -179968 -99999.99 -99999.99 -99999.99 -99999.99
1/4/2023 9:15:00 PM -99999.99 -179968 -99999.99 -99999.99 -99999.99 -99999.99
1/4/2023 9:30:00 PM -99999.99 -179968 -99999.99 -99999.99 -99999.99 -99999.99
1/4/2023 9:45:00 PM -99999.99 -179968 -99999.99 -99999.99 -99999.99 -99999.99
1/4/2023 10:00:00 PM -99999.99 -179968 -99999.99 -99999.99 -99999.99 -99999.99
1/4/2023 10:15:00 PM -99999.99 -179968 -99999.99 -99999.99 -99999.99 -99999.99
1/4/2023 10:30:00 PM -99999.99 -179968 -99999.99 -99999.99 -99999.99 -99999.99
1/4/2023 10:45:00 PM -99999.99 -179968 -99999.99 -99999.99 -99999.99 -99999.99
1/4/2023 11:00:00 PM -99999.99 -179968 -99999.99 -99999.99 -99999.99 -99999.99
1/4/2023 11:15:00 PM -99999.99 -179968 -99999.99 -99999.99 -99999.99 -99999.99
1/4/2023 11:30:00 PM -99999.99 -179968 -99999.99 -99999.99 -99999.99 -99999.99
1/4/2023 11:45:00 PM -99999.99 -179968 -99999.99 -99999.99 -99999.99 -99999.99
1/5/2023 12:00:00 AM -99999.99 -179968 -99999.99 -99999.99 -99999.99 -99999.99
1/5/2023 12:15:00 AM -99999.99 -179968 -99999.99 -99999.99 -99999.99 -99999.99
1/5/2023 12:30:00 AM -99999.99 -179968 -99999.99 -99999.99 -99999.99 -99999.99
1/5/2023 12:45:00 AM -99999.99 -179968 -99999.99 -99999.99 -99999.99 -99999.99
1/5/2023 1:00:00 AM -99999.99 -179968 -99999.99 -99999.99 -99999.99 -99999.99
1/5/2023 1:15:00 AM -99999.99 -179968 -99999.99 -99999.99 -99999.99 -99999.99
1/5/2023 1:30:00 AM -99999.99 -179968 -99999.99 -99999.99 -99999.99 -99999.99
1/5/2023 1:45:00 AM -99999.99 -179968 -99999.99 -99999.99 -99999.99 -99999.99
1/5/2023 2:00:00 AM -99999.99 -179968 -99999.99 -99999.99 -99999.99 -99999.99
1/5/2023 2:15:00 AM -99999.99 -179968 -99999.99 -99999.99 -99999.99 -99999.99
1/5/2023 2:30:00 AM -99999.99 -179968 -99999.99 -99999.99 -99999.99 -99999.99
1/5/2023 2:45:00 AM -99999.99 -179968 -99999.99 -99999.99 -99999.99 -99999.99
1/5/2023 3:00:00 AM -99999.99 -179968 -99999.99 -99999.99 -99999.99 -99999.99
1/5/2023 8:15:00 AM -99999.99 -179968 -99999.99 -99999.99 -99999.99 -99999.99
1/5/2023 8:30:00 AM -99999.99 -179968 -99999.99 -99999.99 -99999.99 -99999.99
1/5/2023 8:45:00 AM -99999.99 -179968 -99999.99 -99999.99 -99999.99 -99999.99
1/5/2023 9:00:00 AM -99999.99 -179968 -99999.99 -99999.99 -99999.99 -99999.99
1/5/2023 9:15:00 AM -99999.99 -179968 -99999.99 -99999.99 -99999.99 -99999.99
1/5/2023 9:30:00 AM -99999.99 -179968 -99999.99 -99999.99 -99999.99 -99999.99
1/5/2023 9:45:00 AM 10.42 50.756 0.472 7.57 3869 9.76
1/5/2023 10:00:00 AM 10.45 50.81 0.472 7.59 3864 9.91
1/5/2023 10:15:00 AM 10.49 50.882 0.474 7.62 3838 10.05
1/5/2023 10:30:00 AM 10.55 50.99 0.473 7.64 3845 10.2
1/5/2023 10:45:00 AM 10.62 51.116 0.47 7.65 3837 10.37
1/5/2023 11:00:00 AM 10.67 51.206 0.473 7.66 3830 10.49
1/5/2023 11:15:00 AM 10.72 51.296 0.486 7.67 4122 10.6
1/5/2023 11:30:00 AM 10.78 51.404 0.473 7.68 4103 10.74
1/5/2023 11:45:00 AM 10.85 51.53 0.482 7.69 4148 10.88
1/5/2023 12:00:00 PM 10.91 51.638 0.477 7.7 4459 11
1/5/2023 12:15:00 PM 10.96 51.728 0.473 7.71 4461 11.12
1/5/2023 12:30:00 PM 11.03 51.854 0.466 7.72 4429 11.23
1/5/2023 12:45:00 PM 11.06 51.908 0.47 7.72 4505 11.27
1/5/2023 1:00:00 PM 11.04 51.872 0.474 7.72 4475 11.25
1/5/2023 1:15:00 PM 11.06 51.908 0.583 7.73 4447 11.25
1/5/2023 1:30:00 PM 11.09 51.962 0.544 7.74 4374 11.36
1/5/2023 1:45:00 PM 11.11 51.998 0.585 7.75 4344 11.45
1/5/2023 2:00:00 PM 11.12 52.016 0.593 7.76 4536 11.54
1/5/2023 2:15:00 PM 11.13 52.034 0.597 7.76 4951 11.57
1/5/2023 2:30:00 PM 11.15 52.07 0.601 7.77 4902 11.6
1/5/2023 2:45:00 PM 11.15 52.07 0.603 7.77 5045 11.58
1/5/2023 3:00:00 PM 11.15 52.07 0.596 7.77 4356 11.51
1/5/2023 3:15:00 PM 11.17 52.106 0.58 7.77 4542 11.49
1/5/2023 3:30:00 PM 11.2 52.16 0.48 7.77 4603 11.5
1/5/2023 3:45:00 PM 11.19 52.142 0.522 7.76 4841 11.4
1/5/2023 4:00:00 PM 11.18 52.124 0.52 7.76 4768 11.27
1/5/2023 4:15:00 PM 11.19 52.142 0.529 7.76 4757 11.23
1/5/2023 4:30:00 PM 11.2 52.16 0.559 7.75 4625 11.13
1/5/2023 4:45:00 PM 11.18 52.124 0.59 7.75 4644 11.02
1/5/2023 5:00:00 PM 11.17 52.106 0.496 7.74 4640 10.94
1/5/2023 5:15:00 PM 11.16 52.088 0.583 7.74 4223 10.85
1/5/2023 5:30:00 PM 11.15 52.07 0.605 7.74 4228 10.76
1/5/2023 5:45:00 PM 11.13 52.034 0.604 7.73 4278 10.68
1/5/2023 6:00:00 PM 11.1 51.98 0.604 7.73 4305 10.6
1/5/2023 6:15:00 PM 11.08 51.944 0.604 7.73 4351 10.51
1/5/2023 6:30:00 PM 11.05 51.89 0.605 7.72 4348 10.43
1/5/2023 6:45:00 PM 11.03 51.854 0.605 7.72 4312 10.37
1/5/2023 7:00:00 PM 11.01 51.818 0.605 7.72 4345 10.3
1/5/2023 7:15:00 PM 10.98 51.764 0.605 7.71 4311 10.22
1/5/2023 7:30:00 PM 10.95 51.71 0.605 7.71 4461 10.18
1/5/2023 7:45:00 PM 10.93 51.674 0.605 7.71 4575 10.12
1/5/2023 8:00:00 PM 10.93 51.674 0.605 7.71 4575 10.12
1/5/2023 8:15:00 PM -99999.99 -179968 -99999.99 -99999.99 -99999.99 -99999.99
1/5/2023 8:30:00 PM -99999.99 -179968 -99999.99 -99999.99 -99999.99 -99999.99
1/5/2023 8:45:00 PM -99999.99 -179968 -99999.99 -99999.99 -99999.99 -99999.99
1/5/2023 9:00:00 PM -99999.99 -179968 -99999.99 -99999.99 -99999.99 -99999.99
1/5/2023 9:15:00 PM -99999.99 -179968 -99999.99 -99999.99 -99999.99 -99999.99
1/5/2023 9:30:00 PM -99999.99 -179968 -99999.99 -99999.99 -99999.99 -99999.99
1/5/2023 9:45:00 PM -99999.99 -179968 -99999.99 -99999.99 -99999.99 -99999.99
1/5/2023 10:00:00 PM -99999.99 -179968 -99999.99 -99999.99 -99999.99 -99999.99
1/5/2023 10:15:00 PM -99999.99 -179968 -99999.99 -99999.99 -99999.99 -99999.99
1/5/2023 10:30:00 PM -99999.99 -179968 -99999.99 -99999.99 -99999.99 -99999.99
1/5/2023 10:45:00 PM -99999.99 -179968 -99999.99 -99999.99 -99999.99 -99999.99
1/5/2023 11:00:00 PM -99999.99 -179968 -99999.99 -99999.99 -99999.99 -99999.99
1/5/2023 11:15:00 PM -99999.99 -179968 -99999.99 -99999.99 -99999.99 -99999.99
1/5/2023 11:30:00 PM -99999.99 -179968 -99999.99 -99999.99 -99999.99 -99999.99
1/5/2023 11:45:00 PM -99999.99 -179968 -99999.99 -99999.99 -99999.99 -99999.99
1/6/2023 12:00:00 AM -99999.99 -179968 -99999.99 -99999.99 -99999.99 -99999.99
1/6/2023 12:15:00 AM -99999.99 -179968 -99999.99 -99999.99 -99999.99 -99999.99
1/6/2023 12:30:00 AM -99999.99 -179968 -99999.99 -99999.99 -99999.99 -99999.99
1/6/2023 12:45:00 AM -99999.99 -179968 -99999.99 -99999.99 -99999.99 -99999.99
1/6/2023 1:00:00 AM -99999.99 -179968 -99999.99 -99999.99 -99999.99 -99999.99
1/6/2023 1:15:00 AM -99999.99 -179968 -99999.99 -99999.99 -99999.99 -99999.99
1/6/2023 1:30:00 AM -99999.99 -179968 -99999.99 -99999.99 -99999.99 -99999.99
1/6/2023 1:45:00 AM -99999.99 -179968 -99999.99 -99999.99 -99999.99 -99999.99
1/6/2023 2:00:00 AM -99999.99 -179968 -99999.99 -99999.99 -99999.99 -99999.99
1/6/2023 2:15:00 AM -99999.99 -179968 -99999.99 -99999.99 -99999.99 -99999.99
1/6/2023 2:30:00 AM -99999.99 -179968 -99999.99 -99999.99 -99999.99 -99999.99
1/6/2023 2:45:00 AM -99999.99 -179968 -99999.99 -99999.99 -99999.99 -99999.99
1/6/2023 3:00:00 AM -99999.99 -179968 -99999.99 -99999.99 -99999.99 -99999.99
1/6/2023 3:15:00 AM -99999.99 -179968 -99999.99 -99999.99 -99999.99 -99999.99
1/6/2023 3:30:00 AM -99999.99 -179968 -99999.99 -99999.99 -99999.99 -99999.99
1/6/2023 3:45:00 AM -99999.99 -179968 -99999.99 -99999.99 -99999.99 -99999.99
1/6/2023 4:00:00 AM -99999.99 -179968 -99999.99 -99999.99 -99999.99 -99999.99
1/6/2023 4:15:00 AM -99999.99 -179968 -99999.99 -99999.99 -99999.99 -99999.99
1/6/2023 4:30:00 AM -99999.99 -179968 -99999.99 -99999.99 -99999.99 -99999.99
1/6/2023 4:45:00 AM -99999.99 -179968 -99999.99 -99999.99 -99999.99 -99999.99
1/6/2023 5:00:00 AM -99999.99 -179968 -99999.99 -99999.99 -99999.99 -99999.99
1/6/2023 5:15:00 AM -99999.99 -179968 -99999.99 -99999.99 -99999.99 -99999.99
1/6/2023 5:30:00 AM -99999.99 -179968 -99999.99 -99999.99 -99999.99 -99999.99
1/6/2023 5:45:00 AM -99999.99 -179968 -99999.99 -99999.99 -99999.99 -99999.99
1/6/2023 6:00:00 AM -99999.99 -179968 -99999.99 -99999.99 -99999.99 -99999.99
1/6/2023 8:00:00 AM -99999.99 -179968 -99999.99 -99999.99 -99999.99 -99999.99
1/6/2023 8:15:00 AM -99999.99 -179968 -99999.99 -99999.99 -99999.99 -99999.99
1/6/2023 8:30:00 AM -99999.99 -179968 -99999.99 -99999.99 -99999.99 -99999.99
1/6/2023 8:45:00 AM -99999.99 -179968 -99999.99 -99999.99 -99999.99 -99999.99
1/6/2023 9:00:00 AM -99999.99 -179968 -99999.99 -99999.99 -99999.99 -99999.99
1/6/2023 9:15:00 AM -99999.99 -179968 -99999.99 -99999.99 -99999.99 -99999.99
1/6/2023 9:30:00 AM -99999.99 -179968 -99999.99 -99999.99 -99999.99 -99999.99
1/6/2023 9:45:00 AM -99999.99 -179968 -99999.99 -99999.99 -99999.99 -99999.99
1/6/2023 10:00:00 AM 9.92 49.856 0.612 7.64 5719 10.14
1/6/2023 10:15:00 AM 9.93 49.874 0.608 7.67 5712 10.3
1/6/2023 10:30:00 AM 9.97 49.946 0.606 7.68 5708 10.53
1/6/2023 10:45:00 AM 9.99 49.982 0.605 7.7 5695 10.7
1/6/2023 11:00:00 AM 10 50 0.605 7.7 5712 10.79
1/6/2023 11:15:00 AM 10.01 50.018 0.604 7.71 5713 10.89
1/6/2023 11:30:00 AM 10.04 50.072 0.604 7.72 5717 11.04
1/6/2023 11:45:00 AM 10.1 50.18 0.621 7.73 5.38 11.27
1/6/2023 12:00:00 PM 10.14 50.252 0.62 7.74 5.74 11.38
1/6/2023 12:15:00 PM 10.13 50.234 0.62 7.74 6.14 11.4
1/6/2023 12:30:00 PM 10.11 50.198 0.621 7.74 6.14 11.39
1/6/2023 12:45:00 PM 10.14 50.252 0.624 7.75 6.37 11.56
1/6/2023 1:00:00 PM 10.16 50.288 0.626 7.76 6.31 11.65
1/6/2023 1:15:00 PM 10.12 50.216 0.624 7.76 6.07 11.62
1/6/2023 1:30:00 PM 10.1 50.18 0.622 7.76 6.13 11.62
1/6/2023 1:45:00 PM 10.07 50.126 0.619 7.76 6.51 11.58
1/6/2023 2:00:00 PM 10.04 50.072 0.617 7.76 6.37 11.53
1/6/2023 2:15:00 PM 10 50 0.616 7.75 6.42 11.5
1/6/2023 2:30:00 PM 9.97 49.946 0.615 7.75 6.6 11.44
1/6/2023 2:45:00 PM 9.94 49.892 0.614 7.75 6.99 11.43
1/6/2023 3:00:00 PM 9.94 49.892 0.614 7.75 6.68 11.45
1/6/2023 3:15:00 PM 9.93 49.874 0.613 7.75 6.78 11.46
1/6/2023 3:30:00 PM 9.92 49.856 0.613 7.76 6.49 11.46
1/6/2023 3:45:00 PM 9.9 49.82 0.613 7.75 7.31 11.38
1/6/2023 4:00:00 PM 9.87 49.766 0.614 7.75 6.53 11.3
1/6/2023 4:15:00 PM 9.84 49.712 0.614 7.75 6.61 11.25
1/6/2023 4:30:00 PM 9.82 49.676 0.614 7.75 6.15 11.18
1/6/2023 4:45:00 PM 9.79 49.622 0.615 7.75 5.81 11.12
1/6/2023 5:00:00 PM 9.76 49.568 0.615 7.74 7.14 11.03
1/6/2023 5:15:00 PM 9.73 49.514 0.616 7.74 6.74 10.94
1/6/2023 5:30:00 PM 9.69 49.442 0.617 7.73 7.24 10.88
1/6/2023 5:45:00 PM 9.66 49.388 0.617 7.73 7.06 10.81
1/6/2023 6:00:00 PM 9.63 49.334 0.618 7.73 6.91 10.76
1/6/2023 6:15:00 PM 9.6 49.28 0.618 7.73 7.97 10.68
1/6/2023 6:30:00 PM 9.58 49.244 0.619 7.72 8.09 10.66
1/6/2023 6:45:00 PM 9.56 49.208 0.62 7.72 8.48 10.59
1/6/2023 7:00:00 PM 9.56 49.208 0.62 7.71 8.13 10.54
1/6/2023 7:15:00 PM 9.55 49.19 0.621 7.71 8.96 10.48
1/6/2023 7:30:00 PM 9.54 49.172 0.621 7.7 8.87 10.41
1/6/2023 7:45:00 PM 9.53 49.154 0.621 7.7 9.26 10.35
1/6/2023 8:00:00 PM 9.51 49.118 0.621 7.7 9.23 10.33
1/6/2023 8:15:00 PM 9.49 49.082 0.622 7.69 8.6 10.27
1/6/2023 8:30:00 PM 9.47 49.046 0.622 7.69 9.01 10.24
1/6/2023 8:45:00 PM 9.45 49.01 0.622 7.68 8.66 10.2
1/6/2023 9:00:00 PM 9.42 48.956 0.622 7.68 8.91 10.17
1/6/2023 9:15:00 PM 9.41 48.938 0.622 7.68 8.92 10.13
1/6/2023 9:30:00 PM 9.39 48.902 0.622 7.67 9.46 10.1
1/6/2023 9:45:00 PM 9.37 48.866 0.622 7.67 8.96 10.07
1/6/2023 10:00:00 PM 9.35 48.83 0.621 7.67 9.57 10.05
1/6/2023 10:15:00 PM 9.33 48.794 0.621 7.66 9.89 10.02
1/6/2023 10:30:00 PM 9.3 48.74 0.62 7.66 9.72 9.98
1/6/2023 10:45:00 PM 9.28 48.704 0.62 7.66 9.77 9.97
1/6/2023 11:00:00 PM 9.27 48.686 0.619 7.65 9.67 9.94
1/6/2023 11:15:00 PM 9.25 48.65 0.618 7.65 9.53 9.91
1/6/2023 11:30:00 PM 9.22 48.596 0.618 7.65 9.26 9.91
1/6/2023 11:45:00 PM 9.2 48.56 0.617 7.64 10.39 9.89
1/7/2023 12:00:00 AM 9.18 48.524 0.617 7.64 9.87 9.87
1/7/2023 12:15:00 AM 9.16 48.488 0.616 7.63 8.73 9.87
1/7/2023 12:30:00 AM 9.14 48.452 0.616 7.63 10.19 9.86
1/7/2023 12:45:00 AM 9.11 48.398 0.616 7.63 9.6 9.86
1/7/2023 1:00:00 AM 9.1 48.38 0.616 7.63 9.49 9.85
1/7/2023 1:15:00 AM 9.08 48.344 0.616 7.63 9.7 9.85
1/7/2023 1:30:00 AM 9.06 48.308 0.616 7.63 9.08 9.85
1/7/2023 1:45:00 AM 9.05 48.29 0.615 7.63 9.76 9.85
1/7/2023 2:00:00 AM 9.03 48.254 0.614 7.63 9.66 9.86
1/7/2023 2:15:00 AM 9.01 48.218 0.613 7.63 9.36 9.86
1/7/2023 2:30:00 AM 8.99 48.182 0.611 7.62 9.04 9.87
1/7/2023 2:45:00 AM 8.96 48.128 0.609 7.62 9.78 9.87
1/7/2023 3:00:00 AM 8.94 48.092 0.607 7.62 10.51 9.88
1/7/2023 3:15:00 AM 8.92 48.056 0.605 7.62 10.54 9.89
1/7/2023 3:30:00 AM 8.89 48.002 0.603 7.62 10.21 9.89
1/7/2023 3:45:00 AM 8.87 47.966 0.602 7.62 10.44 9.89
1/7/2023 4:00:00 AM 8.86 47.948 0.602 7.62 10.18 9.9
1/7/2023 4:15:00 AM 8.84 47.912 0.603 7.62 10.23 9.9
1/7/2023 4:30:00 AM 8.83 47.894 0.604 7.61 10.9 9.9
1/7/2023 4:45:00 AM 8.81 47.858 0.606 7.61 9.99 9.9
1/7/2023 5:00:00 AM 8.79 47.822 0.607 7.61 9.92 9.9
1/7/2023 5:15:00 AM 8.77 47.786 0.609 7.61 10.26 9.91
1/7/2023 5:30:00 AM 8.75 47.75 0.611 7.62 9.56 9.91
1/7/2023 5:45:00 AM 8.73 47.714 0.613 7.62 9.36 9.92
1/7/2023 6:00:00 AM 8.72 47.696 0.614 7.62 9.39 9.92
1/7/2023 6:15:00 AM 8.71 47.678 0.615 7.62 9.46 9.92
1/7/2023 6:30:00 AM 8.7 47.66 0.616 7.62 10.46 9.93
1/7/2023 6:45:00 AM 8.68 47.624 0.617 7.62 9.48 9.95
1/7/2023 7:00:00 AM 8.67 47.606 0.618 7.62 9.94 9.95
1/7/2023 7:15:00 AM 8.65 47.57 0.619 7.62 10.04 9.98
1/7/2023 7:30:00 AM 8.63 47.534 0.619 7.63 9.81 9.99
1/7/2023 7:45:00 AM 8.61 47.498 0.62 7.63 9.94 10.01
1/7/2023 8:00:00 AM 8.57 47.426 0.621 7.63 9.9 10.01
1/7/2023 8:15:00 AM 8.53 47.354 0.623 7.63 9.47 10.02
1/7/2023 8:30:00 AM 8.52 47.336 0.627 7.63 10.16 10.09
1/7/2023 8:45:00 AM 8.54 47.372 0.634 7.64 9.23 10.23
1/7/2023 9:00:00 AM 8.56 47.408 0.642 7.65 8.18 10.4
1/7/2023 9:15:00 AM 8.57 47.426 0.648 7.66 7.65 10.55
1/7/2023 9:30:00 AM 8.6 47.48 0.65 7.68 7.61 10.72
1/7/2023 9:45:00 AM 8.63 47.534 0.647 7.69 7.12 10.87
1/7/2023 10:00:00 AM 8.66 47.588 0.642 7.69 7.48 11.08
1/7/2023 10:15:00 AM 8.69 47.642 0.637 7.71 7.75 11.23
1/7/2023 10:30:00 AM 8.72 47.696 0.633 7.72 7.95 11.39
1/7/2023 10:45:00 AM 8.76 47.768 0.63 7.73 6.18 11.55
1/7/2023 11:00:00 AM 8.8 47.84 0.628 7.74 6.36 11.68
1/7/2023 11:15:00 AM 8.83 47.894 0.627 7.75 6.39 11.82
1/7/2023 11:30:00 AM 8.87 47.966 0.627 7.76 6.54 11.93
1/7/2023 11:45:00 AM 8.9 48.02 0.626 7.76 6.82 12.01
1/7/2023 12:00:00 PM 8.93 48.074 0.625 7.77 6.48 12.11
1/7/2023 12:15:00 PM 8.94 48.092 0.625 7.78 6.63 12.18
1/7/2023 12:30:00 PM 8.94 48.092 0.625 7.78 6.17 12.22
1/7/2023 12:45:00 PM 8.95 48.11 0.625 7.79 5.99 12.24
1/7/2023 1:00:00 PM 9 48.2 0.625 7.79 5.95 12.32
1/7/2023 1:15:00 PM 9.04 48.272 0.624 7.8 5.95 12.4
1/7/2023 1:30:00 PM 9.03 48.254 0.624 7.81 6.61 12.4
1/7/2023 1:45:00 PM 9.05 48.29 0.627 7.81 6.67 12.41
1/7/2023 2:00:00 PM 9.08 48.344 0.63 7.82 7.07 12.48
1/7/2023 2:15:00 PM 9.09 48.362 0.632 7.82 6.3 12.5
1/7/2023 2:30:00 PM 9.08 48.344 0.631 7.82 6.98 12.48
1/7/2023 2:45:00 PM 9.06 48.308 0.63 7.82 7.14 12.41
1/7/2023 3:00:00 PM 9.05 48.29 0.629 7.81 7.95 12.28
1/7/2023 3:15:00 PM 9.05 48.29 0.628 7.82 8.03 12.25
1/7/2023 3:30:00 PM 9.06 48.308 0.627 7.81 6.88 12.26
1/7/2023 3:45:00 PM 9.06 48.308 0.627 7.81 7.21 12.18
1/7/2023 4:00:00 PM 9.06 48.308 0.627 7.81 6.56 12.07
1/7/2023 4:15:00 PM 9.08 48.344 0.626 7.8 7.09 11.99
1/7/2023 4:30:00 PM 9.09 48.362 0.626 7.8 6.89 11.91
1/7/2023 4:45:00 PM 9.1 48.38 0.626 7.79 6.67 11.82
1/7/2023 5:00:00 PM 9.1 48.38 0.626 7.79 7.1 11.71
1/7/2023 5:15:00 PM 9.09 48.362 0.627 7.78 7.14 11.58
1/7/2023 5:30:00 PM 9.09 48.362 0.627 7.77 6.98 11.48
1/7/2023 5:45:00 PM 9.08 48.344 0.627 7.77 7.18 11.39
1/7/2023 6:00:00 PM 9.07 48.326 0.627 7.76 7.39 11.31
1/7/2023 6:15:00 PM 9.05 48.29 0.627 7.76 7.66 11.23
1/7/2023 6:30:00 PM 9.04 48.272 0.627 7.75 8 11.13
1/7/2023 6:45:00 PM 9.03 48.254 0.627 7.75 7.88 11.07
1/7/2023 7:00:00 PM 9.02 48.236 0.627 7.74 8.31 11.04
1/7/2023 7:15:00 PM 9.02 48.236 0.628 7.74 8.09 10.99
1/7/2023 7:30:00 PM 9.02 48.236 0.628 7.74 8.39 10.93
1/7/2023 7:45:00 PM 9.02 48.236 0.628 7.74 7.98 10.88
1/7/2023 8:00:00 PM 9 48.2 0.628 7.73 8.3 10.82
1/7/2023 8:15:00 PM 8.99 48.182 0.628 7.73 8.44 10.77
1/7/2023 8:30:00 PM 8.97 48.146 0.628 7.73 8.62 10.71
1/7/2023 8:45:00 PM 8.93 48.074 0.628 7.72 8.53 10.65
1/7/2023 9:00:00 PM 8.91 48.038 0.629 7.72 9.01 10.59
1/7/2023 9:15:00 PM 8.89 48.002 0.628 7.72 8.71 10.57
1/7/2023 9:30:00 PM 8.86 47.948 0.629 7.71 8.63 10.53
1/7/2023 9:45:00 PM 8.84 47.912 0.629 7.71 8.53 10.49
1/7/2023 10:00:00 PM 8.82 47.876 0.629 7.71 7.68 10.44
1/7/2023 10:15:00 PM 8.8 47.84 0.629 7.7 7.7 10.41
1/7/2023 10:30:00 PM 8.77 47.786 0.629 7.7 7.92 10.35
1/7/2023 10:45:00 PM 8.75 47.75 0.629 7.7 8.3 10.33
1/7/2023 11:00:00 PM 8.73 47.714 0.629 7.7 8.41 10.29
1/7/2023 11:15:00 PM 8.72 47.696 0.63 7.69 8.07 10.25
1/7/2023 11:30:00 PM 8.72 47.696 0.63 7.69 8.12 10.23
1/7/2023 11:45:00 PM 8.7 47.66 0.63 7.69 8.04 10.19
1/8/2023 12:00:00 AM 8.69 47.642 0.631 7.68 8.51 10.19
1/8/2023 12:15:00 AM 8.67 47.606 0.631 7.68 8.43 10.16
1/8/2023 12:30:00 AM 8.64 47.552 0.631 7.68 8.81 10.15
1/8/2023 12:45:00 AM 8.61 47.498 0.631 7.67 8.58 10.14
1/8/2023 1:00:00 AM 8.59 47.462 0.631 7.67 8.85 10.12
1/8/2023 1:15:00 AM 8.57 47.426 0.631 7.67 9.01 10.11
1/8/2023 1:30:00 AM 8.56 47.408 0.632 7.67 9.07 10.08
1/8/2023 1:45:00 AM 8.54 47.372 0.632 7.67 8.69 10.1
1/8/2023 2:00:00 AM 8.53 47.354 0.632 7.66 9.4 10.09
1/8/2023 2:15:00 AM 8.52 47.336 0.632 7.66 9.61 10.08
1/8/2023 2:30:00 AM 8.51 47.318 0.632 7.66 9.36 10.06
1/8/2023 2:45:00 AM 8.49 47.282 0.633 7.66 9.8 10.07
1/8/2023 3:00:00 AM 8.48 47.264 0.633 7.66 9.3 10.07
1/8/2023 3:15:00 AM 8.47 47.246 0.633 7.66 8.91 10.05
1/8/2023 3:30:00 AM 8.46 47.228 0.634 7.65 8.66 10.05
1/8/2023 4:00:00 AM 8.45 47.21 0.635 7.66 9.31 10.06
1/8/2023 4:15:00 AM 8.44 47.192 0.635 7.65 10.24 10.04
1/8/2023 4:30:00 AM 8.43 47.174 0.636 7.65 8.87 10.04
1/8/2023 4:45:00 AM 8.41 47.138 0.636 7.65 9.89 10.04
1/8/2023 5:00:00 AM 8.38 47.084 0.636 7.64 9.34 10.04
1/8/2023 5:15:00 AM 8.36 47.048 0.637 7.64 9.16 10.05
1/8/2023 5:30:00 AM 8.32 46.976 0.637 7.64 9.07 10.06
1/8/2023 5:45:00 AM 8.28 46.904 0.636 7.64 9.52 10.07
1/8/2023 6:00:00 AM 8.24 46.832 0.636 7.64 9.31 10.09
1/8/2023 6:15:00 AM 8.2 46.76 0.636 7.64 8.45 10.11
1/8/2023 6:30:00 AM 8.16 46.688 0.636 7.64 9.22 10.12
1/8/2023 6:45:00 AM 8.12 46.616 0.636 7.64 8.88 10.14
1/8/2023 7:00:00 AM 8.08 46.544 0.635 7.64 8.69 10.15
1/8/2023 7:15:00 AM 8.05 46.49 0.635 7.64 8.81 10.17
1/8/2023 7:30:00 AM 8.02 46.436 0.635 7.64 8.44 10.18
1/8/2023 7:45:00 AM 8 46.4 0.635 7.64 8.35 10.21
1/8/2023 8:00:00 AM 7.97 46.346 0.635 7.65 8.27 10.26
1/8/2023 8:15:00 AM 7.93 46.274 0.634 7.65 8.56 10.33
1/8/2023 8:30:00 AM 7.9 46.22 0.634 7.66 8.32 10.41
1/8/2023 8:45:00 AM 7.88 46.184 0.634 7.66 8.07 10.5
1/8/2023 9:00:00 AM 7.86 46.148 0.634 7.67 7.86 10.6
1/8/2023 9:15:00 AM 7.86 46.148 0.634 7.68 8.2 10.73
1/8/2023 9:30:00 AM 7.86 46.148 0.633 7.69 7.71 10.87
1/8/2023 9:45:00 AM 7.89 46.202 0.633 7.7 7.81 11.04
1/8/2023 10:00:00 AM 7.93 46.274 0.633 7.71 7.73 11.21
1/8/2023 10:15:00 AM 7.98 46.364 0.633 7.72 7.88 11.39
1/8/2023 10:30:00 AM 8.03 46.454 0.633 7.73 8.16 11.53
1/8/2023 10:45:00 AM 8.04 46.472 0.634 7.74 8.03 11.68
1/8/2023 11:00:00 AM 8.06 46.508 0.635 7.74 8.12 11.77
1/8/2023 11:15:00 AM 8.09 46.562 0.639 7.75 7.79 11.91
1/8/2023 11:30:00 AM 8.16 46.688 0.646 7.77 7.44 12.07
1/8/2023 11:45:00 AM 8.24 46.832 0.652 7.78 7.27 12.27
1/8/2023 12:00:00 PM 8.31 46.958 0.658 7.8 7.53 12.45
1/8/2023 12:15:00 PM 8.37 47.066 0.658 7.81 7.17 12.58
1/8/2023 12:30:00 PM 8.42 47.156 0.654 7.82 6.88 12.71
1/8/2023 12:45:00 PM 8.48 47.264 0.649 7.83 7.01 12.8
1/8/2023 1:00:00 PM 8.52 47.336 0.644 7.84 7.29 12.89
1/8/2023 1:15:00 PM 8.56 47.408 0.64 7.84 7.16 12.98
1/8/2023 1:30:00 PM 8.59 47.462 0.638 7.85 7.49 13.05
1/8/2023 1:45:00 PM 8.61 47.498 0.636 7.86 7.13 13.13
1/8/2023 2:00:00 PM 8.62 47.516 0.635 7.86 7.2 13.17
1/8/2023 2:15:00 PM 8.63 47.534 0.634 7.87 6.99 13.21
1/8/2023 2:30:00 PM 8.64 47.552 0.634 7.87 7.2 13.22
1/8/2023 2:45:00 PM 8.64 47.552 0.633 7.88 7.59 13.24
1/8/2023 3:00:00 PM 8.65 47.57 0.633 7.88 7.5 13.23
1/8/2023 3:15:00 PM 8.64 47.552 0.633 7.88 7.67 13.16
1/8/2023 3:30:00 PM 8.64 47.552 0.633 7.88 7.43 13.13
1/8/2023 3:45:00 PM 8.64 47.552 0.633 7.87 7.39 13.07
1/8/2023 4:00:00 PM 8.63 47.534 0.633 7.87 7.75 12.96
1/8/2023 4:15:00 PM 8.63 47.534 0.633 7.86 7.62 12.83
1/8/2023 4:30:00 PM 8.62 47.516 0.634 7.85 7.76 12.69
1/8/2023 4:45:00 PM 8.6 47.48 0.638 7.84 7.52 12.56
1/8/2023 5:00:00 PM 8.58 47.444 0.64 7.83 7.94 12.4
1/8/2023 5:15:00 PM 8.57 47.426 0.641 7.82 7.94 12.23
1/8/2023 5:30:00 PM 8.54 47.372 0.64 7.81 8.1 12.11
1/8/2023 5:45:00 PM 8.52 47.336 0.638 7.81 7.3 11.96
1/8/2023 6:00:00 PM 8.49 47.282 0.637 7.8 7.6 11.84
1/8/2023 6:15:00 PM 8.47 47.246 0.636 7.79 7.46 11.75
1/8/2023 6:30:00 PM 8.46 47.228 0.635 7.79 8.08 11.66
1/8/2023 6:45:00 PM 8.45 47.21 0.634 7.78 7.46 11.58
1/8/2023 7:00:00 PM 8.44 47.192 0.634 7.78 8.06 11.5
1/8/2023 7:15:00 PM 8.43 47.174 0.633 7.77 7.8 11.42
1/8/2023 7:30:00 PM 8.43 47.174 0.632 7.77 8.58 11.35
1/8/2023 7:45:00 PM 8.44 47.192 0.632 7.77 8.88 11.29
1/8/2023 8:00:00 PM 8.44 47.192 0.632 7.76 9 11.21
1/8/2023 8:15:00 PM 8.45 47.21 0.632 7.76 8.38 11.15
1/8/2023 8:30:00 PM 8.45 47.21 0.625 7.75 7.96 11.07
1/8/2023 8:45:00 PM 8.47 47.246 0.624 7.75 8.01 11
1/8/2023 9:00:00 PM 8.47 47.246 0.623 7.74 8.13 10.94
1/8/2023 9:15:00 PM 8.48 47.264 0.624 7.74 7.93 10.88
1/8/2023 9:30:00 PM 8.49 47.282 0.623 7.73 8.73 10.82
1/8/2023 9:45:00 PM 8.48 47.264 0.623 7.73 8.18 10.75
1/8/2023 10:00:00 PM 8.47 47.246 0.623 7.72 8.7 10.69
1/8/2023 10:15:00 PM 8.47 47.246 0.623 7.72 8.49 10.65
1/8/2023 10:30:00 PM 8.46 47.228 0.624 7.72 8.68 10.6
1/8/2023 10:45:00 PM 8.46 47.228 0.624 7.71 8.83 10.55
1/8/2023 11:00:00 PM 8.47 47.246 0.624 7.71 6.18 10.48
1/8/2023 11:15:00 PM 8.47 47.246 0.625 7.71 5.78 10.44
1/8/2023 11:30:00 PM 8.47 47.246 0.625 7.7 6.27 10.4
1/8/2023 11:45:00 PM 8.47 47.246 0.625 7.7 6.76 10.35
1/9/2023 12:00:00 AM 8.47 47.246 0.624 7.69 7.17 10.32
1/9/2023 12:15:00 AM 8.48 47.264 0.624 7.69 6.95 10.28
1/9/2023 12:30:00 AM 8.48 47.264 0.624 7.68 7.08 10.24
1/9/2023 12:45:00 AM 8.48 47.264 0.624 7.68 7.31 10.21
1/9/2023 1:00:00 AM 8.49 47.282 0.623 7.68 6.95 10.18
1/9/2023 1:15:00 AM 8.48 47.264 0.626 7.67 7.08 10.15
1/9/2023 1:30:00 AM 8.46 47.228 0.624 7.67 7.42 10.12
1/9/2023 1:45:00 AM 8.46 47.228 0.624 7.67 7.75 10.09
1/9/2023 2:00:00 AM 8.46 47.228 0.626 7.67 7.58 10.08
1/9/2023 2:15:00 AM 8.44 47.192 0.624 7.67 8.14 10.06
1/9/2023 2:30:00 AM 8.44 47.192 0.624 7.66 8 10.04
1/9/2023 2:45:00 AM 8.44 47.192 0.624 7.66 7.89 10.04
1/9/2023 3:00:00 AM 8.42 47.156 0.625 7.66 8.28 10.02
1/9/2023 3:15:00 AM 8.36 47.048 0.638 7.66 8.49 10.01
1/9/2023 3:30:00 AM 8.24 46.832 0.638 7.65 8.84 10.01
1/9/2023 3:45:00 AM 8.17 46.706 0.638 7.65 8.65 9.98
1/9/2023 4:00:00 AM 8.18 46.724 0.638 7.66 8.86 9.98
1/9/2023 4:15:00 AM 8.19 46.742 0.639 7.65 8.93 9.97
1/9/2023 4:30:00 AM 8.17 46.706 0.64 7.65 8.26 9.96
1/9/2023 4:45:00 AM 8.17 46.706 0.64 7.65 8.34 9.94
1/9/2023 5:00:00 AM 8.17 46.706 0.64 7.65 7.09 9.95
1/9/2023 5:15:00 AM 8.16 46.688 0.64 7.65 7.34 9.94
1/9/2023 5:30:00 AM 8.16 46.688 0.64 7.65 7.59 9.94
1/9/2023 5:45:00 AM 8.16 46.688 0.64 7.65 7.67 9.95
1/9/2023 6:00:00 AM 8.15 46.67 0.64 7.65 8.24 9.95
1/9/2023 6:15:00 AM 8.13 46.634 0.64 7.65 7.82 9.95
1/9/2023 6:30:00 AM 8.11 46.598 0.639 7.65 7.52 9.96
1/9/2023 6:45:00 AM 8.08 46.544 0.639 7.65 7.8 9.97
1/9/2023 7:00:00 AM 8.04 46.472 0.639 7.65 8.34 9.97
1/9/2023 7:15:00 AM 8 46.4 0.638 7.65 7.59 10
1/9/2023 7:30:00 AM 7.95 46.31 0.638 7.65 9.72 10.02
1/9/2023 7:45:00 AM 7.92 46.256 0.638 7.65 7.75 10.04
1/9/2023 8:00:00 AM 7.89 46.202 0.638 7.66 7.74 10.08
1/9/2023 8:15:00 AM 7.87 46.166 0.638 7.66 7.88 10.15
1/9/2023 8:30:00 AM 7.84 46.112 0.637 7.66 8.11 10.24
1/9/2023 8:45:00 AM 7.82 46.076 0.637 7.67 8.71 10.33
1/9/2023 9:00:00 AM 7.8 46.04 0.638 7.68 8.07 10.45
1/9/2023 9:15:00 AM 7.79 46.022 0.638 7.69 8.08 10.58
1/9/2023 9:30:00 AM 7.79 46.022 0.638 7.7 7.65 10.73
1/9/2023 9:45:00 AM 7.79 46.022 0.638 7.71 7.36 10.9
1/9/2023 10:00:00 AM 7.8 46.04 0.637 7.72 7.71 11.05
1/9/2023 10:15:00 AM 7.82 46.076 0.638 7.73 7.3 11.2
1/9/2023 10:30:00 AM 7.82 46.076 0.641 7.73 7.23 11.32
1/9/2023 10:45:00 AM 7.82 46.076 0.647 7.74 7.4 11.43
1/9/2023 11:00:00 AM 7.83 46.094 0.652 7.74 7.81 11.51
1/9/2023 11:15:00 AM 7.86 46.148 0.657 7.75 7.5 11.63
1/9/2023 11:30:00 AM 7.92 46.256 0.659 7.76 7.54 11.75
1/9/2023 11:45:00 AM 8 46.4 0.658 7.77 7.96 11.95
1/9/2023 12:00:00 PM 8.09 46.562 0.656 7.78 7.77 12.1
1/9/2023 12:15:00 PM 8.13 46.634 0.653 7.79 8.01 12.21
1/9/2023 12:30:00 PM 8.21 46.778 0.65 7.79 7.87 12.33
1/9/2023 12:45:00 PM 8.31 46.958 0.647 7.81 8.03 12.48
1/9/2023 1:00:00 PM 8.4 47.12 0.645 7.81 8.38 12.59
1/9/2023 1:15:00 PM 8.49 47.282 0.642 7.82 8.3 12.72
1/9/2023 1:30:00 PM 8.57 47.426 0.641 7.83 7.68 12.83
1/9/2023 1:45:00 PM 8.63 47.534 0.639 7.84 8.07 12.91
1/9/2023 2:00:00 PM 8.67 47.606 0.638 7.85 8.14 12.97
1/9/2023 2:15:00 PM 8.68 47.624 0.637 7.85 8.35 13
1/9/2023 2:30:00 PM 8.67 47.606 0.636 7.86 8.09 12.99
1/9/2023 2:45:00 PM 8.66 47.588 0.635 7.86 8.83 12.99
1/9/2023 3:00:00 PM 8.63 47.534 0.635 7.85 8.32 12.93
1/9/2023 3:15:00 PM 8.59 47.462 0.635 7.86 6 12.86
1/9/2023 3:30:00 PM 8.52 47.336 0.636 7.85 6.14 12.79
1/9/2023 3:45:00 PM 8.43 47.174 0.637 7.84 6.18 12.68
1/9/2023 4:00:00 PM 8.36 47.048 0.638 7.84 6.4 12.52
1/9/2023 4:15:00 PM 8.32 46.976 0.641 7.83 6.34 12.42
1/9/2023 4:30:00 PM 8.28 46.904 0.646 7.83 6.62 12.3
1/9/2023 4:45:00 PM 8.25 46.85 0.652 7.83 6.34 12.2
1/9/2023 5:00:00 PM 8.23 46.814 0.656 7.82 6.71 12.09
1/9/2023 5:15:00 PM 8.21 46.778 0.656 7.82 6.85 11.97
1/9/2023 5:30:00 PM 8.2 46.76 0.652 7.81 7.09 11.86
1/9/2023 5:45:00 PM 8.2 46.76 0.647 7.8 6.86 11.74
1/9/2023 6:00:00 PM 8.19 46.742 0.643 7.8 7.19 11.66
1/9/2023 6:15:00 PM 8.18 46.724 0.641 7.79 7.18 11.57
1/9/2023 6:30:00 PM 8.16 46.688 0.639 7.79 7.48 11.5
1/9/2023 6:45:00 PM 8.14 46.652 0.638 7.78 7.23 11.42
1/9/2023 7:00:00 PM 8.12 46.616 0.637 7.78 7.93 11.35
1/9/2023 7:15:00 PM 8.1 46.58 0.637 7.77 8.31 11.3
1/9/2023 7:30:00 PM 8.07 46.526 0.637 7.77 7.87 11.24
1/9/2023 7:45:00 PM 8.04 46.472 0.636 7.76 8.15 11.18
1/9/2023 8:00:00 PM 8.01 46.418 0.636 7.76 8.33 11.13
1/9/2023 8:15:00 PM 7.98 46.364 0.636 7.76 8.36 11.06
1/9/2023 8:30:00 PM 7.95 46.31 0.636 7.75 8.3 11.02
1/9/2023 8:45:00 PM 7.93 46.274 0.635 7.75 8.16 10.96
1/9/2023 9:00:00 PM 7.9 46.22 0.636 7.74 8.32 10.9
1/9/2023 9:15:00 PM 7.88 46.184 0.635 7.74 8.7 10.85
1/9/2023 9:30:00 PM 7.85 46.13 0.635 7.73 8.68 10.81
1/9/2023 9:45:00 PM 7.83 46.094 0.635 7.73 9.04 10.76
1/9/2023 10:00:00 PM 7.81 46.058 0.635 7.72 8.87 10.72
1/9/2023 10:15:00 PM 7.8 46.04 0.635 7.72 8.75 10.67
1/9/2023 10:30:00 PM 7.78 46.004 0.635 7.72 9.08 10.62
1/9/2023 10:45:00 PM 7.77 45.986 0.635 7.71 9.15 10.57
1/9/2023 11:00:00 PM 7.76 45.968 0.636 7.7 8.92 10.52
1/9/2023 11:15:00 PM 7.75 45.95 0.637 7.7 9.25 10.47
1/9/2023 11:30:00 PM 7.73 45.914 0.638 7.7 9.45 10.43
1/9/2023 11:45:00 PM 7.71 45.878 0.64 7.69 9.23 10.4
1/10/2023 12:00:00 AM 7.7 45.86 0.642 7.69 8.53 10.37
1/10/2023 12:15:00 AM 7.68 45.824 0.644 7.68 8.5 10.35
1/10/2023 12:30:00 AM 7.66 45.788 0.646 7.68 8.73 10.32
1/10/2023 12:45:00 AM 7.64 45.752 0.647 7.68 8.49 10.31
1/10/2023 1:00:00 AM 7.63 45.734 0.648 7.68 9.3 10.29
1/10/2023 1:15:00 AM 7.63 45.734 0.648 7.68 8.76 10.29
1/10/2023 1:30:00 AM 7.63 45.734 0.648 7.68 8.69 10.27
1/10/2023 1:45:00 AM 7.62 45.716 0.647 7.68 8.72 10.25
1/10/2023 2:00:00 AM 7.6 45.68 0.646 7.68 9.07 10.25
1/10/2023 2:15:00 AM 7.58 45.644 0.645 7.67 8.93 10.25
1/10/2023 2:30:00 AM 7.54 45.572 0.644 7.67 8.78 10.25
1/10/2023 2:45:00 AM 7.5 45.5 0.643 7.67 8.72 10.26
1/10/2023 3:00:00 AM 7.46 45.428 0.642 7.67 9.06 10.24
1/10/2023 3:15:00 AM 7.42 45.356 0.641 7.67 9.71 10.26
1/10/2023 3:30:00 AM 7.38 45.284 0.64 7.67 9.61 10.25
1/10/2023 3:45:00 AM 7.35 45.23 0.64 7.67 9.45 10.26
1/10/2023 4:00:00 AM 7.32 45.176 0.639 7.67 9.3 10.26
1/10/2023 4:15:00 AM 7.3 45.14 0.639 7.67 9.47 10.28
1/10/2023 4:30:00 AM 7.28 45.104 0.639 7.67 9.16 10.28
1/10/2023 4:45:00 AM 7.26 45.068 0.639 7.67 9.06 10.28
1/10/2023 5:00:00 AM 7.25 45.05 0.638 7.67 8.74 10.28
1/10/2023 5:15:00 AM 7.24 45.032 0.639 7.67 8.47 10.27
1/10/2023 5:30:00 AM 7.22 44.996 0.638 7.67 8.79 10.28
1/10/2023 5:45:00 AM 7.21 44.978 0.638 7.67 8.94 10.28
1/10/2023 6:00:00 AM 7.21 44.978 0.639 7.67 8.55 10.28
1/10/2023 6:15:00 AM 7.22 44.996 0.639 7.67 8.74 10.26
1/10/2023 6:30:00 AM 7.23 45.014 0.639 7.67 8.81 10.27
1/10/2023 6:45:00 AM 7.22 44.996 0.639 7.67 9.31 10.27
1/10/2023 7:00:00 AM 7.23 45.014 0.639 7.66 9.03 10.27
1/10/2023 7:15:00 AM 7.23 45.014 0.64 7.66 9.09 10.28
1/10/2023 7:30:00 AM 7.23 45.014 0.64 7.66 9.21 10.28
1/10/2023 7:45:00 AM 7.24 45.032 0.64 7.67 9.23 10.3
1/10/2023 8:00:00 AM 7.24 45.032 0.64 7.67 9.69 10.32
1/10/2023 8:15:00 AM 7.25 45.05 0.64 7.67 9.01 10.4
1/10/2023 8:30:00 AM 7.26 45.068 0.64 7.68 8.45 10.49
1/10/2023 8:45:00 AM 7.27 45.086 0.64 7.68 8.47 10.55
1/10/2023 9:00:00 AM 7.29 45.122 0.64 7.68 8.79 10.68
1/10/2023 9:15:00 AM 7.31 45.158 0.641 7.69 8.78 10.82
1/10/2023 9:30:00 AM 7.33 45.194 0.641 7.7 8.2 10.98
1/10/2023 9:45:00 AM 7.36 45.248 0.641 7.71 8.23 11.15
1/10/2023 10:00:00 AM 7.39 45.302 0.641 7.73 9.16 11.35
1/10/2023 10:15:00 AM 7.43 45.374 0.642 7.74 8.35 11.54
1/10/2023 10:30:00 AM 7.48 45.464 0.642 7.75 8.38 11.77
1/10/2023 10:45:00 AM 7.52 45.536 0.642 7.76 8.1 11.94
1/10/2023 11:00:00 AM 7.57 45.626 0.643 7.78 8.59 12.11
1/10/2023 11:15:00 AM 7.62 45.716 0.643 7.79 8.52 12.26
1/10/2023 11:30:00 AM 7.66 45.788 0.643 7.8 8.34 12.39
1/10/2023 11:45:00 AM 7.7 45.86 0.644 7.81 8.56 12.51
1/10/2023 12:00:00 PM 7.73 45.914 0.643 7.81 8.84 12.61
1/10/2023 12:15:00 PM 7.78 46.004 0.644 7.82 8.47 12.72
1/10/2023 12:30:00 PM 7.84 46.112 0.644 7.83 8.77 12.85
1/10/2023 12:45:00 PM 7.9 46.22 0.644 7.84 8.69 12.98
1/10/2023 1:00:00 PM 7.96 46.328 0.644 7.85 8.68 13.08
1/10/2023 1:15:00 PM 8.02 46.436 0.643 7.86 8.71 13.2
1/10/2023 1:30:00 PM 8.08 46.544 0.643 7.87 8.73 13.3
1/10/2023 1:45:00 PM 8.14 46.652 0.643 7.88 9.15 13.43
1/10/2023 2:00:00 PM 8.21 46.778 0.642 7.89 8.84 13.54
1/10/2023 2:15:00 PM 8.23 46.814 0.642 7.9 8.93 13.59
1/10/2023 2:30:00 PM 8.25 46.85 0.642 7.9 8.92 13.62
1/10/2023 2:45:00 PM 8.27 46.886 0.641 7.91 9.12 13.61
1/10/2023 3:00:00 PM 8.27 46.886 0.641 7.91 9.2 13.58
1/10/2023 3:15:00 PM 8.27 46.886 0.641 7.9 9.3 13.52
1/10/2023 3:30:00 PM 8.26 46.868 0.64 7.9 9.19 13.47
1/10/2023 3:45:00 PM 8.25 46.85 0.64 7.9 9.43 13.38
1/10/2023 4:00:00 PM 8.23 46.814 0.639 7.9 9.6 13.28
1/10/2023 4:15:00 PM 8.22 46.796 0.639 7.89 9.42 13.14
1/10/2023 4:30:00 PM 8.21 46.778 0.639 7.89 9.87 13.01
1/10/2023 4:45:00 PM 8.2 46.76 0.638 7.88 9.73 12.87
1/10/2023 5:00:00 PM 8.19 46.742 0.638 7.87 9.69 12.71
1/10/2023 5:15:00 PM 8.16 46.688 0.638 7.86 10.3 12.56
1/10/2023 5:30:00 PM 8.1 46.58 0.639 7.85 10.33 12.38
1/10/2023 5:45:00 PM 8.05 46.49 0.642 7.84 10.97 12.22
1/10/2023 6:00:00 PM 8.01 46.418 0.645 7.83 11.53 12.02
1/10/2023 6:15:00 PM 7.98 46.364 0.651 7.82 11.78 11.86
1/10/2023 6:30:00 PM 7.95 46.31 0.657 7.82 12.03 11.73
1/10/2023 6:45:00 PM 7.94 46.292 0.66 7.81 11.58 11.62
1/10/2023 7:00:00 PM 7.92 46.256 0.658 7.81 11.49 11.55
1/10/2023 7:15:00 PM 7.92 46.256 0.654 7.81 12.34 11.5
1/10/2023 7:30:00 PM 7.9 46.22 0.649 7.81 11.7 11.44
1/10/2023 7:45:00 PM 7.89 46.202 0.646 7.8 12.12 11.41
1/10/2023 8:00:00 PM 7.87 46.166 0.644 7.8 11.8 11.36
1/10/2023 8:15:00 PM 7.86 46.148 0.642 7.8 11.77 11.29
1/10/2023 8:30:00 PM 7.85 46.13 0.641 7.79 11.3 11.25
1/10/2023 8:45:00 PM 7.85 46.13 0.641 7.79 6.86 11.19
1/10/2023 9:00:00 PM 7.84 46.112 0.641 7.79 6.97 11.13
1/10/2023 9:15:00 PM 7.83 46.094 0.64 7.78 7.08 11.07
1/10/2023 9:30:00 PM 7.82 46.076 0.64 7.78 7.58 10.99
1/10/2023 9:45:00 PM 7.81 46.058 0.64 7.77 7.55 10.96
1/10/2023 10:00:00 PM 7.8 46.04 0.641 7.77 7.95 10.9
1/10/2023 10:15:00 PM 7.79 46.022 0.641 7.76 7.84 10.85
1/10/2023 10:30:00 PM 7.79 46.022 0.641 7.76 8.94 10.81
1/10/2023 10:45:00 PM 7.79 46.022 0.642 7.75 8.26 10.76
1/10/2023 11:00:00 PM 7.79 46.022 0.642 7.74 8.9 10.71
1/10/2023 11:15:00 PM 7.79 46.022 0.643 7.74 8.82 10.64
1/10/2023 11:30:00 PM 7.79 46.022 0.643 7.73 9.03 10.61
1/10/2023 11:45:00 PM 7.77 45.986 0.643 7.73 9.04 10.55
1/11/2023 12:00:00 AM 7.75 45.95 0.644 7.72 9.41 10.5
1/11/2023 12:15:00 AM 7.72 45.896 0.647 7.71 9.24 10.47
1/11/2023 12:30:00 AM 7.68 45.824 0.65 7.71 9.38 10.43
1/11/2023 12:45:00 AM 7.67 45.806 0.65 7.7 9.21 10.4
1/11/2023 1:00:00 AM 7.65 45.77 0.65 7.7 9.76 10.37
1/11/2023 1:15:00 AM 7.64 45.752 0.649 7.7 9.43 10.34
1/11/2023 1:30:00 AM 7.63 45.734 0.648 7.69 9.86 10.3
1/11/2023 1:45:00 AM 7.61 45.698 0.648 7.69 9.44 10.29
1/11/2023 2:00:00 AM 7.59 45.662 0.647 7.69 9.44 10.28
1/11/2023 2:15:00 AM 7.57 45.626 0.647 7.68 8.67 10.27
1/11/2023 2:30:00 AM 7.57 45.626 0.559 7.68 8.74 10.25
1/11/2023 2:45:00 AM 7.57 45.626 0.647 7.68 6.9 10.22
1/11/2023 3:00:00 AM 7.58 45.644 0.647 7.68 6.47 10.19
1/11/2023 3:15:00 AM 7.58 45.644 0.558 7.68 7.42 10.21
1/11/2023 3:30:00 AM 7.58 45.644 0.519 7.67 7.94 10.19
1/11/2023 3:45:00 AM 7.58 45.644 0.57 7.67 7.77 10.17
1/11/2023 4:00:00 AM 7.56 45.608 0.643 7.67 7.93 10.16
1/11/2023 4:15:00 AM 7.53 45.554 0.647 7.66 8.1 10.17
1/11/2023 4:30:00 AM 7.5 45.5 0.647 7.67 7.98 10.16
1/11/2023 4:45:00 AM 7.46 45.428 0.646 7.66 7.91 10.18
1/11/2023 5:00:00 AM 7.43 45.374 0.598 7.67 8.9 10.19
1/11/2023 5:15:00 AM 7.4 45.32 0.625 7.67 8.63 10.2
1/11/2023 5:30:00 AM 7.37 45.266 0.623 7.66 8.35 10.2
1/11/2023 5:45:00 AM 7.34 45.212 0.645 7.66 8.57 10.2
1/11/2023 6:00:00 AM 7.31 45.158 0.646 7.66 8.26 10.2
1/11/2023 6:15:00 AM 7.27 45.086 0.646 7.66 8.37 10.2
1/11/2023 6:30:00 AM 7.22 44.996 0.634 7.66 8.56 10.21
1/11/2023 6:45:00 AM 7.17 44.906 0.64 7.66 8.38 10.22
1/11/2023 7:00:00 AM 7.13 44.834 0.611 7.66 8.86 10.21
1/11/2023 7:15:00 AM 7.1 44.78 0.65 7.66 9.28 10.23
1/11/2023 7:30:00 AM 7.08 44.744 0.644 7.66 8.25 10.24
1/11/2023 7:45:00 AM 7.05 44.69 0.647 7.66 8.17 10.26
1/11/2023 8:00:00 AM 7.04 44.672 0.62 7.66 8.46 10.31
1/11/2023 8:15:00 AM 7.02 44.636 0.634 7.67 8.68 10.41
1/11/2023 8:30:00 AM 7.02 44.636 0.637 7.68 8.81 10.53
1/11/2023 8:45:00 AM 7.02 44.636 0.64 7.69 8.86 10.67
1/11/2023 9:00:00 AM 7.03 44.654 0.646 7.7 8.6 10.83
1/11/2023 9:15:00 AM 7.06 44.708 0.646 7.71 8.78 11.02
1/11/2023 9:30:00 AM 7.09 44.762 0.646 7.72 9.14 11.25
1/11/2023 9:45:00 AM 7.14 44.852 0.645 7.73 8.75 11.46
1/11/2023 10:00:00 AM 7.19 44.942 0.645 7.75 8.03 11.69
1/11/2023 10:15:00 AM 7.25 45.05 0.645 7.76 7.28 11.9
1/11/2023 10:30:00 AM 7.32 45.176 0.645 7.78 7.25 12.09
1/11/2023 10:45:00 AM 7.39 45.302 0.644 7.79 7.64 12.32
1/11/2023 11:00:00 AM 7.46 45.428 0.644 7.81 7.77 12.49
1/11/2023 11:15:00 AM 7.54 45.572 0.644 7.82 7.58 12.7
1/11/2023 11:30:00 AM 7.62 45.716 0.644 7.84 7.64 12.87
1/11/2023 11:45:00 AM 7.7 45.86 0.643 7.85 7.81 13.04
1/11/2023 12:00:00 PM 7.77 45.986 0.643 7.86 7.87 13.2
1/11/2023 12:15:00 PM 7.85 46.13 0.643 7.87 8.12 13.33
1/11/2023 12:30:00 PM 7.91 46.238 0.643 7.88 8.18 13.45
1/11/2023 12:45:00 PM 7.98 46.364 0.642 7.89 8.24 13.56
1/11/2023 1:00:00 PM 8.03 46.454 0.643 7.9 8.65 13.69
1/11/2023 1:15:00 PM 8.05 46.49 0.644 7.9 8.09 13.78
1/11/2023 1:30:00 PM 8.06 46.508 0.645 7.91 8.02 13.84
1/11/2023 1:45:00 PM 8.11 46.598 0.645 7.92 8.96 13.9
1/11/2023 2:00:00 PM 8.15 46.67 0.644 7.92 8.96 13.9
1/11/2023 2:15:00 PM 8.19 46.742 0.643 7.93 9.16 13.9
1/11/2023 2:30:00 PM 8.22 46.796 0.641 7.93 9.46 13.91
1/11/2023 2:45:00 PM 8.22 46.796 0.642 7.93 8.46 13.87
1/11/2023 3:00:00 PM 8.23 46.814 0.641 7.93 9.57 13.79
1/11/2023 3:15:00 PM 8.24 46.832 0.641 7.93 8.56 13.72
1/11/2023 3:30:00 PM 8.26 46.868 0.64 7.93 8.65 13.69
1/11/2023 3:45:00 PM 8.29 46.922 0.639 7.93 6.4 13.67
1/11/2023 4:00:00 PM 8.3 46.94 0.633 7.93 6.68 13.62
1/11/2023 4:15:00 PM 8.3 46.94 0.639 7.93 6.81 13.48
1/11/2023 4:30:00 PM 8.3 46.94 0.629 7.92 6.72 13.34
1/11/2023 4:45:00 PM 8.29 46.922 0.634 7.91 6.78 13.19
1/11/2023 5:00:00 PM 8.29 46.922 0.619 7.9 6.98 12.98
1/11/2023 5:15:00 PM 8.28 46.904 0.638 7.89 6.83 12.8
1/11/2023 5:30:00 PM 8.28 46.904 0.637 7.89 7.02 12.6
1/11/2023 5:45:00 PM 8.27 46.886 0.638 7.88 7.15 12.41
1/11/2023 6:00:00 PM 8.26 46.868 0.638 7.87 7.14 12.22
1/11/2023 6:15:00 PM 8.26 46.868 0.638 7.86 7.29 12.09
1/11/2023 6:30:00 PM 8.25 46.85 0.638 7.85 7.04 11.96
1/11/2023 6:45:00 PM 8.23 46.814 0.638 7.85 7.97 11.85
1/11/2023 7:00:00 PM 8.21 46.778 0.638 7.84 7.39 11.74
1/11/2023 7:15:00 PM 8.17 46.706 0.639 7.83 7.7 11.67
1/11/2023 7:30:00 PM 8.13 46.634 0.641 7.83 7.86 11.62
1/11/2023 7:45:00 PM 8.1 46.58 0.63 7.83 8.18 11.58
1/11/2023 8:00:00 PM 8.09 46.562 0.643 7.82 9.23 11.48
1/11/2023 8:15:00 PM 8.09 46.562 0.642 7.82 8.24 11.41
1/11/2023 8:30:00 PM 8.09 46.562 0.642 7.81 8.7 11.3
1/11/2023 8:45:00 PM 8.1 46.58 0.641 7.81 8.27 11.22
1/11/2023 9:00:00 PM 8.1 46.58 0.64 7.8 8.76 11.15
1/11/2023 9:15:00 PM 8.11 46.598 0.64 7.8 9.38 11.07
1/11/2023 9:30:00 PM 8.12 46.616 0.64 7.79 7.86 10.98
1/11/2023 9:45:00 PM 8.14 46.652 0.64 7.79 8.22 10.93
1/11/2023 10:00:00 PM 8.15 46.67 0.64 7.78 8.03 10.86
1/11/2023 10:15:00 PM 8.16 46.688 0.638 7.78 8.32 10.79
1/11/2023 10:30:00 PM 8.17 46.706 0.639 7.77 8.68 10.74
1/11/2023 10:45:00 PM 8.18 46.724 0.641 7.77 8.34 10.68
1/11/2023 11:00:00 PM 8.19 46.742 0.641 7.76 8.68 10.59
1/11/2023 11:15:00 PM 8.19 46.742 0.642 7.75 9.03 10.55
1/11/2023 11:30:00 PM 8.2 46.76 0.642 7.75 8.25 10.49
1/11/2023 11:45:00 PM 8.21 46.778 0.642 7.74 8.39 10.43
1/12/2023 12:00:00 AM 8.22 46.796 0.642 7.74 8.82 10.36
1/12/2023 12:15:00 AM 8.23 46.814 0.642 7.73 8.47 10.32
1/12/2023 12:30:00 AM 8.24 46.832 0.642 7.72 9.22 10.26
1/12/2023 12:45:00 AM 8.25 46.85 0.642 7.72 9.53 10.22
1/12/2023 1:00:00 AM 8.25 46.85 0.642 7.72 9.18 10.19
1/12/2023 1:15:00 AM 8.25 46.85 0.641 7.71 9.19 10.14
1/12/2023 1:30:00 AM 8.26 46.868 0.562 7.71 9.46 10.1
1/12/2023 1:45:00 AM 8.26 46.868 0.641 7.7 8.68 10.07
1/12/2023 2:00:00 AM 8.24 46.832 0.643 7.7 8.55 10.03
1/12/2023 2:15:00 AM 8.21 46.778 0.644 7.7 8.9 10
1/12/2023 2:30:00 AM 8.19 46.742 0.645 7.7 9.11 9.97
1/12/2023 2:45:00 AM 8.17 46.706 0.645 7.7 9.45 9.94
1/12/2023 3:00:00 AM 8.14 46.652 0.646 7.69 9.22 9.92
1/12/2023 3:15:00 AM 8.12 46.616 0.645 7.69 9.51 9.91
1/12/2023 3:30:00 AM 8.12 46.616 0.644 7.69 9.39 9.89
1/12/2023 3:45:00 AM 8.13 46.634 0.643 7.69 9.68 9.87
1/12/2023 4:00:00 AM 8.14 46.652 0.638 7.69 9.87 9.85
1/12/2023 4:15:00 AM 8.15 46.67 0.632 7.69 9.81 9.85
1/12/2023 4:30:00 AM 8.15 46.67 0.64 7.69 10.8 9.84
1/12/2023 4:45:00 AM 8.16 46.688 0.64 7.69 10.08 9.83
1/12/2023 5:00:00 AM 8.16 46.688 0.64 7.68 10.06 9.83
1/12/2023 5:15:00 AM 8.17 46.706 0.639 7.68 10.42 9.81
1/12/2023 5:30:00 AM 8.17 46.706 0.638 7.68 10.41 9.82
1/12/2023 5:45:00 AM 8.17 46.706 0.639 7.67 11.06 9.82
1/12/2023 6:00:00 AM 8.17 46.706 0.635 7.67 10.6 9.83
1/12/2023 6:15:00 AM 8.17 46.706 0.638 7.67 11.12 9.85
1/12/2023 6:30:00 AM 8.17 46.706 0.638 7.67 10.63 9.82
1/12/2023 6:45:00 AM 8.17 46.706 0.638 7.67 12.98 9.83
1/12/2023 7:00:00 AM 8.17 46.706 0.638 7.67 10.83 9.82
1/12/2023 7:15:00 AM 8.17 46.706 0.526 7.67 10.43 9.81
1/12/2023 7:30:00 AM 8.18 46.724 0.637 7.67 10.07 9.79
1/12/2023 7:45:00 AM 8.18 46.724 0.637 7.67 10.07 9.79
1/12/2023 8:00:00 AM 8.17 46.706 0.637 7.67 10.38 9.79
1/12/2023 8:15:00 AM 8.18 46.724 0.637 7.67 10.48 9.77
1/12/2023 8:30:00 AM 8.19 46.742 0.637 7.67 10.44 9.79
1/12/2023 8:45:00 AM 8.19 46.742 0.636 7.67 10.48 9.83
1/12/2023 9:00:00 AM 8.2 46.76 0.619 7.67 10.74 9.85
1/12/2023 9:15:00 AM 8.21 46.778 0.636 7.67 10.69 9.88
1/12/2023 9:30:00 AM 8.22 46.796 0.575 7.68 10.28 9.92
1/12/2023 9:45:00 AM 8.22 46.796 0.638 7.68 10.53 9.98
1/12/2023 10:00:00 AM 8.22 46.796 0.632 7.69 10.51 10.07
1/12/2023 10:15:00 AM 8.23 46.814 0.64 7.69 10.63 10.16
1/12/2023 10:30:00 AM 8.25 46.85 0.643 7.69 10.67 10.23
1/12/2023 10:45:00 AM 8.28 46.904 0.644 7.7 10.9 10.32
1/12/2023 11:00:00 AM 8.3 46.94 0.644 7.71 10.92 10.44
1/12/2023 11:15:00 AM 8.33 46.994 0.644 7.72 10.79 10.54
1/12/2023 11:30:00 AM 8.36 47.048 0.639 7.72 11 10.65
1/12/2023 11:45:00 AM 8.4 47.12 0.64 7.73 10.66 10.79
1/12/2023 12:00:00 PM 8.44 47.192 0.639 7.74 10.95 10.94
1/12/2023 12:15:00 PM 8.47 47.246 0.638 7.75 10.79 11.05
1/12/2023 12:30:00 PM 8.5 47.3 0.627 7.75 10.75 11.12
1/12/2023 12:45:00 PM 8.53 47.354 0.632 7.76 10.9 11.17
1/12/2023 1:00:00 PM 8.56 47.408 0.632 7.76 10.84 11.25
1/12/2023 1:15:00 PM 8.59 47.462 0.627 7.77 10.68 11.29
1/12/2023 1:30:00 PM 8.61 47.498 0.636 7.78 10.92 11.35
1/12/2023 1:45:00 PM 8.65 47.57 0.637 7.78 11.09 11.43
1/12/2023 2:00:00 PM 8.68 47.624 0.628 7.79 10.76 11.51
1/12/2023 2:15:00 PM 8.7 47.66 0.637 7.79 10.98 11.52
1/12/2023 2:30:00 PM 8.73 47.714 0.621 7.79 11.21 11.54
1/12/2023 2:45:00 PM 8.75 47.75 0.636 7.79 10.59 11.56
1/12/2023 3:00:00 PM 8.77 47.786 0.636 7.79 11.44 11.53
1/12/2023 3:15:00 PM 8.79 47.822 0.636 7.79 11.28 11.52
1/12/2023 3:30:00 PM 8.8 47.84 0.636 7.79 11.49 11.49
1/12/2023 3:45:00 PM 8.81 47.858 0.636 7.79 11.42 11.43
1/12/2023 4:00:00 PM 8.82 47.876 0.636 7.79 11.55 11.38
1/12/2023 4:15:00 PM 8.81 47.858 0.638 7.79 11.36 11.3
1/12/2023 4:30:00 PM 8.8 47.84 0.64 7.79 11.24 11.26
1/12/2023 4:45:00 PM 8.79 47.822 0.642 7.78 11.74 11.19
1/12/2023 5:00:00 PM 8.81 47.858 0.641 7.78 11.81 11.1
1/12/2023 5:15:00 PM 8.83 47.894 0.641 7.78 11.65 11.05
1/12/2023 5:30:00 PM 8.85 47.93 0.64 7.78 12.61 10.99
1/12/2023 5:45:00 PM 8.87 47.966 0.639 7.78 12.47 10.92
1/12/2023 6:00:00 PM 8.87 47.966 0.64 7.77 12.55 10.88
1/12/2023 6:15:00 PM 8.87 47.966 0.641 7.77 12.48 10.84
1/12/2023 6:30:00 PM 8.88 47.984 0.641 7.77 12.74 10.82
1/12/2023 6:45:00 PM 8.89 48.002 0.64 7.77 13.11 10.77
1/12/2023 7:00:00 PM 8.9 48.02 0.64 7.77 13.25 10.72
1/12/2023 7:15:00 PM 8.91 48.038 0.639 7.77 13.05 10.68
1/12/2023 7:30:00 PM 8.93 48.074 0.639 7.77 12.93 10.64
1/12/2023 7:45:00 PM 8.94 48.092 0.639 7.76 13.37 10.59
1/12/2023 8:00:00 PM 8.95 48.11 0.639 7.76 13.19 10.55
1/12/2023 8:15:00 PM 8.96 48.128 0.639 7.76 12.91 10.49
1/12/2023 8:30:00 PM 8.98 48.164 0.638 7.76 12.97 10.46
1/12/2023 8:45:00 PM 8.99 48.182 0.638 7.76 13.07 10.41
1/12/2023 9:00:00 PM 9 48.2 0.638 7.75 13.44 10.37
1/12/2023 9:15:00 PM 9.01 48.218 0.638 7.75 13.86 10.32
1/12/2023 9:30:00 PM 9.03 48.254 0.638 7.75 12.9 10.26
1/12/2023 9:45:00 PM 9.04 48.272 0.637 7.74 13.05 10.2
1/12/2023 10:00:00 PM 9.05 48.29 0.636 7.74 13.32 10.12
1/12/2023 10:15:00 PM 9.06 48.308 0.634 7.73 12.8 10.06
1/12/2023 10:30:00 PM 9.07 48.326 0.633 7.73 13.19 10
1/12/2023 10:45:00 PM 9.09 48.362 0.633 7.72 13.29 9.92
1/12/2023 11:00:00 PM 9.11 48.398 0.632 7.72 13.94 9.84
1/12/2023 11:15:00 PM 9.14 48.452 0.631 7.71 14.09 9.79
1/12/2023 11:30:00 PM 9.16 48.488 0.553 7.7 14.04 9.76
1/12/2023 11:45:00 PM 9.16 48.488 0.631 7.7 14.62 9.73
1/13/2023 12:00:00 AM 9.16 48.488 0.632 7.7 14.31 9.71
1/13/2023 12:15:00 AM 9.17 48.506 0.633 7.69 14.33 9.7
1/13/2023 12:30:00 AM 9.19 48.542 0.632 7.69 14.3 9.68
1/13/2023 12:45:00 AM 9.22 48.596 0.631 7.69 14.5 9.67
1/13/2023 1:00:00 AM 9.24 48.632 0.629 7.69 14.87 9.67
1/13/2023 1:15:00 AM 9.27 48.686 0.628 7.69 14.61 9.65
1/13/2023 1:30:00 AM 9.29 48.722 0.627 7.69 15.13 9.64
1/13/2023 1:45:00 AM 9.31 48.758 0.627 7.68 14.84 9.62
1/13/2023 2:00:00 AM 9.33 48.794 0.626 7.68 15.56 9.6
1/13/2023 2:15:00 AM 9.35 48.83 0.625 7.68 15.38 9.58
1/13/2023 2:30:00 AM 9.36 48.848 0.625 7.68 15.28 9.56
1/13/2023 2:45:00 AM 9.38 48.884 0.624 7.68 15.3 9.53
1/13/2023 3:00:00 AM 9.39 48.902 0.624 7.68 15.24 9.5
1/13/2023 3:15:00 AM 9.4 48.92 0.624 7.67 16.89 9.46
1/13/2023 3:30:00 AM 9.41 48.938 0.624 7.68 15.71 9.41
1/13/2023 3:45:00 AM 9.43 48.974 0.623 7.67 15.7 9.4
1/13/2023 4:00:00 AM 9.45 49.01 0.623 7.68 15.82 9.38
1/13/2023 4:15:00 AM 9.47 49.046 0.622 7.68 17.32 9.37
1/13/2023 4:30:00 AM 9.48 49.064 0.618 7.67 17.34 9.36
1/13/2023 4:45:00 AM 9.5 49.1 0.618 7.67 17.48 9.36
1/13/2023 5:00:00 AM 9.51 49.118 0.618 7.67 18.04 9.36
1/13/2023 5:15:00 AM 9.53 49.154 0.618 7.67 18.35 9.38
1/13/2023 5:30:00 AM 9.56 49.208 0.618 7.67 19.06 9.38
1/13/2023 5:45:00 AM 9.58 49.244 0.618 7.67 19.68 9.39
1/13/2023 6:00:00 AM 9.6 49.28 0.565 7.67 19.1 9.38
1/13/2023 6:15:00 AM 9.6 49.28 0.622 7.67 19.05 9.37
1/13/2023 6:30:00 AM 9.61 49.298 0.623 7.67 19.6 9.38
1/13/2023 6:45:00 AM 9.62 49.316 0.623 7.67 19.68 9.37
1/13/2023 7:00:00 AM 9.63 49.334 0.621 7.66 19.98 9.35
1/13/2023 7:15:00 AM 9.64 49.352 0.62 7.66 20.79 9.34
1/13/2023 7:30:00 AM 9.64 49.352 0.619 7.67 20.65 9.32
1/13/2023 7:45:00 AM 9.63 49.334 0.617 7.67 20.17 9.3
1/13/2023 8:00:00 AM 9.63 49.334 0.617 7.67 21.48 9.32
1/13/2023 8:15:00 AM 9.63 49.334 0.617 7.67 20.75 9.33
1/13/2023 8:30:00 AM 9.64 49.352 0.617 7.68 20.53 9.39
1/13/2023 8:45:00 AM 9.65 49.37 0.619 7.68 20.13 9.51
1/13/2023 9:00:00 AM 9.67 49.406 0.619 7.69 20.17 9.63
1/13/2023 9:15:00 AM 9.68 49.424 0.621 7.7 19.61 9.76
1/13/2023 9:30:00 AM 9.68 49.424 0.621 7.71 19.94 9.88
1/13/2023 9:45:00 AM 9.69 49.442 0.622 7.72 19.84 10.03
1/13/2023 10:00:00 AM 9.7 49.46 0.622 7.73 20.41 10.23
1/13/2023 10:15:00 AM 9.72 49.496 0.621 7.74 20.71 10.4
1/13/2023 10:30:00 AM 9.76 49.568 0.62 7.75 19.7 10.61
1/13/2023 10:45:00 AM 9.77 49.586 0.619 7.76 19.39 10.72
1/13/2023 11:00:00 AM 9.78 49.604 0.618 7.77 19.98 10.78
1/13/2023 11:15:00 AM 9.8 49.64 0.616 7.78 20.14 10.86
1/13/2023 11:30:00 AM 9.82 49.676 0.568 7.78 20.96 10.94
1/13/2023 11:45:00 AM 9.84 49.712 0.606 7.79 20.95 11.04
1/13/2023 12:00:00 PM 9.83 49.694 0.617 7.79 21.19 11.09
1/13/2023 12:15:00 PM 9.85 49.73 0.617 7.8 20.82 11.18
1/13/2023 12:30:00 PM 9.87 49.766 0.616 7.81 20.72 11.25
1/13/2023 12:45:00 PM 9.9 49.82 0.615 7.81 21.89 11.29
1/13/2023 1:00:00 PM 9.92 49.856 0.612 7.82 21.44 11.38
1/13/2023 1:15:00 PM 9.93 49.874 0.609 7.81 21.76 11.42
1/13/2023 1:30:00 PM 9.93 49.874 0.605 7.82 21.95 11.46
1/13/2023 1:45:00 PM 9.92 49.856 0.601 7.82 20.82 11.51
1/13/2023 2:00:00 PM 9.91 49.838 0.597 7.81 21.55 11.5
1/13/2023 2:15:00 PM 9.88 49.784 0.593 7.81 21.35 11.5
1/13/2023 2:30:00 PM 9.84 49.712 0.59 7.81 21.92 11.45
1/13/2023 2:45:00 PM 9.8 49.64 0.586 7.81 22.03 11.4
1/13/2023 3:00:00 PM 9.77 49.586 0.581 7.8 22.23 11.33
1/13/2023 3:15:00 PM 9.73 49.514 0.575 7.8 22.46 11.25
1/13/2023 3:30:00 PM 9.69 49.442 0.57 7.79 22.9 11.18
1/13/2023 3:45:00 PM 9.66 49.388 0.564 7.79 22.55 11.1
1/13/2023 4:00:00 PM 9.62 49.316 0.557 7.78 22.68 11.06
1/13/2023 4:15:00 PM 9.58 49.244 0.553 7.78 22.3 11
1/13/2023 4:30:00 PM 9.54 49.172 0.55 7.77 21.87 10.95
1/13/2023 4:45:00 PM 9.5 49.1 0.547 7.77 22.42 10.86
1/13/2023 5:00:00 PM 9.45 49.01 0.546 7.76 22.17 10.79
1/13/2023 5:15:00 PM 9.41 48.938 0.545 7.75 22.58 10.73
1/13/2023 5:30:00 PM 9.38 48.884 0.546 7.75 23.68 10.66
1/13/2023 5:45:00 PM 9.34 48.812 0.547 7.75 22.11 10.6
1/13/2023 6:00:00 PM 9.31 48.758 0.549 7.74 21.86 10.54
1/13/2023 6:15:00 PM 9.28 48.704 0.55 7.74 22.3 10.49
1/13/2023 6:30:00 PM 9.25 48.65 0.55 7.73 22.47 10.45
1/13/2023 6:45:00 PM 9.21 48.578 0.55 7.73 22.11 10.39
1/13/2023 7:00:00 PM 9.18 48.524 0.55 7.73 21.8 10.35
1/13/2023 7:15:00 PM 9.13 48.434 0.548 7.72 22.27 10.31
1/13/2023 7:30:00 PM 9.1 48.38 0.546 7.72 22.59 10.29
1/13/2023 7:45:00 PM 9.06 48.308 0.543 7.71 22.12 10.26
1/13/2023 8:00:00 PM 9.03 48.254 0.541 7.71 23.01 10.21
1/13/2023 8:15:00 PM 9 48.2 0.539 7.7 22.85 10.16
1/13/2023 8:30:00 PM 8.97 48.146 0.537 7.7 27.24 10.14
1/13/2023 8:45:00 PM 8.94 48.092 0.536 7.7 22.46 10.08
1/13/2023 9:00:00 PM 8.91 48.038 0.535 7.69 23.92 10.05
1/13/2023 9:15:00 PM 8.88 47.984 0.535 7.69 22.88 10
1/13/2023 9:30:00 PM 8.83 47.894 0.537 7.69 23.2 9.96
1/13/2023 9:45:00 PM 8.79 47.822 0.539 7.68 21.71 9.92
1/13/2023 10:00:00 PM 8.75 47.75 0.541 7.68 22.67 9.89
1/13/2023 10:15:00 PM 8.71 47.678 0.543 7.68 22.1 9.87
1/13/2023 10:30:00 PM 8.67 47.606 0.546 7.68 21.75 9.85
1/13/2023 10:45:00 PM 8.62 47.516 0.548 7.68 21.74 9.83
1/13/2023 11:00:00 PM 8.58 47.444 0.55 7.68 21.29 9.81
1/13/2023 11:15:00 PM 8.55 47.39 0.553 7.67 22.67 9.81
1/13/2023 11:30:00 PM 8.5 47.3 0.555 7.67 38.87 9.8
1/13/2023 11:45:00 PM 8.45 47.21 0.557 7.67 21.85 9.8
1/14/2023 12:00:00 AM 8.4 47.12 0.56 7.67 32.1 9.81
1/14/2023 12:15:00 AM 8.36 47.048 0.562 7.67 21.8 9.81
1/14/2023 12:30:00 AM 8.32 46.976 0.564 7.67 21.17 9.8
1/14/2023 12:45:00 AM 8.28 46.904 0.567 7.67 22.59 9.82
1/14/2023 1:00:00 AM 8.25 46.85 0.569 7.67 22.86 9.8
1/14/2023 1:15:00 AM 8.21 46.778 0.571 7.68 22.43 9.8
1/14/2023 1:30:00 AM 8.18 46.724 0.573 7.68 22.26 9.81
1/14/2023 1:45:00 AM 8.15 46.67 0.575 7.68 21.62 9.78
1/14/2023 2:00:00 AM 8.11 46.598 0.578 7.68 21.38 9.79
1/14/2023 2:15:00 AM 8.06 46.508 0.58 7.68 21.8 9.77
1/14/2023 2:30:00 AM 8.02 46.436 0.581 7.68 21.82 9.78
1/14/2023 2:45:00 AM 7.98 46.364 0.583 7.68 23.36 9.77
1/14/2023 3:00:00 AM 7.94 46.292 0.586 7.68 22.44 9.77
1/14/2023 3:15:00 AM 7.89 46.202 0.589 7.68 21.95 9.78
1/14/2023 3:30:00 AM 7.86 46.148 0.591 7.68 22.87 9.81
1/14/2023 3:45:00 AM 7.82 46.076 0.593 7.68 23.15 9.82
1/14/2023 4:00:00 AM 7.81 46.058 0.594 7.69 22.1 9.83
1/14/2023 4:15:00 AM 7.78 46.004 0.596 7.68 22.61 9.85
1/14/2023 4:30:00 AM 7.76 45.968 0.598 7.69 21.31 9.85
1/14/2023 4:45:00 AM 7.73 45.914 0.6 7.69 21.76 9.86
1/14/2023 5:00:00 AM 7.71 45.878 0.601 7.69 22.76 9.87
1/14/2023 5:15:00 AM 7.69 45.842 0.603 7.68 22.31 9.89
1/14/2023 5:30:00 AM 7.64 45.752 0.605 7.68 22.47 9.89
1/14/2023 5:45:00 AM 7.57 45.626 0.608 7.68 29.6 9.89
1/14/2023 6:00:00 AM 7.51 45.518 0.611 7.68 23.43 9.89
1/14/2023 6:15:00 AM 7.46 45.428 0.615 7.68 22.2 9.88
1/14/2023 6:30:00 AM 7.42 45.356 0.622 7.68 25.78 9.93
1/14/2023 6:45:00 AM 7.39 45.302 0.628 7.69 21.97 9.97
1/14/2023 7:00:00 AM 7.36 45.248 0.63 7.69 23.43 9.98
1/14/2023 7:15:00 AM 7.34 45.212 0.628 7.69 35.1 10
1/14/2023 7:30:00 AM 7.32 45.176 0.625 7.7 21.78 10
1/14/2023 7:45:00 AM 7.29 45.122 0.622 7.69 23.84 10
1/14/2023 8:00:00 AM 7.27 45.086 0.619 7.7 21.93 10.02
1/14/2023 8:15:00 AM 7.24 45.032 0.618 7.7 22.16 10.07
1/14/2023 8:30:00 AM 7.22 44.996 0.616 7.7 21.54 10.12
1/14/2023 8:45:00 AM 7.19 44.942 0.616 7.71 21.8 10.21
1/14/2023 9:00:00 AM 7.17 44.906 0.616 7.71 21.4 10.32
1/14/2023 9:15:00 AM 7.15 44.87 0.616 7.72 21.13 10.43
1/14/2023 9:30:00 AM 7.14 44.852 0.616 7.73 21.15 10.6
1/14/2023 9:45:00 AM 7.13 44.834 0.616 7.74 20.83 10.76
1/14/2023 10:00:00 AM 7.12 44.816 0.616 7.74 20.68 10.91
1/14/2023 10:15:00 AM 7.1 44.78 0.616 7.75 20.61 11.06
1/14/2023 10:30:00 AM 7.09 44.762 0.616 7.76 21.06 11.2
1/14/2023 10:45:00 AM 7.09 44.762 0.616 7.77 20.77 11.35
1/14/2023 11:00:00 AM 7.09 44.762 0.616 7.78 20.28 11.5
1/14/2023 11:15:00 AM 7.08 44.744 0.616 7.79 20.4 11.67
1/14/2023 11:30:00 AM 7.06 44.708 0.617 7.8 21.04 11.81
1/14/2023 11:45:00 AM 7.04 44.672 0.619 7.81 20.68 11.95
1/14/2023 12:00:00 PM 7.02 44.636 0.62 7.82 20.79 12.08
1/14/2023 12:15:00 PM 7.02 44.636 0.62 7.83 20.08 12.21
1/14/2023 12:30:00 PM 7.02 44.636 0.62 7.84 20.36 12.31
1/14/2023 12:45:00 PM 7.02 44.636 0.62 7.85 20.43 12.41
1/14/2023 1:00:00 PM 7.01 44.618 0.619 7.86 20.37 12.53
1/14/2023 1:15:00 PM 7.02 44.636 0.618 7.87 20.4 12.67
1/14/2023 1:30:00 PM 7.04 44.672 0.617 7.88 19.97 12.8
1/14/2023 1:45:00 PM 7.05 44.69 0.617 7.89 21.79 12.95
1/14/2023 2:00:00 PM 7.09 44.762 0.617 7.91 21.17 13.1
1/14/2023 2:15:00 PM 7.12 44.816 0.616 7.92 20.69 13.26
1/14/2023 2:30:00 PM 7.1 44.78 0.617 7.92 20.24 13.3
1/14/2023 2:45:00 PM 7.09 44.762 0.616 7.92 21.99 13.29
1/14/2023 3:00:00 PM 7.08 44.744 0.613 7.93 20.39 13.32
1/14/2023 3:15:00 PM 7.06 44.708 0.614 7.93 19.76 13.35
1/14/2023 3:30:00 PM 7.05 44.69 0.613 7.93 20.06 13.33
1/14/2023 3:45:00 PM 7.03 44.654 0.614 7.93 20.13 13.28
1/14/2023 4:00:00 PM 7 44.6 0.614 7.92 20.82 13.19
1/14/2023 4:15:00 PM 6.97 44.546 0.619 7.91 20.88 13.11
1/14/2023 4:30:00 PM 6.93 44.474 0.619 7.91 20.54 12.95
1/14/2023 4:45:00 PM 6.86 44.348 0.621 7.9 20.83 12.85
1/14/2023 5:00:00 PM 6.81 44.258 0.623 7.89 20.64 12.75
1/14/2023 5:15:00 PM 6.77 44.186 0.623 7.88 20.84 12.6
1/14/2023 5:30:00 PM 6.73 44.114 0.623 7.88 21.09 12.46
1/14/2023 5:45:00 PM 6.7 44.06 0.622 7.87 21.02 12.33
1/14/2023 6:00:00 PM 6.69 44.042 0.621 7.86 20.54 12.2
1/14/2023 6:15:00 PM 6.66 43.988 0.619 7.85 21.38 12.1
1/14/2023 6:30:00 PM 6.63 43.934 0.619 7.85 21.32 11.99
1/14/2023 6:45:00 PM 6.6 43.88 0.619 7.85 21.09 11.94
1/14/2023 7:00:00 PM 6.58 43.844 0.619 7.84 20.67 11.88
1/14/2023 7:15:00 PM 6.56 43.808 0.619 7.84 21.63 11.82
1/14/2023 7:30:00 PM 6.55 43.79 0.618 7.84 21.56 11.75
1/14/2023 7:45:00 PM 6.54 43.772 0.619 7.84 21.91 11.73
1/14/2023 8:00:00 PM 6.51 43.718 0.619 7.83 22.45 11.7
1/14/2023 8:15:00 PM 6.47 43.646 0.619 7.83 21.87 11.65
1/14/2023 8:30:00 PM 6.43 43.574 0.619 7.82 21.72 11.61
1/14/2023 8:45:00 PM 6.37 43.466 0.62 7.82 22.34 11.56
1/14/2023 9:00:00 PM 6.32 43.376 0.62 7.82 21.7 11.52
1/14/2023 9:15:00 PM 6.27 43.286 0.62 7.82 22.8 11.48
1/14/2023 9:30:00 PM 6.2 43.16 0.62 7.81 23.19 11.44
1/14/2023 9:45:00 PM 6.15 43.07 0.621 7.81 23.21 11.41
1/14/2023 10:00:00 PM 6.09 42.962 0.622 7.81 23.54 11.37
1/14/2023 10:15:00 PM 6.03 42.854 0.623 7.8 22.57 11.34
1/14/2023 10:30:00 PM 5.97 42.746 0.625 7.8 22.83 11.31
1/14/2023 10:45:00 PM 5.94 42.692 0.625 7.79 23.38 11.26
1/14/2023 11:00:00 PM 5.91 42.638 0.626 7.79 23.56 11.21
1/14/2023 11:15:00 PM 5.89 42.602 0.626 7.79 23.51 11.15
1/14/2023 11:30:00 PM 5.9 42.62 0.626 7.78 22.95 11.09
1/14/2023 11:45:00 PM 5.93 42.674 0.625 7.78 23.33 11.06
1/15/2023 12:00:00 AM 5.95 42.71 0.624 7.77 23.15 10.99
1/15/2023 12:15:00 AM 5.95 42.71 0.622 7.77 22.88 11
1/15/2023 12:30:00 AM 5.95 42.71 0.622 7.76 23.21 10.97
1/15/2023 12:45:00 AM 5.94 42.692 0.623 7.76 23.37 10.94
1/15/2023 1:00:00 AM 5.93 42.674 0.623 7.75 23.69 10.92
1/15/2023 1:15:00 AM 5.9 42.62 0.623 7.75 23.55 10.91
1/15/2023 1:30:00 AM 5.87 42.566 0.622 7.75 23.3 10.9
1/15/2023 1:45:00 AM 5.86 42.548 0.622 7.73 23.19 10.89
1/15/2023 2:00:00 AM 5.84 42.512 0.622 7.72 23.31 10.88
1/15/2023 2:15:00 AM 5.82 42.476 0.623 7.71 23.32 10.86
1/15/2023 2:30:00 AM 5.8 42.44 0.623 7.71 22.75 10.84
1/15/2023 2:45:00 AM 5.78 42.404 0.623 7.72 23.67 10.82
1/15/2023 3:00:00 AM 5.77 42.386 0.623 7.71 23.92 10.82
1/15/2023 3:15:00 AM 5.75 42.35 0.623 7.71 24.38 10.81
1/15/2023 3:30:00 AM 5.73 42.314 0.623 7.72 23.94 10.8
1/15/2023 4:00:00 AM 5.7 42.26 0.623 7.73 24.04 10.78
1/15/2023 4:15:00 AM 5.67 42.206 0.623 7.72 24.44 10.77
1/15/2023 4:30:00 AM 5.63 42.134 0.624 7.72 24.25 10.79
1/15/2023 4:45:00 AM 5.6 42.08 0.625 7.72 25.22 10.79
1/15/2023 5:00:00 AM 5.57 42.026 0.625 7.72 25.16 10.81
1/15/2023 5:15:00 AM 5.56 42.008 0.625 7.72 25.24 10.82
1/15/2023 5:30:00 AM 5.55 41.99 0.624 7.71 25.73 10.82
1/15/2023 5:45:00 AM 5.55 41.99 0.624 7.72 25 10.82
1/15/2023 6:00:00 AM 5.54 41.972 0.623 7.72 25.02 10.84
1/15/2023 6:15:00 AM 5.53 41.954 0.624 7.72 25.12 10.83
1/15/2023 6:30:00 AM 5.52 41.936 0.623 7.72 24.17 10.83
1/15/2023 6:45:00 AM 5.51 41.918 0.623 7.72 26.07 10.84
1/15/2023 7:00:00 AM 5.49 41.882 0.624 7.71 25.45 10.85
1/15/2023 7:15:00 AM 5.47 41.846 0.62 7.71 25.91 10.87
1/15/2023 7:30:00 AM 5.44 41.792 0.62 7.71 25.83 10.88
1/15/2023 7:45:00 AM 5.42 41.756 0.621 7.72 25.55 10.9
1/15/2023 8:00:00 AM 5.4 41.72 0.621 7.71 25.94 10.95
1/15/2023 8:15:00 AM 5.38 41.684 0.621 7.72 26.64 11.02
1/15/2023 8:30:00 AM 5.37 41.666 0.622 7.72 26.06 11.1
1/15/2023 8:45:00 AM 5.36 41.648 0.622 7.72 26.28 11.19
1/15/2023 9:00:00 AM 5.36 41.648 0.624 7.73 26.06 11.32
1/15/2023 9:15:00 AM 5.38 41.684 0.625 7.73 25.58 11.44
1/15/2023 9:30:00 AM 5.4 41.72 0.625 7.74 26.35 11.63
1/15/2023 9:45:00 AM 5.43 41.774 0.625 7.76 25.89 11.84
1/15/2023 10:00:00 AM 5.46 41.828 0.626 7.77 25.27 12.06
1/15/2023 10:15:00 AM 5.5 41.9 0.627 7.79 25.82 12.28
1/15/2023 10:30:00 AM 5.55 41.99 0.626 7.8 25.7 12.49
1/15/2023 10:45:00 AM 5.62 42.116 0.625 7.82 25.69 12.69
1/15/2023 11:00:00 AM 5.71 42.278 0.624 7.83 25.41 12.87
1/15/2023 11:15:00 AM 5.8 42.44 0.622 7.84 25.23 13.04
1/15/2023 11:30:00 AM 5.88 42.584 0.622 7.85 25.86 13.18
1/15/2023 11:45:00 AM 5.96 42.728 0.605 7.86 25.45 13.33
1/15/2023 12:00:00 PM 6.05 42.89 0.605 7.87 25.88 13.47
1/15/2023 12:15:00 PM 6.15 43.07 0.605 7.88 25.38 13.6
1/15/2023 12:30:00 PM 6.23 43.214 0.604 7.9 26.41 13.7
1/15/2023 12:45:00 PM 6.32 43.376 0.604 7.9 26.3 13.79
1/15/2023 1:00:00 PM 6.39 43.502 0.603 7.91 26.73 13.87
1/15/2023 1:15:00 PM 6.46 43.628 0.602 7.91 26.85 13.92
1/15/2023 1:30:00 PM 6.52 43.736 0.602 7.91 26.84 13.98
1/15/2023 1:45:00 PM 6.58 43.844 0.601 7.92 26.79 14.04
1/15/2023 2:00:00 PM 6.63 43.934 0.601 7.93 26.85 14.08
1/15/2023 2:15:00 PM 6.65 43.97 0.609 7.93 26.4 14.08
1/15/2023 2:30:00 PM 6.67 44.006 0.608 7.93 27.08 14.08
1/15/2023 2:45:00 PM 6.68 44.024 0.608 7.94 26.94 14.09
1/15/2023 3:00:00 PM 6.69 44.042 0.608 7.94 26.13 14.07
1/15/2023 3:15:00 PM 6.67 44.006 0.607 7.93 26.72 14.04
1/15/2023 3:30:00 PM 6.67 44.006 0.607 7.93 27.3 13.98
1/15/2023 3:45:00 PM 6.65 43.97 0.607 7.93 26.17 13.88
1/15/2023 4:00:00 PM 6.63 43.934 0.607 7.93 25.93 13.79
1/15/2023 4:15:00 PM 6.61 43.898 0.608 7.92 24.99 13.69
1/15/2023 4:30:00 PM 6.59 43.862 0.608 7.92 25.7 13.55
1/15/2023 4:45:00 PM 6.57 43.826 0.608 7.91 24.82 13.36
1/15/2023 5:00:00 PM 6.55 43.79 0.608 7.9 24.76 13.23
1/15/2023 5:15:00 PM 6.53 43.754 0.609 7.89 24.57 13.05
1/15/2023 5:30:00 PM 6.51 43.718 0.609 7.88 24.86 12.9
1/15/2023 5:45:00 PM 6.49 43.682 0.61 7.88 24.69 12.74
1/15/2023 6:00:00 PM 6.48 43.664 0.611 7.87 24.99 12.59
1/15/2023 6:15:00 PM 6.47 43.646 0.612 7.86 25.96 12.49
1/15/2023 6:30:00 PM 6.46 43.628 0.612 7.86 25.66 12.39
1/15/2023 6:45:00 PM 6.45 43.61 0.612 7.85 25.95 12.3
1/15/2023 7:00:00 PM 6.43 43.574 0.613 7.85 25.57 12.2
1/15/2023 7:15:00 PM 6.41 43.538 0.613 7.85 25.71 12.14
1/15/2023 7:30:00 PM 6.38 43.484 0.613 7.84 26.97 12.06
1/15/2023 7:45:00 PM 6.36 43.448 0.613 7.84 26.94 11.98
1/15/2023 8:00:00 PM 6.34 43.412 0.614 7.84 26.69 11.92
1/15/2023 8:15:00 PM 6.31 43.358 0.614 7.83 27.43 11.85
1/15/2023 8:30:00 PM 6.29 43.322 0.615 7.83 27.19 11.79
1/15/2023 8:45:00 PM 6.27 43.286 0.616 7.82 27.04 11.74
1/15/2023 9:00:00 PM 6.25 43.25 0.616 7.82 27.67 11.66
1/15/2023 9:15:00 PM 6.24 43.232 0.616 7.81 28.08 11.62
1/15/2023 9:30:00 PM 6.23 43.214 0.616 7.81 27.55 11.56
1/15/2023 9:45:00 PM 6.22 43.196 0.616 7.81 28.26 11.51
1/15/2023 10:00:00 PM 6.21 43.178 0.616 7.81 28.41 11.46
1/15/2023 10:15:00 PM 6.21 43.178 0.617 7.8 28.29 11.39
1/15/2023 10:30:00 PM 6.2 43.16 0.575 7.8 27.63 11.37
1/15/2023 10:45:00 PM 6.19 43.142 0.58 7.8 28.26 11.32
1/15/2023 11:00:00 PM 6.17 43.106 0.578 7.79 28.07 11.28
1/15/2023 11:15:00 PM 6.14 43.052 0.576 7.79 29.45 11.22
1/15/2023 11:30:00 PM 6.12 43.016 0.626 7.77 30.18 11.19
1/15/2023 11:45:00 PM 6.1 42.98 0.627 7.78 29.39 11.15
1/16/2023 12:00:00 AM 6.07 42.926 0.627 7.78 30.34 11.1
1/16/2023 12:15:00 AM 6.05 42.89 0.591 7.77 30.52 11.06
1/16/2023 12:30:00 AM 6.02 42.836 0.521 7.76 31.39 11.02
1/16/2023 12:45:00 AM 6 42.8 0.609 7.76 30.76 10.96
1/16/2023 1:00:00 AM 5.98 42.764 0.61 7.76 30.36 10.94
1/16/2023 1:15:00 AM 5.97 42.746 0.612 7.75 30.64 10.89
1/16/2023 1:30:00 AM 5.96 42.728 0.613 7.75 29.98 10.87
1/16/2023 1:45:00 AM 5.96 42.728 0.614 7.74 31.14 10.86
1/16/2023 2:00:00 AM 5.96 42.728 0.616 7.74 30.89 10.83
1/16/2023 2:15:00 AM 5.95 42.71 0.617 7.73 32.94 10.8
1/16/2023 2:30:00 AM 5.94 42.692 0.618 7.73 37.65 10.8
1/16/2023 2:45:00 AM 5.94 42.692 0.618 7.73 35.48 10.78
1/16/2023 3:00:00 AM 5.93 42.674 0.618 7.72 33.97 10.77
1/16/2023 3:15:00 AM 5.91 42.638 0.619 7.72 33.6 10.76
1/16/2023 3:30:00 AM 5.89 42.602 0.619 7.72 37.7 10.75
1/16/2023 3:45:00 AM 5.87 42.566 0.619 7.72 35.57 10.73
1/16/2023 4:00:00 AM 5.84 42.512 0.62 7.72 31.32 10.72
1/16/2023 4:15:00 AM 5.82 42.476 0.621 7.72 31.55 10.7
1/16/2023 4:30:00 AM 5.79 42.422 0.62 7.72 30.87 10.71
1/16/2023 4:45:00 AM 5.78 42.404 0.622 7.72 30.77 10.71
1/16/2023 5:00:00 AM 5.75 42.35 0.623 7.71 31.12 10.69
1/16/2023 5:15:00 AM 5.73 42.314 0.624 7.71 32.11 10.7
1/16/2023 5:30:00 AM 5.7 42.26 0.625 7.71 32.43 10.7
1/16/2023 5:45:00 AM 5.68 42.224 0.626 7.7 32.8 10.69
1/16/2023 6:00:00 AM 5.66 42.188 0.626 7.7 33.27 10.69
1/16/2023 6:15:00 AM 5.64 42.152 0.627 7.71 33.13 10.69
1/16/2023 6:30:00 AM 5.61 42.098 0.628 7.71 32.7 10.71
1/16/2023 6:45:00 AM 5.59 42.062 0.629 7.71 33.37 10.71
1/16/2023 7:00:00 AM 5.56 42.008 0.629 7.7 32.99 10.71
1/16/2023 7:15:00 AM 5.54 41.972 0.63 7.7 33.16 10.73
1/16/2023 7:30:00 AM 5.51 41.918 0.63 7.71 33.38 10.73
1/16/2023 7:45:00 AM 5.49 41.882 0.631 7.71 32.34 10.77
1/16/2023 8:00:00 AM 5.46 41.828 0.631 7.71 32.66 10.83
1/16/2023 8:15:00 AM 5.44 41.792 0.631 7.72 31.99 10.9
1/16/2023 8:30:00 AM 5.42 41.756 0.631 7.72 32.65 10.99
1/16/2023 8:45:00 AM 5.42 41.756 0.582 7.73 32.07 11.08
1/16/2023 9:00:00 AM 5.41 41.738 0.58 7.73 31.84 11.21
1/16/2023 9:15:00 AM 5.43 41.774 0.579 7.74 31.21 11.38
1/16/2023 9:30:00 AM 5.46 41.828 0.58 7.75 31.66 11.54
1/16/2023 9:45:00 AM 5.52 41.936 0.58 7.76 31.31 11.75
1/16/2023 10:00:00 AM 5.59 42.062 0.58 7.78 31.75 11.98
1/16/2023 10:15:00 AM 5.68 42.224 0.58 7.8 31.24 12.21
1/16/2023 10:30:00 AM 5.76 42.368 0.58 7.81 30.98 12.45
1/16/2023 10:45:00 AM 5.86 42.548 0.581 7.83 32.06 12.64
1/16/2023 11:00:00 AM 5.96 42.728 0.581 7.84 32.18 12.84
1/16/2023 11:15:00 AM 6.06 42.908 0.58 7.85 32.05 13.01
1/16/2023 11:30:00 AM 6.17 43.106 0.581 7.86 32.19 13.18
1/16/2023 11:45:00 AM 6.29 43.322 0.58 7.88 31.63 13.33
1/16/2023 12:00:00 PM 6.42 43.556 0.58 7.88 31.44 13.45
1/16/2023 12:15:00 PM 6.52 43.736 0.579 7.9 31.93 13.59
1/16/2023 12:30:00 PM 6.63 43.934 0.578 7.9 31.1 13.67
1/16/2023 12:45:00 PM 6.72 44.096 0.577 7.91 31.12 13.75
1/16/2023 1:00:00 PM 6.81 44.258 0.577 7.92 30.99 13.81
1/16/2023 1:15:00 PM 6.87 44.366 0.576 7.92 30.18 13.87
1/16/2023 1:30:00 PM 6.93 44.474 0.574 7.93 29.91 13.92
1/16/2023 1:45:00 PM 6.99 44.582 0.574 7.93 29.99 13.97
1/16/2023 2:00:00 PM 7.04 44.672 0.573 7.94 30.42 14.03
1/16/2023 2:15:00 PM 7.09 44.762 0.572 7.95 31.47 14.07
1/16/2023 2:30:00 PM 7.13 44.834 0.565 7.96 32.37 14.1
1/16/2023 2:45:00 PM 7.15 44.87 0.559 7.95 32.25 14.1
1/16/2023 3:00:00 PM 7.14 44.852 0.618 7.95 31.24 14.06
1/16/2023 3:15:00 PM 7.14 44.852 0.618 7.95 30.75 13.98
1/16/2023 3:30:00 PM 7.14 44.852 0.615 7.95 30.37 13.89
1/16/2023 3:45:00 PM 7.13 44.834 0.616 7.95 29.92 13.82
1/16/2023 4:00:00 PM 7.1 44.78 0.615 7.94 30.07 13.66
1/16/2023 4:15:00 PM 7.09 44.762 0.615 7.93 30.79 13.53
1/16/2023 4:30:00 PM 7.06 44.708 0.616 7.93 30.93 13.35
1/16/2023 4:45:00 PM 7.04 44.672 0.616 7.92 31.02 13.19
1/16/2023 5:00:00 PM 7.02 44.636 0.616 7.89 31.21 13
1/16/2023 5:15:00 PM 7 44.6 0.6 7.89 31.11 12.8
1/16/2023 5:30:00 PM 6.98 44.564 0.598 7.88 32.48 12.61
1/16/2023 5:45:00 PM 6.96 44.528 0.599 7.88 32.77 12.43
1/16/2023 6:00:00 PM 6.95 44.51 0.591 7.87 32.8 12.29
1/16/2023 6:15:00 PM 6.94 44.492 0.596 7.86 33.34 12.14
1/16/2023 6:30:00 PM 6.94 44.492 0.596 7.86 32.59 12.06
1/16/2023 6:45:00 PM 6.93 44.474 0.571 7.85 33.35 11.97
1/16/2023 7:00:00 PM 6.93 44.474 0.57 7.85 33.37 11.88
1/16/2023 7:15:00 PM 6.92 44.456 0.57 7.84 34.83 11.81
1/16/2023 7:30:00 PM 6.91 44.438 0.571 7.84 36.21 11.72
1/16/2023 7:45:00 PM 6.9 44.42 0.572 7.83 35.03 11.63
1/16/2023 8:00:00 PM 6.89 44.402 0.574 7.84 34.97 11.54
1/16/2023 8:15:00 PM 6.88 44.384 0.575 7.83 34.76 11.49
1/16/2023 8:30:00 PM 6.86 44.348 0.579 7.82 34.23 11.42
1/16/2023 8:45:00 PM 6.86 44.348 0.581 7.82 35.23 11.35
1/16/2023 9:00:00 PM 6.85 44.33 0.583 7.81 34.35 11.28
1/16/2023 9:15:00 PM 6.85 44.33 0.585 7.81 35.5 11.22
1/16/2023 9:30:00 PM 6.84 44.312 0.586 7.81 37.49 11.16
1/16/2023 9:45:00 PM 6.84 44.312 0.585 7.81 35.49 11.1
1/16/2023 10:00:00 PM 6.83 44.294 0.589 7.8 36.49 11.03
1/16/2023 10:15:00 PM 6.82 44.276 0.571 7.8 35.12 10.98
1/16/2023 10:30:00 PM 6.82 44.276 0.55 7.79 35.26 10.93
1/16/2023 10:45:00 PM 6.82 44.276 0.546 7.79 35.15 10.86
1/16/2023 11:00:00 PM 6.83 44.294 0.594 7.79 36.55 10.81
1/16/2023 11:15:00 PM 6.83 44.294 0.577 7.78 35.1 10.76
1/16/2023 11:30:00 PM 6.83 44.294 0.563 7.78 34.16 10.7
1/16/2023 11:45:00 PM 6.83 44.294 0.586 7.77 36.32 10.64
1/17/2023 12:00:00 AM 6.82 44.276 0.603 7.77 34.68 10.59
1/17/2023 12:15:00 AM 6.8 44.24 0.601 7.75 35.2 10.53
1/17/2023 12:30:00 AM 6.79 44.222 0.605 7.75 35.13 10.46
1/17/2023 12:45:00 AM 6.78 44.204 0.605 7.75 35.12 10.44
1/17/2023 1:00:00 AM 6.77 44.186 0.545 7.74 36.57 10.41
1/17/2023 1:15:00 AM 6.75 44.15 0.608 7.74 36.11 10.37
1/17/2023 1:30:00 AM 6.74 44.132 0.608 7.73 36.37 10.34
1/17/2023 1:45:00 AM 6.73 44.114 0.61 7.73 35.87 10.32
1/17/2023 2:00:00 AM 6.72 44.096 0.609 7.73 35.76 10.28
1/17/2023 2:15:00 AM 6.73 44.114 0.609 7.72 36.95 10.22
1/17/2023 2:30:00 AM 6.74 44.132 0.611 7.72 37.51 10.19
1/17/2023 2:45:00 AM 6.75 44.15 0.606 7.71 37.01 10.14
1/17/2023 3:00:00 AM 6.77 44.186 0.608 7.71 37.99 10.1
1/17/2023 3:15:00 AM 6.79 44.222 0.612 7.71 38.78 10.07
1/17/2023 3:30:00 AM 6.8 44.24 0.608 7.7 39.42 10.05
1/17/2023 3:45:00 AM 6.82 44.276 0.58 7.7 40.53 10.04
1/17/2023 4:00:00 AM 6.83 44.294 0.617 7.69 39.88 10.02
1/17/2023 4:15:00 AM 6.84 44.312 0.583 7.7 39.47 10.01
1/17/2023 4:30:00 AM 6.84 44.312 0.576 7.7 40.71 10.04
1/17/2023 4:45:00 AM 6.84 44.312 0.624 7.69 42.4 10.04
1/17/2023 5:00:00 AM 6.85 44.33 0.618 7.69 41.09 10.04
1/17/2023 5:15:00 AM 6.85 44.33 0.572 7.69 42.13 10.04
1/17/2023 5:30:00 AM 6.85 44.33 0.579 7.69 44.37 10.03
1/17/2023 5:45:00 AM 6.85 44.33 0.579 7.68 48.07 10.03
1/17/2023 6:00:00 AM 6.85 44.33 0.623 7.68 42.92 10.02
1/17/2023 6:15:00 AM 6.86 44.348 0.567 7.68 49.77 10.02
1/17/2023 6:30:00 AM 6.87 44.366 0.57 7.67 41.58 10.01
1/17/2023 6:45:00 AM 6.88 44.384 0.583 7.68 41.31 10
1/17/2023 7:00:00 AM 6.88 44.384 0.576 7.68 41.16 10.01
1/17/2023 7:15:00 AM 6.89 44.402 0.573 7.68 40.41 10
1/17/2023 7:30:00 AM 6.9 44.42 0.532 7.68 40.87 9.99
1/17/2023 7:45:00 AM 6.91 44.438 0.57 7.68 41.13 9.99
1/17/2023 8:00:00 AM 6.92 44.456 0.5 7.66 40.15 9.99
1/17/2023 8:15:00 AM 6.93 44.474 0.435 7.66 41.12 10.04
1/17/2023 8:30:00 AM 6.95 44.51 0.579 7.66 40.76 10.1
1/17/2023 8:45:00 AM 6.97 44.546 0.574 7.67 41.24 10.18
1/17/2023 9:00:00 AM 6.99 44.582 0.575 7.67 44.34 10.23
1/17/2023 9:15:00 AM 7.02 44.636 0.604 7.68 40.79 10.31
1/17/2023 9:30:00 AM 7.05 44.69 0.587 7.69 40.35 10.39
1/17/2023 9:45:00 AM 7.08 44.744 0.596 7.69 40.68 10.51
1/17/2023 10:00:00 AM 7.12 44.816 0.607 7.7 41.1 10.63
1/17/2023 10:15:00 AM 7.16 44.888 0.593 7.71 40.33 10.71
1/17/2023 10:30:00 AM 7.19 44.942 0.621 7.72 40.99 10.8
1/17/2023 10:45:00 AM 7.23 45.014 0.604 7.72 40.45 10.92
1/17/2023 11:00:00 AM 7.28 45.104 0.622 7.73 40.37 11.04
1/17/2023 11:15:00 AM 7.32 45.176 0.623 7.74 41.51 11.16
1/17/2023 11:30:00 AM 7.36 45.248 0.623 7.75 40.55 11.3
1/17/2023 11:45:00 AM 7.4 45.32 0.623 7.76 41.36 11.38
1/17/2023 12:00:00 PM 7.43 45.374 0.623 7.76 40.48 11.43
1/17/2023 12:15:00 PM 7.47 45.446 0.623 7.77 41.47 11.53
1/17/2023 12:30:00 PM 7.52 45.536 0.623 7.78 40.99 11.64
1/17/2023 12:45:00 PM 7.57 45.626 0.623 7.79 42.06 11.75
1/17/2023 1:00:00 PM 7.62 45.716 0.624 7.8 40.85 11.87
1/17/2023 1:15:00 PM 7.69 45.842 0.624 7.81 40.72 12.05
1/17/2023 1:30:00 PM 7.75 45.95 0.624 7.83 41.69 12.25
1/17/2023 1:45:00 PM 7.81 46.058 0.624 7.84 42.46 12.45
1/17/2023 2:00:00 PM 7.89 46.202 0.623 7.86 43.88 12.7
1/17/2023 2:15:00 PM 7.96 46.328 0.623 7.87 40.89 12.95
1/17/2023 2:30:00 PM 8.01 46.418 0.623 7.89 41.75 13.04
1/17/2023 2:45:00 PM 8.05 46.49 0.623 7.89 43.87 13.08
1/17/2023 3:00:00 PM 8.1 46.58 0.623 7.9 42.18 13.12
1/17/2023 3:15:00 PM 8.14 46.652 0.623 7.91 42.6 13.15
1/17/2023 3:30:00 PM 8.17 46.706 0.623 7.91 43.75 13.12
1/17/2023 3:45:00 PM 8.19 46.742 0.623 7.91 41.65 13.11
1/17/2023 4:00:00 PM 8.2 46.76 0.623 7.91 42.13 13.11
1/17/2023 4:15:00 PM 8.21 46.778 0.623 7.91 46.87 13.04
1/17/2023 4:30:00 PM 8.22 46.796 0.577 7.9 43.52 12.88
1/17/2023 4:45:00 PM 8.24 46.832 0.553 7.89 42.71 12.71
1/17/2023 5:00:00 PM 8.25 46.85 0.529 7.89 43.65 12.5
1/17/2023 5:15:00 PM 8.26 46.868 0.542 7.87 43.81 12.28
1/17/2023 5:30:00 PM 8.25 46.85 0.548 7.86 43.56 12.06
1/17/2023 5:45:00 PM 8.24 46.832 0.573 7.85 43.84 11.85
1/17/2023 6:00:00 PM 8.22 46.796 0.561 7.84 45.21 11.7
1/17/2023 6:15:00 PM 8.22 46.796 0.567 7.83 43.88 11.57
1/17/2023 6:30:00 PM 8.22 46.796 0.506 7.83 44.64 11.46
1/17/2023 6:45:00 PM 8.22 46.796 0.624 7.82 42.25 11.34
1/17/2023 7:00:00 PM 8.22 46.796 0.589 7.82 43.65 11.24
1/17/2023 7:15:00 PM 8.23 46.814 0.592 7.81 43.87 11.17
1/17/2023 7:30:00 PM 8.23 46.814 0.624 7.81 44.2 11.09
1/17/2023 7:45:00 PM 8.22 46.796 0.549 7.81 44.02 11.03
1/17/2023 8:00:00 PM 8.2 46.76 0.625 7.81 45.58 10.98
1/17/2023 8:15:00 PM 8.18 46.724 0.626 7.8 45.67 10.93
1/17/2023 8:30:00 PM 8.16 46.688 0.561 7.8 46.42 10.88
1/17/2023 8:45:00 PM 8.16 46.688 0.624 7.8 46.7 10.84
1/17/2023 9:00:00 PM 8.16 46.688 0.622 7.8 46.1 10.76
1/17/2023 9:15:00 PM 8.16 46.688 0.621 7.79 45.12 10.71
1/17/2023 9:30:00 PM 8.17 46.706 0.622 7.79 45.03 10.65
1/17/2023 9:45:00 PM 8.17 46.706 0.624 7.79 44.7 10.59
1/17/2023 10:00:00 PM 8.16 46.688 0.592 7.78 45.21 10.54
1/17/2023 10:15:00 PM 8.15 46.67 0.627 7.78 44.95 10.48
1/17/2023 10:30:00 PM 8.14 46.652 0.628 7.78 45.27 10.42
1/17/2023 10:45:00 PM 8.12 46.616 0.579 7.77 46.85 10.37
1/17/2023 11:00:00 PM 8.11 46.598 0.539 7.77 46.39 10.32
1/17/2023 11:15:00 PM 8.1 46.58 0.586 7.77 46.54 10.28
1/17/2023 11:30:00 PM 8.09 46.562 0.539 7.76 45.87 10.22
1/17/2023 11:45:00 PM 8.09 46.562 0.57 7.76 46.94 10.16
1/18/2023 12:00:00 AM 8.1 46.58 0.555 7.76 46.18 10.11
1/18/2023 12:15:00 AM 8.1 46.58 0.629 7.75 46.21 10.04
1/18/2023 12:30:00 AM 8.1 46.58 0.629 7.75 47.22 10.01
1/18/2023 12:45:00 AM 8.11 46.598 0.63 7.74 46.82 9.98
1/18/2023 1:00:00 AM 8.12 46.616 0.628 7.74 47.92 9.96
1/18/2023 1:15:00 AM 8.13 46.634 0.628 7.74 47.76 9.93
1/18/2023 1:30:00 AM 8.13 46.634 0.628 7.74 49.1 9.9
1/18/2023 1:45:00 AM 8.14 46.652 0.628 7.73 47.97 9.86
1/18/2023 2:00:00 AM 8.15 46.67 0.629 7.73 48.6 9.8
1/18/2023 2:15:00 AM 8.17 46.706 0.629 7.73 48.58 9.77
1/18/2023 2:30:00 AM 8.18 46.724 0.629 7.73 48.89 9.73
1/18/2023 2:45:00 AM 8.2 46.76 0.629 7.72 49.21 9.71
1/18/2023 3:00:00 AM 8.21 46.778 0.629 7.72